<?xml version="1.0" encoding="UTF-8" standalone="no" ?>
<gpx xmlns="http://www.topografix.com/GPX/1/1" xmlns:xsi="http://www.w3.org/2001/XMLSchema-instance" xsi:schemaLocation="http://www.topografix.com/GPX/1/1 http://www.topografix.com/GPX/1/1/gpx.xsd" version="1.1" creator="VisuGPX - https://www.visugpx.com">
  <metadata>
    <name>ahuy parking milles clubs</name>
    <desc><![CDATA[sortie vtt de décembre au départ du parking des milles clubs
Sortie agréable mais exigeante]]></desc>
  </metadata>
  <trk>
    <name><![CDATA[Current Track: 16 OCT 2016 06:59]]></name>
    <trkseg>
      <trkpt lat="47.2972" lon="5.00293">
        <ele>277</ele>
        <time>2016-10-16T05:59:03Z</time>
      </trkpt>
      <trkpt lat="47.29724" lon="5.00298">
        <ele>290.94</ele>
        <time>2016-10-16T05:59:38Z</time>
      </trkpt>
      <trkpt lat="47.29723" lon="5.00296">
        <ele>281.8</ele>
        <time>2016-10-16T06:00:18Z</time>
      </trkpt>
      <trkpt lat="47.29723" lon="5.00296">
        <ele>281.8</ele>
        <time>2016-10-16T06:00:34Z</time>
      </trkpt>
      <trkpt lat="47.29717" lon="5.00298">
        <ele>276.52</ele>
        <time>2016-10-16T06:00:51Z</time>
      </trkpt>
      <trkpt lat="47.29722" lon="5.00292">
        <ele>274.59</ele>
        <time>2016-10-16T06:01:26Z</time>
      </trkpt>
      <trkpt lat="47.29727" lon="5.00296">
        <ele>276.52</ele>
        <time>2016-10-16T06:01:39Z</time>
      </trkpt>
      <trkpt lat="47.29725" lon="5.00296">
        <ele>276.52</ele>
        <time>2016-10-16T06:02:09Z</time>
      </trkpt>
      <trkpt lat="47.29725" lon="5.00294">
        <ele>276.52</ele>
        <time>2016-10-16T06:02:24Z</time>
      </trkpt>
      <trkpt lat="47.29726" lon="5.00296">
        <ele>275.56</ele>
        <time>2016-10-16T06:02:53Z</time>
      </trkpt>
      <trkpt lat="47.29724" lon="5.00295">
        <ele>275.56</ele>
        <time>2016-10-16T06:02:58Z</time>
      </trkpt>
      <trkpt lat="47.29719" lon="5.00292">
        <ele>275.56</ele>
        <time>2016-10-16T06:03:08Z</time>
      </trkpt>
      <trkpt lat="47.29723" lon="5.00292">
        <ele>276.04</ele>
        <time>2016-10-16T06:03:14Z</time>
      </trkpt>
      <trkpt lat="47.29727" lon="5.00295">
        <ele>277</ele>
        <time>2016-10-16T06:03:28Z</time>
      </trkpt>
      <trkpt lat="47.29727" lon="5.00295">
        <ele>277</ele>
        <time>2016-10-16T06:03:49Z</time>
      </trkpt>
      <trkpt lat="47.29727" lon="5.00295">
        <ele>277</ele>
        <time>2016-10-16T06:04:10Z</time>
      </trkpt>
      <trkpt lat="47.29727" lon="5.00295">
        <ele>277.96</ele>
        <time>2016-10-16T06:04:40Z</time>
      </trkpt>
      <trkpt lat="47.29727" lon="5.00295">
        <ele>278.92</ele>
        <time>2016-10-16T06:05:12Z</time>
      </trkpt>
      <trkpt lat="47.29727" lon="5.00294">
        <ele>278.44</ele>
        <time>2016-10-16T06:05:35Z</time>
      </trkpt>
      <trkpt lat="47.29727" lon="5.00295">
        <ele>277.48</ele>
        <time>2016-10-16T06:05:58Z</time>
      </trkpt>
      <trkpt lat="47.29728" lon="5.00295">
        <ele>277</ele>
        <time>2016-10-16T06:06:18Z</time>
      </trkpt>
      <trkpt lat="47.29728" lon="5.00294">
        <ele>277</ele>
        <time>2016-10-16T06:06:33Z</time>
      </trkpt>
      <trkpt lat="47.29739" lon="5.00298">
        <ele>277.48</ele>
        <time>2016-10-16T06:06:41Z</time>
      </trkpt>
      <trkpt lat="47.29768" lon="5.00312">
        <ele>277</ele>
        <time>2016-10-16T06:06:55Z</time>
      </trkpt>
      <trkpt lat="47.29815" lon="5.00344">
        <ele>278.44</ele>
        <time>2016-10-16T06:07:09Z</time>
      </trkpt>
      <trkpt lat="47.29863" lon="5.00385">
        <ele>278.92</ele>
        <time>2016-10-16T06:07:27Z</time>
      </trkpt>
      <trkpt lat="47.29879" lon="5.00379">
        <ele>280.36</ele>
        <time>2016-10-16T06:07:36Z</time>
      </trkpt>
      <trkpt lat="47.29891" lon="5.00306">
        <ele>279.4</ele>
        <time>2016-10-16T06:07:55Z</time>
      </trkpt>
      <trkpt lat="47.29905" lon="5.00259">
        <ele>281.32</ele>
        <time>2016-10-16T06:08:10Z</time>
      </trkpt>
      <trkpt lat="47.29908" lon="5.00226">
        <ele>283.25</ele>
        <time>2016-10-16T06:08:22Z</time>
      </trkpt>
      <trkpt lat="47.29913" lon="5.00201">
        <ele>286.13</ele>
        <time>2016-10-16T06:08:34Z</time>
      </trkpt>
      <trkpt lat="47.2992" lon="5.00164">
        <ele>288.05</ele>
        <time>2016-10-16T06:08:50Z</time>
      </trkpt>
      <trkpt lat="47.29924" lon="5.0013">
        <ele>290.46</ele>
        <time>2016-10-16T06:09:07Z</time>
      </trkpt>
      <trkpt lat="47.29924" lon="5.00128">
        <ele>290.46</ele>
        <time>2016-10-16T06:09:09Z</time>
      </trkpt>
      <trkpt lat="47.29916" lon="5.00108">
        <ele>291.9</ele>
        <time>2016-10-16T06:09:20Z</time>
      </trkpt>
      <trkpt lat="47.29913" lon="5.00101">
        <ele>293.34</ele>
        <time>2016-10-16T06:09:24Z</time>
      </trkpt>
      <trkpt lat="47.29911" lon="5.00092">
        <ele>295.74</ele>
        <time>2016-10-16T06:09:30Z</time>
      </trkpt>
      <trkpt lat="47.2991" lon="5.00061">
        <ele>298.15</ele>
        <time>2016-10-16T06:09:47Z</time>
      </trkpt>
      <trkpt lat="47.29911" lon="5.00057">
        <ele>298.63</ele>
        <time>2016-10-16T06:09:50Z</time>
      </trkpt>
      <trkpt lat="47.29916" lon="5.00026">
        <ele>301.51</ele>
        <time>2016-10-16T06:10:08Z</time>
      </trkpt>
      <trkpt lat="47.29925" lon="4.99998">
        <ele>305.36</ele>
        <time>2016-10-16T06:10:26Z</time>
      </trkpt>
      <trkpt lat="47.2993" lon="4.9999">
        <ele>305.84</ele>
        <time>2016-10-16T06:10:36Z</time>
      </trkpt>
      <trkpt lat="47.29943" lon="4.99976">
        <ele>305.84</ele>
        <time>2016-10-16T06:10:48Z</time>
      </trkpt>
      <trkpt lat="47.29947" lon="4.99975">
        <ele>305.84</ele>
        <time>2016-10-16T06:10:52Z</time>
      </trkpt>
      <trkpt lat="47.29959" lon="4.99951">
        <ele>306.32</ele>
        <time>2016-10-16T06:11:03Z</time>
      </trkpt>
      <trkpt lat="47.2996" lon="4.99946">
        <ele>306.32</ele>
        <time>2016-10-16T06:11:05Z</time>
      </trkpt>
      <trkpt lat="47.29963" lon="4.99936">
        <ele>306.8</ele>
        <time>2016-10-16T06:11:09Z</time>
      </trkpt>
      <trkpt lat="47.29976" lon="4.99907">
        <ele>309.2</ele>
        <time>2016-10-16T06:11:21Z</time>
      </trkpt>
      <trkpt lat="47.29976" lon="4.99903">
        <ele>309.2</ele>
        <time>2016-10-16T06:11:23Z</time>
      </trkpt>
      <trkpt lat="47.29979" lon="4.99886">
        <ele>311.6</ele>
        <time>2016-10-16T06:11:30Z</time>
      </trkpt>
      <trkpt lat="47.29978" lon="4.99871">
        <ele>312.09</ele>
        <time>2016-10-16T06:11:37Z</time>
      </trkpt>
      <trkpt lat="47.29978" lon="4.99857">
        <ele>313.05</ele>
        <time>2016-10-16T06:11:44Z</time>
      </trkpt>
      <trkpt lat="47.29982" lon="4.99848">
        <ele>314.97</ele>
        <time>2016-10-16T06:11:49Z</time>
      </trkpt>
      <trkpt lat="47.29985" lon="4.99824">
        <ele>321.22</ele>
        <time>2016-10-16T06:12:03Z</time>
      </trkpt>
      <trkpt lat="47.29983" lon="4.99807">
        <ele>328.43</ele>
        <time>2016-10-16T06:12:17Z</time>
      </trkpt>
      <trkpt lat="47.2998" lon="4.99792">
        <ele>329.87</ele>
        <time>2016-10-16T06:12:29Z</time>
      </trkpt>
      <trkpt lat="47.29978" lon="4.99788">
        <ele>331.31</ele>
        <time>2016-10-16T06:12:44Z</time>
      </trkpt>
      <trkpt lat="47.29976" lon="4.99781">
        <ele>332.75</ele>
        <time>2016-10-16T06:13:00Z</time>
      </trkpt>
      <trkpt lat="47.29975" lon="4.99775">
        <ele>332.27</ele>
        <time>2016-10-16T06:13:13Z</time>
      </trkpt>
      <trkpt lat="47.29974" lon="4.9977">
        <ele>331.79</ele>
        <time>2016-10-16T06:13:28Z</time>
      </trkpt>
      <trkpt lat="47.29971" lon="4.99766">
        <ele>331.31</ele>
        <time>2016-10-16T06:13:42Z</time>
      </trkpt>
      <trkpt lat="47.2997" lon="4.99763">
        <ele>332.75</ele>
        <time>2016-10-16T06:13:58Z</time>
      </trkpt>
      <trkpt lat="47.29971" lon="4.99759">
        <ele>334.68</ele>
        <time>2016-10-16T06:14:08Z</time>
      </trkpt>
      <trkpt lat="47.29975" lon="4.99745">
        <ele>336.12</ele>
        <time>2016-10-16T06:14:21Z</time>
      </trkpt>
      <trkpt lat="47.2998" lon="4.99733">
        <ele>338.04</ele>
        <time>2016-10-16T06:14:34Z</time>
      </trkpt>
      <trkpt lat="47.29986" lon="4.99723">
        <ele>342.37</ele>
        <time>2016-10-16T06:14:48Z</time>
      </trkpt>
      <trkpt lat="47.2999" lon="4.99716">
        <ele>342.85</ele>
        <time>2016-10-16T06:15:02Z</time>
      </trkpt>
      <trkpt lat="47.29993" lon="4.99707">
        <ele>344.77</ele>
        <time>2016-10-16T06:15:17Z</time>
      </trkpt>
      <trkpt lat="47.29994" lon="4.99694">
        <ele>345.25</ele>
        <time>2016-10-16T06:15:33Z</time>
      </trkpt>
      <trkpt lat="47.29999" lon="4.99683">
        <ele>347.17</ele>
        <time>2016-10-16T06:15:48Z</time>
      </trkpt>
      <trkpt lat="47.30009" lon="4.9966">
        <ele>346.69</ele>
        <time>2016-10-16T06:16:00Z</time>
      </trkpt>
      <trkpt lat="47.30012" lon="4.99647">
        <ele>347.65</ele>
        <time>2016-10-16T06:16:06Z</time>
      </trkpt>
      <trkpt lat="47.3002" lon="4.99619">
        <ele>349.1</ele>
        <time>2016-10-16T06:16:18Z</time>
      </trkpt>
      <trkpt lat="47.30028" lon="4.99593">
        <ele>351.98</ele>
        <time>2016-10-16T06:16:30Z</time>
      </trkpt>
      <trkpt lat="47.30025" lon="4.99572">
        <ele>353.9</ele>
        <time>2016-10-16T06:16:43Z</time>
      </trkpt>
      <trkpt lat="47.30023" lon="4.99568">
        <ele>353.42</ele>
        <time>2016-10-16T06:17:01Z</time>
      </trkpt>
      <trkpt lat="47.30024" lon="4.99568">
        <ele>353.9</ele>
        <time>2016-10-16T06:17:21Z</time>
      </trkpt>
      <trkpt lat="47.30025" lon="4.99566">
        <ele>353.9</ele>
        <time>2016-10-16T06:17:39Z</time>
      </trkpt>
      <trkpt lat="47.30031" lon="4.99537">
        <ele>356.31</ele>
        <time>2016-10-16T06:17:52Z</time>
      </trkpt>
      <trkpt lat="47.30035" lon="4.99529">
        <ele>357.75</ele>
        <time>2016-10-16T06:17:56Z</time>
      </trkpt>
      <trkpt lat="47.30036" lon="4.99511">
        <ele>360.63</ele>
        <time>2016-10-16T06:18:03Z</time>
      </trkpt>
      <trkpt lat="47.30046" lon="4.99487">
        <ele>362.55</ele>
        <time>2016-10-16T06:18:12Z</time>
      </trkpt>
      <trkpt lat="47.30048" lon="4.99485">
        <ele>362.55</ele>
        <time>2016-10-16T06:18:13Z</time>
      </trkpt>
      <trkpt lat="47.30059" lon="4.99456">
        <ele>361.59</ele>
        <time>2016-10-16T06:18:25Z</time>
      </trkpt>
      <trkpt lat="47.30068" lon="4.99422">
        <ele>360.15</ele>
        <time>2016-10-16T06:18:38Z</time>
      </trkpt>
      <trkpt lat="47.30071" lon="4.99401">
        <ele>361.59</ele>
        <time>2016-10-16T06:18:46Z</time>
      </trkpt>
      <trkpt lat="47.30075" lon="4.99362">
        <ele>360.15</ele>
        <time>2016-10-16T06:18:59Z</time>
      </trkpt>
      <trkpt lat="47.30076" lon="4.9936">
        <ele>359.67</ele>
        <time>2016-10-16T06:19:00Z</time>
      </trkpt>
      <trkpt lat="47.30078" lon="4.99347">
        <ele>359.67</ele>
        <time>2016-10-16T06:19:06Z</time>
      </trkpt>
      <trkpt lat="47.30079" lon="4.9934">
        <ele>360.63</ele>
        <time>2016-10-16T06:19:11Z</time>
      </trkpt>
      <trkpt lat="47.30078" lon="4.99324">
        <ele>362.07</ele>
        <time>2016-10-16T06:19:24Z</time>
      </trkpt>
      <trkpt lat="47.30076" lon="4.99319">
        <ele>359.19</ele>
        <time>2016-10-16T06:19:52Z</time>
      </trkpt>
      <trkpt lat="47.30076" lon="4.99315">
        <ele>359.19</ele>
        <time>2016-10-16T06:20:28Z</time>
      </trkpt>
      <trkpt lat="47.30075" lon="4.99311">
        <ele>358.23</ele>
        <time>2016-10-16T06:20:55Z</time>
      </trkpt>
      <trkpt lat="47.30061" lon="4.99302">
        <ele>363.04</ele>
        <time>2016-10-16T06:21:08Z</time>
      </trkpt>
      <trkpt lat="47.30039" lon="4.99297">
        <ele>367.84</ele>
        <time>2016-10-16T06:21:20Z</time>
      </trkpt>
      <trkpt lat="47.3001" lon="4.9928">
        <ele>369.76</ele>
        <time>2016-10-16T06:21:33Z</time>
      </trkpt>
      <trkpt lat="47.29985" lon="4.99261">
        <ele>369.28</ele>
        <time>2016-10-16T06:21:47Z</time>
      </trkpt>
      <trkpt lat="47.29977" lon="4.99238">
        <ele>372.65</ele>
        <time>2016-10-16T06:21:59Z</time>
      </trkpt>
      <trkpt lat="47.29977" lon="4.99234">
        <ele>374.09</ele>
        <time>2016-10-16T06:22:02Z</time>
      </trkpt>
      <trkpt lat="47.29976" lon="4.99194">
        <ele>376.49</ele>
        <time>2016-10-16T06:22:16Z</time>
      </trkpt>
      <trkpt lat="47.29974" lon="4.99179">
        <ele>377.45</ele>
        <time>2016-10-16T06:22:22Z</time>
      </trkpt>
      <trkpt lat="47.29975" lon="4.99158">
        <ele>377.45</ele>
        <time>2016-10-16T06:22:27Z</time>
      </trkpt>
      <trkpt lat="47.29986" lon="4.99112">
        <ele>378.42</ele>
        <time>2016-10-16T06:22:40Z</time>
      </trkpt>
      <trkpt lat="47.30009" lon="4.99074">
        <ele>378.42</ele>
        <time>2016-10-16T06:22:56Z</time>
      </trkpt>
      <trkpt lat="47.30021" lon="4.99033">
        <ele>379.38</ele>
        <time>2016-10-16T06:23:10Z</time>
      </trkpt>
      <trkpt lat="47.30019" lon="4.99">
        <ele>378.9</ele>
        <time>2016-10-16T06:23:20Z</time>
      </trkpt>
      <trkpt lat="47.30007" lon="4.98992">
        <ele>379.86</ele>
        <time>2016-10-16T06:23:27Z</time>
      </trkpt>
      <trkpt lat="47.29988" lon="4.98966">
        <ele>380.82</ele>
        <time>2016-10-16T06:23:39Z</time>
      </trkpt>
      <trkpt lat="47.29957" lon="4.98952">
        <ele>382.26</ele>
        <time>2016-10-16T06:23:55Z</time>
      </trkpt>
      <trkpt lat="47.29941" lon="4.98938">
        <ele>382.74</ele>
        <time>2016-10-16T06:24:06Z</time>
      </trkpt>
      <trkpt lat="47.29921" lon="4.98931">
        <ele>382.74</ele>
        <time>2016-10-16T06:24:15Z</time>
      </trkpt>
      <trkpt lat="47.29915" lon="4.98923">
        <ele>382.74</ele>
        <time>2016-10-16T06:24:19Z</time>
      </trkpt>
      <trkpt lat="47.29893" lon="4.98891">
        <ele>383.7</ele>
        <time>2016-10-16T06:24:31Z</time>
      </trkpt>
      <trkpt lat="47.29861" lon="4.9886">
        <ele>385.63</ele>
        <time>2016-10-16T06:24:46Z</time>
      </trkpt>
      <trkpt lat="47.29824" lon="4.98823">
        <ele>386.11</ele>
        <time>2016-10-16T06:25:00Z</time>
      </trkpt>
      <trkpt lat="47.29787" lon="4.98793">
        <ele>387.07</ele>
        <time>2016-10-16T06:25:13Z</time>
      </trkpt>
      <trkpt lat="47.29752" lon="4.98763">
        <ele>388.03</ele>
        <time>2016-10-16T06:25:25Z</time>
      </trkpt>
      <trkpt lat="47.29704" lon="4.98713">
        <ele>388.03</ele>
        <time>2016-10-16T06:25:41Z</time>
      </trkpt>
      <trkpt lat="47.29679" lon="4.98643">
        <ele>387.55</ele>
        <time>2016-10-16T06:25:55Z</time>
      </trkpt>
      <trkpt lat="47.29656" lon="4.98577">
        <ele>387.55</ele>
        <time>2016-10-16T06:26:07Z</time>
      </trkpt>
      <trkpt lat="47.2965" lon="4.98566">
        <ele>387.55</ele>
        <time>2016-10-16T06:26:09Z</time>
      </trkpt>
      <trkpt lat="47.29626" lon="4.98514">
        <ele>388.03</ele>
        <time>2016-10-16T06:26:19Z</time>
      </trkpt>
      <trkpt lat="47.29609" lon="4.98469">
        <ele>388.51</ele>
        <time>2016-10-16T06:26:28Z</time>
      </trkpt>
      <trkpt lat="47.29606" lon="4.98449">
        <ele>388.99</ele>
        <time>2016-10-16T06:26:35Z</time>
      </trkpt>
      <trkpt lat="47.296" lon="4.98443">
        <ele>389.47</ele>
        <time>2016-10-16T06:26:41Z</time>
      </trkpt>
      <trkpt lat="47.29589" lon="4.98437">
        <ele>389.47</ele>
        <time>2016-10-16T06:26:46Z</time>
      </trkpt>
      <trkpt lat="47.29587" lon="4.98435">
        <ele>388.99</ele>
        <time>2016-10-16T06:27:01Z</time>
      </trkpt>
      <trkpt lat="47.29581" lon="4.98427">
        <ele>388.51</ele>
        <time>2016-10-16T06:27:14Z</time>
      </trkpt>
      <trkpt lat="47.29547" lon="4.98405">
        <ele>387.55</ele>
        <time>2016-10-16T06:27:25Z</time>
      </trkpt>
      <trkpt lat="47.29543" lon="4.98388">
        <ele>386.59</ele>
        <time>2016-10-16T06:27:34Z</time>
      </trkpt>
      <trkpt lat="47.29542" lon="4.98385">
        <ele>386.59</ele>
        <time>2016-10-16T06:27:35Z</time>
      </trkpt>
      <trkpt lat="47.29529" lon="4.9836">
        <ele>383.22</ele>
        <time>2016-10-16T06:27:42Z</time>
      </trkpt>
      <trkpt lat="47.2952" lon="4.98353">
        <ele>382.74</ele>
        <time>2016-10-16T06:27:44Z</time>
      </trkpt>
      <trkpt lat="47.29507" lon="4.98343">
        <ele>382.26</ele>
        <time>2016-10-16T06:27:47Z</time>
      </trkpt>
      <trkpt lat="47.29473" lon="4.98324">
        <ele>381.3</ele>
        <time>2016-10-16T06:27:56Z</time>
      </trkpt>
      <trkpt lat="47.29444" lon="4.9829">
        <ele>380.34</ele>
        <time>2016-10-16T06:28:04Z</time>
      </trkpt>
      <trkpt lat="47.29431" lon="4.98283">
        <ele>380.34</ele>
        <time>2016-10-16T06:28:08Z</time>
      </trkpt>
      <trkpt lat="47.29419" lon="4.98279">
        <ele>379.86</ele>
        <time>2016-10-16T06:28:11Z</time>
      </trkpt>
      <trkpt lat="47.29408" lon="4.98245">
        <ele>381.78</ele>
        <time>2016-10-16T06:28:19Z</time>
      </trkpt>
      <trkpt lat="47.29402" lon="4.98238">
        <ele>382.26</ele>
        <time>2016-10-16T06:28:21Z</time>
      </trkpt>
      <trkpt lat="47.29388" lon="4.9822">
        <ele>381.78</ele>
        <time>2016-10-16T06:28:25Z</time>
      </trkpt>
      <trkpt lat="47.29381" lon="4.9821">
        <ele>381.3</ele>
        <time>2016-10-16T06:28:27Z</time>
      </trkpt>
      <trkpt lat="47.29374" lon="4.98201">
        <ele>381.3</ele>
        <time>2016-10-16T06:28:29Z</time>
      </trkpt>
      <trkpt lat="47.29367" lon="4.98179">
        <ele>382.26</ele>
        <time>2016-10-16T06:28:33Z</time>
      </trkpt>
      <trkpt lat="47.29365" lon="4.98168">
        <ele>382.74</ele>
        <time>2016-10-16T06:28:35Z</time>
      </trkpt>
      <trkpt lat="47.29328" lon="4.98126">
        <ele>381.3</ele>
        <time>2016-10-16T06:28:48Z</time>
      </trkpt>
      <trkpt lat="47.29322" lon="4.98116">
        <ele>380.82</ele>
        <time>2016-10-16T06:28:50Z</time>
      </trkpt>
      <trkpt lat="47.29289" lon="4.98045">
        <ele>381.78</ele>
        <time>2016-10-16T06:29:03Z</time>
      </trkpt>
      <trkpt lat="47.29264" lon="4.97993">
        <ele>383.22</ele>
        <time>2016-10-16T06:29:15Z</time>
      </trkpt>
      <trkpt lat="47.29242" lon="4.97938">
        <ele>386.59</ele>
        <time>2016-10-16T06:29:27Z</time>
      </trkpt>
      <trkpt lat="47.29244" lon="4.97912">
        <ele>387.55</ele>
        <time>2016-10-16T06:29:32Z</time>
      </trkpt>
      <trkpt lat="47.29259" lon="4.97888">
        <ele>388.03</ele>
        <time>2016-10-16T06:29:40Z</time>
      </trkpt>
      <trkpt lat="47.293" lon="4.97863">
        <ele>386.11</ele>
        <time>2016-10-16T06:29:50Z</time>
      </trkpt>
      <trkpt lat="47.29343" lon="4.97863">
        <ele>386.59</ele>
        <time>2016-10-16T06:30:02Z</time>
      </trkpt>
      <trkpt lat="47.29357" lon="4.97858">
        <ele>387.55</ele>
        <time>2016-10-16T06:30:12Z</time>
      </trkpt>
      <trkpt lat="47.29358" lon="4.97859">
        <ele>386.11</ele>
        <time>2016-10-16T06:30:34Z</time>
      </trkpt>
      <trkpt lat="47.29371" lon="4.97849">
        <ele>385.63</ele>
        <time>2016-10-16T06:30:52Z</time>
      </trkpt>
      <trkpt lat="47.29386" lon="4.97813">
        <ele>385.63</ele>
        <time>2016-10-16T06:31:02Z</time>
      </trkpt>
      <trkpt lat="47.29396" lon="4.97761">
        <ele>387.07</ele>
        <time>2016-10-16T06:31:12Z</time>
      </trkpt>
      <trkpt lat="47.29417" lon="4.97689">
        <ele>387.55</ele>
        <time>2016-10-16T06:31:26Z</time>
      </trkpt>
      <trkpt lat="47.29413" lon="4.97662">
        <ele>388.03</ele>
        <time>2016-10-16T06:31:31Z</time>
      </trkpt>
      <trkpt lat="47.29408" lon="4.97653">
        <ele>388.03</ele>
        <time>2016-10-16T06:31:33Z</time>
      </trkpt>
      <trkpt lat="47.29371" lon="4.97576">
        <ele>389.47</ele>
        <time>2016-10-16T06:31:49Z</time>
      </trkpt>
      <trkpt lat="47.29348" lon="4.97531">
        <ele>391.87</ele>
        <time>2016-10-16T06:32:03Z</time>
      </trkpt>
      <trkpt lat="47.29315" lon="4.97487">
        <ele>392.36</ele>
        <time>2016-10-16T06:32:20Z</time>
      </trkpt>
      <trkpt lat="47.29309" lon="4.97477">
        <ele>391.87</ele>
        <time>2016-10-16T06:32:24Z</time>
      </trkpt>
      <trkpt lat="47.29313" lon="4.97466">
        <ele>390.91</ele>
        <time>2016-10-16T06:32:30Z</time>
      </trkpt>
      <trkpt lat="47.29343" lon="4.97434">
        <ele>392.84</ele>
        <time>2016-10-16T06:32:44Z</time>
      </trkpt>
      <trkpt lat="47.29381" lon="4.97433">
        <ele>392.84</ele>
        <time>2016-10-16T06:32:56Z</time>
      </trkpt>
      <trkpt lat="47.29397" lon="4.97419">
        <ele>392.36</ele>
        <time>2016-10-16T06:33:02Z</time>
      </trkpt>
      <trkpt lat="47.29404" lon="4.97401">
        <ele>392.84</ele>
        <time>2016-10-16T06:33:07Z</time>
      </trkpt>
      <trkpt lat="47.29415" lon="4.97398">
        <ele>393.32</ele>
        <time>2016-10-16T06:33:11Z</time>
      </trkpt>
      <trkpt lat="47.29422" lon="4.97401">
        <ele>393.32</ele>
        <time>2016-10-16T06:33:13Z</time>
      </trkpt>
      <trkpt lat="47.29436" lon="4.97397">
        <ele>393.32</ele>
        <time>2016-10-16T06:33:17Z</time>
      </trkpt>
      <trkpt lat="47.29462" lon="4.97366">
        <ele>392.84</ele>
        <time>2016-10-16T06:33:28Z</time>
      </trkpt>
      <trkpt lat="47.29465" lon="4.97362">
        <ele>392.84</ele>
        <time>2016-10-16T06:33:30Z</time>
      </trkpt>
      <trkpt lat="47.29479" lon="4.97353">
        <ele>392.84</ele>
        <time>2016-10-16T06:33:38Z</time>
      </trkpt>
      <trkpt lat="47.29497" lon="4.9735">
        <ele>392.84</ele>
        <time>2016-10-16T06:33:48Z</time>
      </trkpt>
      <trkpt lat="47.29503" lon="4.97337">
        <ele>392.84</ele>
        <time>2016-10-16T06:33:52Z</time>
      </trkpt>
      <trkpt lat="47.29522" lon="4.97308">
        <ele>391.87</ele>
        <time>2016-10-16T06:33:59Z</time>
      </trkpt>
      <trkpt lat="47.29538" lon="4.97292">
        <ele>391.39</ele>
        <time>2016-10-16T06:34:03Z</time>
      </trkpt>
      <trkpt lat="47.29555" lon="4.97271">
        <ele>391.87</ele>
        <time>2016-10-16T06:34:08Z</time>
      </trkpt>
      <trkpt lat="47.29569" lon="4.97244">
        <ele>391.87</ele>
        <time>2016-10-16T06:34:13Z</time>
      </trkpt>
      <trkpt lat="47.296" lon="4.97218">
        <ele>392.84</ele>
        <time>2016-10-16T06:34:21Z</time>
      </trkpt>
      <trkpt lat="47.29655" lon="4.97217">
        <ele>392.36</ele>
        <time>2016-10-16T06:34:33Z</time>
      </trkpt>
      <trkpt lat="47.29663" lon="4.97216">
        <ele>391.87</ele>
        <time>2016-10-16T06:34:35Z</time>
      </trkpt>
      <trkpt lat="47.29685" lon="4.972">
        <ele>390.91</ele>
        <time>2016-10-16T06:34:41Z</time>
      </trkpt>
      <trkpt lat="47.297" lon="4.97192">
        <ele>390.43</ele>
        <time>2016-10-16T06:34:45Z</time>
      </trkpt>
      <trkpt lat="47.29734" lon="4.97177">
        <ele>391.39</ele>
        <time>2016-10-16T06:34:54Z</time>
      </trkpt>
      <trkpt lat="47.29774" lon="4.97191">
        <ele>390.43</ele>
        <time>2016-10-16T06:35:05Z</time>
      </trkpt>
      <trkpt lat="47.29804" lon="4.97187">
        <ele>389.95</ele>
        <time>2016-10-16T06:35:17Z</time>
      </trkpt>
      <trkpt lat="47.29828" lon="4.97181">
        <ele>388.99</ele>
        <time>2016-10-16T06:35:32Z</time>
      </trkpt>
      <trkpt lat="47.29835" lon="4.97176">
        <ele>387.55</ele>
        <time>2016-10-16T06:35:40Z</time>
      </trkpt>
      <trkpt lat="47.29842" lon="4.9717">
        <ele>387.55</ele>
        <time>2016-10-16T06:35:47Z</time>
      </trkpt>
      <trkpt lat="47.29835" lon="4.97086">
        <ele>384.66</ele>
        <time>2016-10-16T06:36:00Z</time>
      </trkpt>
      <trkpt lat="47.29833" lon="4.97071">
        <ele>384.66</ele>
        <time>2016-10-16T06:36:02Z</time>
      </trkpt>
      <trkpt lat="47.29833" lon="4.97055">
        <ele>384.66</ele>
        <time>2016-10-16T06:36:04Z</time>
      </trkpt>
      <trkpt lat="47.29842" lon="4.9697">
        <ele>386.59</ele>
        <time>2016-10-16T06:36:18Z</time>
      </trkpt>
      <trkpt lat="47.29854" lon="4.96908">
        <ele>389.95</ele>
        <time>2016-10-16T06:36:32Z</time>
      </trkpt>
      <trkpt lat="47.29875" lon="4.96845">
        <ele>391.39</ele>
        <time>2016-10-16T06:36:47Z</time>
      </trkpt>
      <trkpt lat="47.29899" lon="4.96785">
        <ele>392.84</ele>
        <time>2016-10-16T06:37:01Z</time>
      </trkpt>
      <trkpt lat="47.29935" lon="4.96707">
        <ele>392.36</ele>
        <time>2016-10-16T06:37:20Z</time>
      </trkpt>
      <trkpt lat="47.29965" lon="4.96648">
        <ele>395.72</ele>
        <time>2016-10-16T06:37:39Z</time>
      </trkpt>
      <trkpt lat="47.29976" lon="4.96596">
        <ele>400.53</ele>
        <time>2016-10-16T06:37:56Z</time>
      </trkpt>
      <trkpt lat="47.2999" lon="4.96573">
        <ele>401.97</ele>
        <time>2016-10-16T06:38:08Z</time>
      </trkpt>
      <trkpt lat="47.30004" lon="4.96564">
        <ele>400.53</ele>
        <time>2016-10-16T06:38:20Z</time>
      </trkpt>
      <trkpt lat="47.3002" lon="4.96562">
        <ele>403.89</ele>
        <time>2016-10-16T06:38:35Z</time>
      </trkpt>
      <trkpt lat="47.30034" lon="4.96561">
        <ele>406.29</ele>
        <time>2016-10-16T06:38:49Z</time>
      </trkpt>
      <trkpt lat="47.30049" lon="4.96559">
        <ele>413.5</ele>
        <time>2016-10-16T06:39:04Z</time>
      </trkpt>
      <trkpt lat="47.3006" lon="4.96555">
        <ele>422.16</ele>
        <time>2016-10-16T06:39:21Z</time>
      </trkpt>
      <trkpt lat="47.30079" lon="4.9655">
        <ele>424.56</ele>
        <time>2016-10-16T06:39:34Z</time>
      </trkpt>
      <trkpt lat="47.30092" lon="4.96549">
        <ele>422.64</ele>
        <time>2016-10-16T06:39:45Z</time>
      </trkpt>
      <trkpt lat="47.30093" lon="4.9655">
        <ele>420.23</ele>
        <time>2016-10-16T06:39:59Z</time>
      </trkpt>
      <trkpt lat="47.30094" lon="4.96549">
        <ele>419.27</ele>
        <time>2016-10-16T06:40:23Z</time>
      </trkpt>
      <trkpt lat="47.30093" lon="4.96549">
        <ele>419.27</ele>
        <time>2016-10-16T06:40:45Z</time>
      </trkpt>
      <trkpt lat="47.30093" lon="4.96547">
        <ele>419.27</ele>
        <time>2016-10-16T06:40:47Z</time>
      </trkpt>
      <trkpt lat="47.30089" lon="4.96525">
        <ele>420.23</ele>
        <time>2016-10-16T06:40:56Z</time>
      </trkpt>
      <trkpt lat="47.30073" lon="4.96475">
        <ele>422.16</ele>
        <time>2016-10-16T06:41:10Z</time>
      </trkpt>
      <trkpt lat="47.30054" lon="4.96409">
        <ele>421.68</ele>
        <time>2016-10-16T06:41:23Z</time>
      </trkpt>
      <trkpt lat="47.3004" lon="4.96355">
        <ele>420.23</ele>
        <time>2016-10-16T06:41:35Z</time>
      </trkpt>
      <trkpt lat="47.30022" lon="4.96294">
        <ele>418.79</ele>
        <time>2016-10-16T06:41:48Z</time>
      </trkpt>
      <trkpt lat="47.30018" lon="4.96281">
        <ele>418.79</ele>
        <time>2016-10-16T06:41:51Z</time>
      </trkpt>
      <trkpt lat="47.30026" lon="4.9626">
        <ele>420.23</ele>
        <time>2016-10-16T06:41:56Z</time>
      </trkpt>
      <trkpt lat="47.30036" lon="4.96244">
        <ele>421.68</ele>
        <time>2016-10-16T06:42:01Z</time>
      </trkpt>
      <trkpt lat="47.3002" lon="4.96198">
        <ele>422.16</ele>
        <time>2016-10-16T06:42:13Z</time>
      </trkpt>
      <trkpt lat="47.30006" lon="4.96178">
        <ele>421.19</ele>
        <time>2016-10-16T06:42:20Z</time>
      </trkpt>
      <trkpt lat="47.29986" lon="4.96193">
        <ele>421.68</ele>
        <time>2016-10-16T06:42:32Z</time>
      </trkpt>
      <trkpt lat="47.29967" lon="4.96177">
        <ele>422.16</ele>
        <time>2016-10-16T06:42:42Z</time>
      </trkpt>
      <trkpt lat="47.29945" lon="4.96132">
        <ele>422.64</ele>
        <time>2016-10-16T06:42:55Z</time>
      </trkpt>
      <trkpt lat="47.2992" lon="4.9609">
        <ele>422.64</ele>
        <time>2016-10-16T06:43:06Z</time>
      </trkpt>
      <trkpt lat="47.29888" lon="4.96032">
        <ele>423.12</ele>
        <time>2016-10-16T06:43:18Z</time>
      </trkpt>
      <trkpt lat="47.29835" lon="4.95932">
        <ele>421.19</ele>
        <time>2016-10-16T06:43:37Z</time>
      </trkpt>
      <trkpt lat="47.29833" lon="4.95927">
        <ele>421.19</ele>
        <time>2016-10-16T06:43:38Z</time>
      </trkpt>
      <trkpt lat="47.29788" lon="4.9584">
        <ele>421.19</ele>
        <time>2016-10-16T06:43:55Z</time>
      </trkpt>
      <trkpt lat="47.29748" lon="4.95758">
        <ele>423.12</ele>
        <time>2016-10-16T06:44:12Z</time>
      </trkpt>
      <trkpt lat="47.29704" lon="4.95672">
        <ele>425.04</ele>
        <time>2016-10-16T06:44:30Z</time>
      </trkpt>
      <trkpt lat="47.29675" lon="4.95616">
        <ele>426.48</ele>
        <time>2016-10-16T06:44:43Z</time>
      </trkpt>
      <trkpt lat="47.29644" lon="4.95565">
        <ele>426.48</ele>
        <time>2016-10-16T06:44:57Z</time>
      </trkpt>
      <trkpt lat="47.2962" lon="4.95528">
        <ele>426.96</ele>
        <time>2016-10-16T06:45:06Z</time>
      </trkpt>
      <trkpt lat="47.29579" lon="4.95466">
        <ele>426.96</ele>
        <time>2016-10-16T06:45:21Z</time>
      </trkpt>
      <trkpt lat="47.29577" lon="4.95461">
        <ele>426.96</ele>
        <time>2016-10-16T06:45:22Z</time>
      </trkpt>
      <trkpt lat="47.29566" lon="4.95442">
        <ele>427.44</ele>
        <time>2016-10-16T06:45:26Z</time>
      </trkpt>
      <trkpt lat="47.29511" lon="4.95376">
        <ele>426.96</ele>
        <time>2016-10-16T06:45:43Z</time>
      </trkpt>
      <trkpt lat="47.29481" lon="4.95336">
        <ele>427.44</ele>
        <time>2016-10-16T06:45:54Z</time>
      </trkpt>
      <trkpt lat="47.2945" lon="4.95296">
        <ele>426.96</ele>
        <time>2016-10-16T06:46:05Z</time>
      </trkpt>
      <trkpt lat="47.29446" lon="4.95293">
        <ele>427.44</ele>
        <time>2016-10-16T06:46:20Z</time>
      </trkpt>
      <trkpt lat="47.29433" lon="4.95271">
        <ele>427.44</ele>
        <time>2016-10-16T06:46:31Z</time>
      </trkpt>
      <trkpt lat="47.29404" lon="4.95225">
        <ele>426.48</ele>
        <time>2016-10-16T06:46:44Z</time>
      </trkpt>
      <trkpt lat="47.29369" lon="4.9517">
        <ele>426.48</ele>
        <time>2016-10-16T06:46:58Z</time>
      </trkpt>
      <trkpt lat="47.29327" lon="4.95109">
        <ele>425.52</ele>
        <time>2016-10-16T06:47:12Z</time>
      </trkpt>
      <trkpt lat="47.29285" lon="4.95044">
        <ele>425.04</ele>
        <time>2016-10-16T06:47:27Z</time>
      </trkpt>
      <trkpt lat="47.29261" lon="4.95006">
        <ele>425.04</ele>
        <time>2016-10-16T06:47:35Z</time>
      </trkpt>
      <trkpt lat="47.29213" lon="4.94938">
        <ele>426</ele>
        <time>2016-10-16T06:47:52Z</time>
      </trkpt>
      <trkpt lat="47.29196" lon="4.94909">
        <ele>426.96</ele>
        <time>2016-10-16T06:48:04Z</time>
      </trkpt>
      <trkpt lat="47.29192" lon="4.94905">
        <ele>426.96</ele>
        <time>2016-10-16T06:48:08Z</time>
      </trkpt>
      <trkpt lat="47.29173" lon="4.94897">
        <ele>426.96</ele>
        <time>2016-10-16T06:48:21Z</time>
      </trkpt>
      <trkpt lat="47.29154" lon="4.94883">
        <ele>426.96</ele>
        <time>2016-10-16T06:48:34Z</time>
      </trkpt>
      <trkpt lat="47.29148" lon="4.94881">
        <ele>426.48</ele>
        <time>2016-10-16T06:48:47Z</time>
      </trkpt>
      <trkpt lat="47.29148" lon="4.9488">
        <ele>426</ele>
        <time>2016-10-16T06:48:58Z</time>
      </trkpt>
      <trkpt lat="47.29141" lon="4.94874">
        <ele>426</ele>
        <time>2016-10-16T06:49:03Z</time>
      </trkpt>
      <trkpt lat="47.29105" lon="4.94855">
        <ele>428.89</ele>
        <time>2016-10-16T06:49:21Z</time>
      </trkpt>
      <trkpt lat="47.29075" lon="4.94827">
        <ele>431.77</ele>
        <time>2016-10-16T06:49:37Z</time>
      </trkpt>
      <trkpt lat="47.29048" lon="4.94801">
        <ele>436.1</ele>
        <time>2016-10-16T06:49:51Z</time>
      </trkpt>
      <trkpt lat="47.29026" lon="4.9477">
        <ele>438.02</ele>
        <time>2016-10-16T06:50:06Z</time>
      </trkpt>
      <trkpt lat="47.28995" lon="4.94743">
        <ele>440.42</ele>
        <time>2016-10-16T06:50:22Z</time>
      </trkpt>
      <trkpt lat="47.28959" lon="4.94713">
        <ele>442.82</ele>
        <time>2016-10-16T06:50:40Z</time>
      </trkpt>
      <trkpt lat="47.28921" lon="4.94681">
        <ele>447.15</ele>
        <time>2016-10-16T06:50:59Z</time>
      </trkpt>
      <trkpt lat="47.28885" lon="4.94647">
        <ele>449.55</ele>
        <time>2016-10-16T06:51:17Z</time>
      </trkpt>
      <trkpt lat="47.28854" lon="4.94608">
        <ele>452.92</ele>
        <time>2016-10-16T06:51:36Z</time>
      </trkpt>
      <trkpt lat="47.28831" lon="4.94573">
        <ele>455.32</ele>
        <time>2016-10-16T06:51:49Z</time>
      </trkpt>
      <trkpt lat="47.2881" lon="4.94549">
        <ele>457.24</ele>
        <time>2016-10-16T06:52:00Z</time>
      </trkpt>
      <trkpt lat="47.28785" lon="4.94515">
        <ele>459.65</ele>
        <time>2016-10-16T06:52:14Z</time>
      </trkpt>
      <trkpt lat="47.28753" lon="4.94476">
        <ele>461.09</ele>
        <time>2016-10-16T06:52:31Z</time>
      </trkpt>
      <trkpt lat="47.28722" lon="4.94444">
        <ele>463.01</ele>
        <time>2016-10-16T06:52:46Z</time>
      </trkpt>
      <trkpt lat="47.28688" lon="4.94403">
        <ele>465.42</ele>
        <time>2016-10-16T06:53:04Z</time>
      </trkpt>
      <trkpt lat="47.28659" lon="4.94376">
        <ele>467.82</ele>
        <time>2016-10-16T06:53:18Z</time>
      </trkpt>
      <trkpt lat="47.28632" lon="4.94345">
        <ele>469.74</ele>
        <time>2016-10-16T06:53:33Z</time>
      </trkpt>
      <trkpt lat="47.28611" lon="4.94317">
        <ele>472.63</ele>
        <time>2016-10-16T06:53:47Z</time>
      </trkpt>
      <trkpt lat="47.28594" lon="4.94287">
        <ele>474.07</ele>
        <time>2016-10-16T06:53:59Z</time>
      </trkpt>
      <trkpt lat="47.28573" lon="4.94243">
        <ele>475.99</ele>
        <time>2016-10-16T06:54:15Z</time>
      </trkpt>
      <trkpt lat="47.28551" lon="4.94218">
        <ele>476.95</ele>
        <time>2016-10-16T06:54:28Z</time>
      </trkpt>
      <trkpt lat="47.28527" lon="4.94181">
        <ele>479.35</ele>
        <time>2016-10-16T06:54:43Z</time>
      </trkpt>
      <trkpt lat="47.28506" lon="4.9414">
        <ele>481.28</ele>
        <time>2016-10-16T06:54:58Z</time>
      </trkpt>
      <trkpt lat="47.28487" lon="4.94103">
        <ele>482.72</ele>
        <time>2016-10-16T06:55:11Z</time>
      </trkpt>
      <trkpt lat="47.2846" lon="4.94078">
        <ele>484.64</ele>
        <time>2016-10-16T06:55:25Z</time>
      </trkpt>
      <trkpt lat="47.28431" lon="4.94052">
        <ele>486.56</ele>
        <time>2016-10-16T06:55:39Z</time>
      </trkpt>
      <trkpt lat="47.28395" lon="4.94009">
        <ele>488.49</ele>
        <time>2016-10-16T06:55:57Z</time>
      </trkpt>
      <trkpt lat="47.28368" lon="4.93989">
        <ele>489.93</ele>
        <time>2016-10-16T06:56:10Z</time>
      </trkpt>
      <trkpt lat="47.28357" lon="4.93987">
        <ele>489.93</ele>
        <time>2016-10-16T06:56:23Z</time>
      </trkpt>
      <trkpt lat="47.28356" lon="4.93987">
        <ele>489.45</ele>
        <time>2016-10-16T06:56:52Z</time>
      </trkpt>
      <trkpt lat="47.28356" lon="4.93987">
        <ele>489.93</ele>
        <time>2016-10-16T06:57:24Z</time>
      </trkpt>
      <trkpt lat="47.28357" lon="4.93987">
        <ele>490.41</ele>
        <time>2016-10-16T06:57:53Z</time>
      </trkpt>
      <trkpt lat="47.28357" lon="4.93987">
        <ele>490.89</ele>
        <time>2016-10-16T06:58:23Z</time>
      </trkpt>
      <trkpt lat="47.28356" lon="4.93987">
        <ele>490.89</ele>
        <time>2016-10-16T06:58:56Z</time>
      </trkpt>
      <trkpt lat="47.28353" lon="4.93989">
        <ele>490.41</ele>
        <time>2016-10-16T06:59:13Z</time>
      </trkpt>
      <trkpt lat="47.28326" lon="4.93983">
        <ele>491.37</ele>
        <time>2016-10-16T06:59:26Z</time>
      </trkpt>
      <trkpt lat="47.28269" lon="4.93955">
        <ele>490.89</ele>
        <time>2016-10-16T06:59:44Z</time>
      </trkpt>
      <trkpt lat="47.28241" lon="4.9394">
        <ele>490.41</ele>
        <time>2016-10-16T06:59:51Z</time>
      </trkpt>
      <trkpt lat="47.28232" lon="4.93937">
        <ele>489.93</ele>
        <time>2016-10-16T06:59:53Z</time>
      </trkpt>
      <trkpt lat="47.28216" lon="4.93929">
        <ele>489.45</ele>
        <time>2016-10-16T06:59:57Z</time>
      </trkpt>
      <trkpt lat="47.28168" lon="4.93903">
        <ele>488.01</ele>
        <time>2016-10-16T07:00:10Z</time>
      </trkpt>
      <trkpt lat="47.28157" lon="4.93898">
        <ele>487.05</ele>
        <time>2016-10-16T07:00:13Z</time>
      </trkpt>
      <trkpt lat="47.28102" lon="4.93869">
        <ele>485.6</ele>
        <time>2016-10-16T07:00:25Z</time>
      </trkpt>
      <trkpt lat="47.28088" lon="4.93863">
        <ele>485.6</ele>
        <time>2016-10-16T07:00:28Z</time>
      </trkpt>
      <trkpt lat="47.28044" lon="4.93846">
        <ele>486.56</ele>
        <time>2016-10-16T07:00:38Z</time>
      </trkpt>
      <trkpt lat="47.28028" lon="4.9384">
        <ele>486.56</ele>
        <time>2016-10-16T07:00:41Z</time>
      </trkpt>
      <trkpt lat="47.27953" lon="4.93812">
        <ele>485.6</ele>
        <time>2016-10-16T07:00:55Z</time>
      </trkpt>
      <trkpt lat="47.27941" lon="4.93809">
        <ele>485.12</ele>
        <time>2016-10-16T07:00:57Z</time>
      </trkpt>
      <trkpt lat="47.27904" lon="4.93795">
        <ele>483.68</ele>
        <time>2016-10-16T07:01:03Z</time>
      </trkpt>
      <trkpt lat="47.27885" lon="4.93787">
        <ele>483.2</ele>
        <time>2016-10-16T07:01:06Z</time>
      </trkpt>
      <trkpt lat="47.2785" lon="4.93782">
        <ele>481.76</ele>
        <time>2016-10-16T07:01:11Z</time>
      </trkpt>
      <trkpt lat="47.27814" lon="4.93807">
        <ele>479.84</ele>
        <time>2016-10-16T07:01:19Z</time>
      </trkpt>
      <trkpt lat="47.27812" lon="4.93817">
        <ele>478.39</ele>
        <time>2016-10-16T07:01:23Z</time>
      </trkpt>
      <trkpt lat="47.27815" lon="4.93829">
        <ele>475.03</ele>
        <time>2016-10-16T07:01:32Z</time>
      </trkpt>
      <trkpt lat="47.27815" lon="4.93838">
        <ele>473.59</ele>
        <time>2016-10-16T07:01:36Z</time>
      </trkpt>
      <trkpt lat="47.2783" lon="4.93892">
        <ele>469.26</ele>
        <time>2016-10-16T07:01:48Z</time>
      </trkpt>
      <trkpt lat="47.27838" lon="4.93934">
        <ele>465.9</ele>
        <time>2016-10-16T07:02:00Z</time>
      </trkpt>
      <trkpt lat="47.27842" lon="4.93961">
        <ele>463.97</ele>
        <time>2016-10-16T07:02:06Z</time>
      </trkpt>
      <trkpt lat="47.2785" lon="4.94021">
        <ele>460.61</ele>
        <time>2016-10-16T07:02:19Z</time>
      </trkpt>
      <trkpt lat="47.27854" lon="4.94091">
        <ele>456.76</ele>
        <time>2016-10-16T07:02:32Z</time>
      </trkpt>
      <trkpt lat="47.27859" lon="4.94162">
        <ele>461.57</ele>
        <time>2016-10-16T07:02:44Z</time>
      </trkpt>
      <trkpt lat="47.27859" lon="4.94172">
        <ele>463.49</ele>
        <time>2016-10-16T07:02:46Z</time>
      </trkpt>
      <trkpt lat="47.27861" lon="4.94188">
        <ele>474.55</ele>
        <time>2016-10-16T07:03:00Z</time>
      </trkpt>
      <trkpt lat="47.27863" lon="4.94196">
        <ele>475.51</ele>
        <time>2016-10-16T07:03:13Z</time>
      </trkpt>
      <trkpt lat="47.27877" lon="4.94196">
        <ele>475.99</ele>
        <time>2016-10-16T07:03:22Z</time>
      </trkpt>
      <trkpt lat="47.27887" lon="4.94198">
        <ele>475.99</ele>
        <time>2016-10-16T07:03:27Z</time>
      </trkpt>
      <trkpt lat="47.27915" lon="4.94201">
        <ele>474.07</ele>
        <time>2016-10-16T07:03:39Z</time>
      </trkpt>
      <trkpt lat="47.2792" lon="4.94203">
        <ele>472.14</ele>
        <time>2016-10-16T07:03:58Z</time>
      </trkpt>
      <trkpt lat="47.27928" lon="4.94202">
        <ele>472.14</ele>
        <time>2016-10-16T07:04:10Z</time>
      </trkpt>
      <trkpt lat="47.27934" lon="4.94219">
        <ele>472.14</ele>
        <time>2016-10-16T07:04:17Z</time>
      </trkpt>
      <trkpt lat="47.27932" lon="4.94248">
        <ele>472.14</ele>
        <time>2016-10-16T07:04:28Z</time>
      </trkpt>
      <trkpt lat="47.27928" lon="4.94288">
        <ele>474.55</ele>
        <time>2016-10-16T07:04:40Z</time>
      </trkpt>
      <trkpt lat="47.27925" lon="4.94302">
        <ele>473.59</ele>
        <time>2016-10-16T07:04:53Z</time>
      </trkpt>
      <trkpt lat="47.27925" lon="4.9431">
        <ele>472.63</ele>
        <time>2016-10-16T07:05:04Z</time>
      </trkpt>
      <trkpt lat="47.27924" lon="4.94318">
        <ele>472.63</ele>
        <time>2016-10-16T07:05:08Z</time>
      </trkpt>
      <trkpt lat="47.27921" lon="4.94351">
        <ele>473.11</ele>
        <time>2016-10-16T07:05:17Z</time>
      </trkpt>
      <trkpt lat="47.27905" lon="4.94401">
        <ele>476.47</ele>
        <time>2016-10-16T07:05:31Z</time>
      </trkpt>
      <trkpt lat="47.27899" lon="4.94427">
        <ele>478.87</ele>
        <time>2016-10-16T07:05:38Z</time>
      </trkpt>
      <trkpt lat="47.27889" lon="4.94464">
        <ele>478.39</ele>
        <time>2016-10-16T07:05:50Z</time>
      </trkpt>
      <trkpt lat="47.27888" lon="4.94469">
        <ele>477.91</ele>
        <time>2016-10-16T07:05:52Z</time>
      </trkpt>
      <trkpt lat="47.27884" lon="4.94493">
        <ele>478.87</ele>
        <time>2016-10-16T07:06:02Z</time>
      </trkpt>
      <trkpt lat="47.27899" lon="4.94497">
        <ele>476.95</ele>
        <time>2016-10-16T07:06:09Z</time>
      </trkpt>
      <trkpt lat="47.27926" lon="4.94491">
        <ele>475.03</ele>
        <time>2016-10-16T07:06:19Z</time>
      </trkpt>
      <trkpt lat="47.27935" lon="4.94491">
        <ele>474.55</ele>
        <time>2016-10-16T07:06:27Z</time>
      </trkpt>
      <trkpt lat="47.27947" lon="4.94503">
        <ele>474.55</ele>
        <time>2016-10-16T07:06:34Z</time>
      </trkpt>
      <trkpt lat="47.27953" lon="4.94525">
        <ele>472.63</ele>
        <time>2016-10-16T07:06:40Z</time>
      </trkpt>
      <trkpt lat="47.27964" lon="4.94578">
        <ele>470.7</ele>
        <time>2016-10-16T07:06:52Z</time>
      </trkpt>
      <trkpt lat="47.27965" lon="4.94597">
        <ele>469.26</ele>
        <time>2016-10-16T07:06:56Z</time>
      </trkpt>
      <trkpt lat="47.27968" lon="4.94625">
        <ele>468.3</ele>
        <time>2016-10-16T07:07:01Z</time>
      </trkpt>
      <trkpt lat="47.27969" lon="4.94655">
        <ele>468.78</ele>
        <time>2016-10-16T07:07:06Z</time>
      </trkpt>
      <trkpt lat="47.27974" lon="4.94681">
        <ele>469.26</ele>
        <time>2016-10-16T07:07:10Z</time>
      </trkpt>
      <trkpt lat="47.27978" lon="4.94716">
        <ele>469.26</ele>
        <time>2016-10-16T07:07:15Z</time>
      </trkpt>
      <trkpt lat="47.27976" lon="4.94786">
        <ele>466.38</ele>
        <time>2016-10-16T07:07:26Z</time>
      </trkpt>
      <trkpt lat="47.27963" lon="4.94853">
        <ele>470.22</ele>
        <time>2016-10-16T07:07:38Z</time>
      </trkpt>
      <trkpt lat="47.27953" lon="4.94923">
        <ele>473.59</ele>
        <time>2016-10-16T07:07:50Z</time>
      </trkpt>
      <trkpt lat="47.2794" lon="4.94986">
        <ele>474.55</ele>
        <time>2016-10-16T07:08:02Z</time>
      </trkpt>
      <trkpt lat="47.27928" lon="4.95038">
        <ele>476.47</ele>
        <time>2016-10-16T07:08:12Z</time>
      </trkpt>
      <trkpt lat="47.27913" lon="4.95098">
        <ele>477.43</ele>
        <time>2016-10-16T07:08:24Z</time>
      </trkpt>
      <trkpt lat="47.27909" lon="4.95117">
        <ele>476.47</ele>
        <time>2016-10-16T07:08:28Z</time>
      </trkpt>
      <trkpt lat="47.2789" lon="4.9518">
        <ele>473.59</ele>
        <time>2016-10-16T07:08:39Z</time>
      </trkpt>
      <trkpt lat="47.27889" lon="4.95188">
        <ele>473.59</ele>
        <time>2016-10-16T07:08:40Z</time>
      </trkpt>
      <trkpt lat="47.27885" lon="4.95214">
        <ele>471.66</ele>
        <time>2016-10-16T07:08:44Z</time>
      </trkpt>
      <trkpt lat="47.27878" lon="4.95254">
        <ele>468.78</ele>
        <time>2016-10-16T07:08:50Z</time>
      </trkpt>
      <trkpt lat="47.27874" lon="4.95273">
        <ele>467.34</ele>
        <time>2016-10-16T07:08:53Z</time>
      </trkpt>
      <trkpt lat="47.27871" lon="4.95287">
        <ele>466.38</ele>
        <time>2016-10-16T07:08:55Z</time>
      </trkpt>
      <trkpt lat="47.27862" lon="4.95312">
        <ele>463.97</ele>
        <time>2016-10-16T07:08:59Z</time>
      </trkpt>
      <trkpt lat="47.2784" lon="4.95374">
        <ele>458.69</ele>
        <time>2016-10-16T07:09:11Z</time>
      </trkpt>
      <trkpt lat="47.27833" lon="4.95401">
        <ele>455.32</ele>
        <time>2016-10-16T07:09:22Z</time>
      </trkpt>
      <trkpt lat="47.27832" lon="4.95411">
        <ele>454.84</ele>
        <time>2016-10-16T07:09:35Z</time>
      </trkpt>
      <trkpt lat="47.27831" lon="4.95418">
        <ele>453.4</ele>
        <time>2016-10-16T07:09:45Z</time>
      </trkpt>
      <trkpt lat="47.2783" lon="4.95424">
        <ele>452.92</ele>
        <time>2016-10-16T07:10:00Z</time>
      </trkpt>
      <trkpt lat="47.27827" lon="4.95433">
        <ele>448.11</ele>
        <time>2016-10-16T07:10:14Z</time>
      </trkpt>
      <trkpt lat="47.27824" lon="4.95432">
        <ele>447.63</ele>
        <time>2016-10-16T07:10:28Z</time>
      </trkpt>
      <trkpt lat="47.27822" lon="4.9543">
        <ele>447.63</ele>
        <time>2016-10-16T07:10:34Z</time>
      </trkpt>
      <trkpt lat="47.27815" lon="4.95428">
        <ele>448.11</ele>
        <time>2016-10-16T07:10:38Z</time>
      </trkpt>
      <trkpt lat="47.27811" lon="4.95425">
        <ele>448.11</ele>
        <time>2016-10-16T07:10:40Z</time>
      </trkpt>
      <trkpt lat="47.27801" lon="4.95421">
        <ele>448.59</ele>
        <time>2016-10-16T07:10:50Z</time>
      </trkpt>
      <trkpt lat="47.27796" lon="4.95418">
        <ele>448.59</ele>
        <time>2016-10-16T07:11:04Z</time>
      </trkpt>
      <trkpt lat="47.27792" lon="4.95414">
        <ele>449.07</ele>
        <time>2016-10-16T07:11:16Z</time>
      </trkpt>
      <trkpt lat="47.27788" lon="4.9541">
        <ele>449.07</ele>
        <time>2016-10-16T07:11:26Z</time>
      </trkpt>
      <trkpt lat="47.27772" lon="4.95394">
        <ele>450.52</ele>
        <time>2016-10-16T07:11:35Z</time>
      </trkpt>
      <trkpt lat="47.27773" lon="4.95385">
        <ele>450.03</ele>
        <time>2016-10-16T07:11:44Z</time>
      </trkpt>
      <trkpt lat="47.27772" lon="4.95382">
        <ele>449.55</ele>
        <time>2016-10-16T07:11:46Z</time>
      </trkpt>
      <trkpt lat="47.27748" lon="4.95373">
        <ele>450.03</ele>
        <time>2016-10-16T07:11:58Z</time>
      </trkpt>
      <trkpt lat="47.27739" lon="4.95368">
        <ele>449.07</ele>
        <time>2016-10-16T07:12:08Z</time>
      </trkpt>
      <trkpt lat="47.27734" lon="4.95364">
        <ele>449.07</ele>
        <time>2016-10-16T07:12:17Z</time>
      </trkpt>
      <trkpt lat="47.27731" lon="4.95362">
        <ele>448.59</ele>
        <time>2016-10-16T07:12:21Z</time>
      </trkpt>
      <trkpt lat="47.27724" lon="4.95356">
        <ele>449.07</ele>
        <time>2016-10-16T07:12:26Z</time>
      </trkpt>
      <trkpt lat="47.2772" lon="4.95354">
        <ele>449.07</ele>
        <time>2016-10-16T07:12:28Z</time>
      </trkpt>
      <trkpt lat="47.2771" lon="4.95347">
        <ele>449.55</ele>
        <time>2016-10-16T07:12:33Z</time>
      </trkpt>
      <trkpt lat="47.27686" lon="4.95333">
        <ele>450.03</ele>
        <time>2016-10-16T07:12:43Z</time>
      </trkpt>
      <trkpt lat="47.27673" lon="4.95322">
        <ele>451.96</ele>
        <time>2016-10-16T07:12:54Z</time>
      </trkpt>
      <trkpt lat="47.27667" lon="4.95317">
        <ele>451.48</ele>
        <time>2016-10-16T07:13:17Z</time>
      </trkpt>
      <trkpt lat="47.27654" lon="4.95308">
        <ele>451.48</ele>
        <time>2016-10-16T07:13:23Z</time>
      </trkpt>
      <trkpt lat="47.2765" lon="4.95301">
        <ele>452.44</ele>
        <time>2016-10-16T07:13:27Z</time>
      </trkpt>
      <trkpt lat="47.27641" lon="4.95294">
        <ele>452.92</ele>
        <time>2016-10-16T07:13:33Z</time>
      </trkpt>
      <trkpt lat="47.27635" lon="4.95289">
        <ele>454.36</ele>
        <time>2016-10-16T07:13:45Z</time>
      </trkpt>
      <trkpt lat="47.27635" lon="4.95287">
        <ele>454.36</ele>
        <time>2016-10-16T07:13:49Z</time>
      </trkpt>
      <trkpt lat="47.27633" lon="4.95279">
        <ele>453.4</ele>
        <time>2016-10-16T07:13:55Z</time>
      </trkpt>
      <trkpt lat="47.27626" lon="4.95263">
        <ele>453.88</ele>
        <time>2016-10-16T07:14:02Z</time>
      </trkpt>
      <trkpt lat="47.2761" lon="4.95242">
        <ele>453.4</ele>
        <time>2016-10-16T07:14:12Z</time>
      </trkpt>
      <trkpt lat="47.27609" lon="4.95237">
        <ele>452.92</ele>
        <time>2016-10-16T07:14:16Z</time>
      </trkpt>
      <trkpt lat="47.27599" lon="4.95227">
        <ele>452.44</ele>
        <time>2016-10-16T07:14:25Z</time>
      </trkpt>
      <trkpt lat="47.27597" lon="4.95225">
        <ele>452.92</ele>
        <time>2016-10-16T07:14:45Z</time>
      </trkpt>
      <trkpt lat="47.27597" lon="4.95225">
        <ele>452.92</ele>
        <time>2016-10-16T07:14:51Z</time>
      </trkpt>
      <trkpt lat="47.27589" lon="4.95219">
        <ele>451.96</ele>
        <time>2016-10-16T07:14:56Z</time>
      </trkpt>
      <trkpt lat="47.27586" lon="4.95209">
        <ele>451.48</ele>
        <time>2016-10-16T07:15:08Z</time>
      </trkpt>
      <trkpt lat="47.27584" lon="4.95205">
        <ele>451.48</ele>
        <time>2016-10-16T07:15:11Z</time>
      </trkpt>
      <trkpt lat="47.27575" lon="4.95191">
        <ele>453.4</ele>
        <time>2016-10-16T07:15:17Z</time>
      </trkpt>
      <trkpt lat="47.27567" lon="4.95188">
        <ele>453.4</ele>
        <time>2016-10-16T07:15:22Z</time>
      </trkpt>
      <trkpt lat="47.27564" lon="4.95188">
        <ele>452.92</ele>
        <time>2016-10-16T07:15:24Z</time>
      </trkpt>
      <trkpt lat="47.27562" lon="4.95163">
        <ele>452.92</ele>
        <time>2016-10-16T07:15:32Z</time>
      </trkpt>
      <trkpt lat="47.27561" lon="4.95102">
        <ele>453.88</ele>
        <time>2016-10-16T07:15:47Z</time>
      </trkpt>
      <trkpt lat="47.27562" lon="4.95052">
        <ele>459.65</ele>
        <time>2016-10-16T07:16:00Z</time>
      </trkpt>
      <trkpt lat="47.27561" lon="4.95007">
        <ele>466.86</ele>
        <time>2016-10-16T07:16:13Z</time>
      </trkpt>
      <trkpt lat="47.27558" lon="4.94968">
        <ele>471.66</ele>
        <time>2016-10-16T07:16:26Z</time>
      </trkpt>
      <trkpt lat="47.27556" lon="4.94962">
        <ele>474.55</ele>
        <time>2016-10-16T07:16:42Z</time>
      </trkpt>
      <trkpt lat="47.27555" lon="4.9496">
        <ele>475.03</ele>
        <time>2016-10-16T07:17:15Z</time>
      </trkpt>
      <trkpt lat="47.27555" lon="4.9496">
        <ele>473.59</ele>
        <time>2016-10-16T07:17:44Z</time>
      </trkpt>
      <trkpt lat="47.27554" lon="4.94957">
        <ele>471.18</ele>
        <time>2016-10-16T07:18:13Z</time>
      </trkpt>
      <trkpt lat="47.27554" lon="4.94955">
        <ele>470.7</ele>
        <time>2016-10-16T07:18:21Z</time>
      </trkpt>
      <trkpt lat="47.27556" lon="4.94941">
        <ele>471.66</ele>
        <time>2016-10-16T07:18:28Z</time>
      </trkpt>
      <trkpt lat="47.2754" lon="4.94952">
        <ele>470.7</ele>
        <time>2016-10-16T07:18:39Z</time>
      </trkpt>
      <trkpt lat="47.27528" lon="4.94956">
        <ele>469.26</ele>
        <time>2016-10-16T07:18:49Z</time>
      </trkpt>
      <trkpt lat="47.27514" lon="4.94962">
        <ele>468.78</ele>
        <time>2016-10-16T07:18:58Z</time>
      </trkpt>
      <trkpt lat="47.27512" lon="4.94964">
        <ele>468.78</ele>
        <time>2016-10-16T07:19:01Z</time>
      </trkpt>
      <trkpt lat="47.27503" lon="4.94964">
        <ele>468.78</ele>
        <time>2016-10-16T07:19:07Z</time>
      </trkpt>
      <trkpt lat="47.27497" lon="4.94956">
        <ele>467.82</ele>
        <time>2016-10-16T07:19:11Z</time>
      </trkpt>
      <trkpt lat="47.27487" lon="4.94937">
        <ele>467.34</ele>
        <time>2016-10-16T07:19:16Z</time>
      </trkpt>
      <trkpt lat="47.27474" lon="4.94908">
        <ele>464.93</ele>
        <time>2016-10-16T07:19:25Z</time>
      </trkpt>
      <trkpt lat="47.27475" lon="4.94901">
        <ele>464.93</ele>
        <time>2016-10-16T07:19:29Z</time>
      </trkpt>
      <trkpt lat="47.27463" lon="4.94865">
        <ele>464.45</ele>
        <time>2016-10-16T07:19:43Z</time>
      </trkpt>
      <trkpt lat="47.27459" lon="4.94859">
        <ele>464.45</ele>
        <time>2016-10-16T07:19:57Z</time>
      </trkpt>
      <trkpt lat="47.27458" lon="4.94858">
        <ele>464.93</ele>
        <time>2016-10-16T07:20:19Z</time>
      </trkpt>
      <trkpt lat="47.27458" lon="4.94859">
        <ele>464.45</ele>
        <time>2016-10-16T07:20:33Z</time>
      </trkpt>
      <trkpt lat="47.27464" lon="4.94868">
        <ele>464.45</ele>
        <time>2016-10-16T07:20:39Z</time>
      </trkpt>
      <trkpt lat="47.27471" lon="4.94912">
        <ele>462.53</ele>
        <time>2016-10-16T07:20:52Z</time>
      </trkpt>
      <trkpt lat="47.27474" lon="4.94937">
        <ele>462.53</ele>
        <time>2016-10-16T07:21:04Z</time>
      </trkpt>
      <trkpt lat="47.27478" lon="4.94955">
        <ele>462.05</ele>
        <time>2016-10-16T07:21:16Z</time>
      </trkpt>
      <trkpt lat="47.27472" lon="4.94967">
        <ele>464.45</ele>
        <time>2016-10-16T07:21:30Z</time>
      </trkpt>
      <trkpt lat="47.2747" lon="4.9498">
        <ele>468.3</ele>
        <time>2016-10-16T07:21:42Z</time>
      </trkpt>
      <trkpt lat="47.27469" lon="4.94984">
        <ele>469.74</ele>
        <time>2016-10-16T07:21:57Z</time>
      </trkpt>
      <trkpt lat="47.27464" lon="4.94995">
        <ele>470.22</ele>
        <time>2016-10-16T07:22:10Z</time>
      </trkpt>
      <trkpt lat="47.27458" lon="4.95007">
        <ele>472.63</ele>
        <time>2016-10-16T07:22:23Z</time>
      </trkpt>
      <trkpt lat="47.27451" lon="4.95019">
        <ele>475.03</ele>
        <time>2016-10-16T07:22:37Z</time>
      </trkpt>
      <trkpt lat="47.27448" lon="4.95023">
        <ele>475.51</ele>
        <time>2016-10-16T07:22:47Z</time>
      </trkpt>
      <trkpt lat="47.27447" lon="4.95032">
        <ele>477.43</ele>
        <time>2016-10-16T07:22:52Z</time>
      </trkpt>
      <trkpt lat="47.27446" lon="4.95036">
        <ele>477.43</ele>
        <time>2016-10-16T07:22:55Z</time>
      </trkpt>
      <trkpt lat="47.2745" lon="4.95046">
        <ele>477.91</ele>
        <time>2016-10-16T07:23:01Z</time>
      </trkpt>
      <trkpt lat="47.27452" lon="4.95053">
        <ele>477.43</ele>
        <time>2016-10-16T07:23:05Z</time>
      </trkpt>
      <trkpt lat="47.27453" lon="4.95074">
        <ele>475.99</ele>
        <time>2016-10-16T07:23:15Z</time>
      </trkpt>
      <trkpt lat="47.27457" lon="4.95086">
        <ele>474.55</ele>
        <time>2016-10-16T07:23:22Z</time>
      </trkpt>
      <trkpt lat="47.27462" lon="4.95125">
        <ele>471.66</ele>
        <time>2016-10-16T07:23:32Z</time>
      </trkpt>
      <trkpt lat="47.27454" lon="4.95137">
        <ele>469.74</ele>
        <time>2016-10-16T07:23:37Z</time>
      </trkpt>
      <trkpt lat="47.27429" lon="4.95146">
        <ele>469.74</ele>
        <time>2016-10-16T07:23:50Z</time>
      </trkpt>
      <trkpt lat="47.27412" lon="4.95148">
        <ele>473.59</ele>
        <time>2016-10-16T07:24:02Z</time>
      </trkpt>
      <trkpt lat="47.27392" lon="4.95148">
        <ele>475.03</ele>
        <time>2016-10-16T07:24:14Z</time>
      </trkpt>
      <trkpt lat="47.27367" lon="4.9515">
        <ele>477.91</ele>
        <time>2016-10-16T07:24:27Z</time>
      </trkpt>
      <trkpt lat="47.27341" lon="4.95153">
        <ele>475.99</ele>
        <time>2016-10-16T07:24:39Z</time>
      </trkpt>
      <trkpt lat="47.27317" lon="4.95149">
        <ele>475.03</ele>
        <time>2016-10-16T07:24:50Z</time>
      </trkpt>
      <trkpt lat="47.27293" lon="4.95147">
        <ele>474.55</ele>
        <time>2016-10-16T07:25:00Z</time>
      </trkpt>
      <trkpt lat="47.27282" lon="4.95138">
        <ele>473.59</ele>
        <time>2016-10-16T07:25:12Z</time>
      </trkpt>
      <trkpt lat="47.27279" lon="4.95142">
        <ele>473.59</ele>
        <time>2016-10-16T07:25:25Z</time>
      </trkpt>
      <trkpt lat="47.27276" lon="4.95146">
        <ele>473.59</ele>
        <time>2016-10-16T07:25:41Z</time>
      </trkpt>
      <trkpt lat="47.27275" lon="4.95147">
        <ele>472.63</ele>
        <time>2016-10-16T07:26:08Z</time>
      </trkpt>
      <trkpt lat="47.27274" lon="4.95147">
        <ele>472.63</ele>
        <time>2016-10-16T07:26:13Z</time>
      </trkpt>
      <trkpt lat="47.27272" lon="4.95154">
        <ele>471.66</ele>
        <time>2016-10-16T07:26:17Z</time>
      </trkpt>
      <trkpt lat="47.27278" lon="4.95188">
        <ele>473.59</ele>
        <time>2016-10-16T07:26:29Z</time>
      </trkpt>
      <trkpt lat="47.27297" lon="4.9523">
        <ele>472.63</ele>
        <time>2016-10-16T07:26:42Z</time>
      </trkpt>
      <trkpt lat="47.27319" lon="4.95283">
        <ele>470.22</ele>
        <time>2016-10-16T07:26:56Z</time>
      </trkpt>
      <trkpt lat="47.27324" lon="4.95292">
        <ele>469.74</ele>
        <time>2016-10-16T07:26:58Z</time>
      </trkpt>
      <trkpt lat="47.27335" lon="4.95312">
        <ele>469.74</ele>
        <time>2016-10-16T07:27:02Z</time>
      </trkpt>
      <trkpt lat="47.27364" lon="4.95366">
        <ele>469.74</ele>
        <time>2016-10-16T07:27:12Z</time>
      </trkpt>
      <trkpt lat="47.2737" lon="4.95377">
        <ele>469.74</ele>
        <time>2016-10-16T07:27:14Z</time>
      </trkpt>
      <trkpt lat="47.27385" lon="4.95405">
        <ele>468.78</ele>
        <time>2016-10-16T07:27:19Z</time>
      </trkpt>
      <trkpt lat="47.27392" lon="4.95423">
        <ele>468.3</ele>
        <time>2016-10-16T07:27:22Z</time>
      </trkpt>
      <trkpt lat="47.27412" lon="4.95463">
        <ele>468.3</ele>
        <time>2016-10-16T07:27:29Z</time>
      </trkpt>
      <trkpt lat="47.27438" lon="4.95518">
        <ele>467.82</ele>
        <time>2016-10-16T07:27:39Z</time>
      </trkpt>
      <trkpt lat="47.27474" lon="4.95594">
        <ele>466.38</ele>
        <time>2016-10-16T07:27:54Z</time>
      </trkpt>
      <trkpt lat="47.27494" lon="4.95633">
        <ele>465.9</ele>
        <time>2016-10-16T07:28:02Z</time>
      </trkpt>
      <trkpt lat="47.27504" lon="4.95653">
        <ele>465.9</ele>
        <time>2016-10-16T07:28:06Z</time>
      </trkpt>
      <trkpt lat="47.27537" lon="4.95719">
        <ele>465.42</ele>
        <time>2016-10-16T07:28:18Z</time>
      </trkpt>
      <trkpt lat="47.2758" lon="4.95807">
        <ele>463.97</ele>
        <time>2016-10-16T07:28:35Z</time>
      </trkpt>
      <trkpt lat="47.27592" lon="4.95825">
        <ele>462.53</ele>
        <time>2016-10-16T07:28:44Z</time>
      </trkpt>
      <trkpt lat="47.27639" lon="4.95851">
        <ele>460.13</ele>
        <time>2016-10-16T07:28:57Z</time>
      </trkpt>
      <trkpt lat="47.27677" lon="4.95872">
        <ele>460.61</ele>
        <time>2016-10-16T07:29:08Z</time>
      </trkpt>
      <trkpt lat="47.27697" lon="4.95885">
        <ele>460.61</ele>
        <time>2016-10-16T07:29:15Z</time>
      </trkpt>
      <trkpt lat="47.277" lon="4.95899">
        <ele>460.13</ele>
        <time>2016-10-16T07:29:19Z</time>
      </trkpt>
      <trkpt lat="47.27685" lon="4.95965">
        <ele>461.57</ele>
        <time>2016-10-16T07:29:32Z</time>
      </trkpt>
      <trkpt lat="47.27668" lon="4.96023">
        <ele>462.53</ele>
        <time>2016-10-16T07:29:44Z</time>
      </trkpt>
      <trkpt lat="47.27651" lon="4.96081">
        <ele>463.49</ele>
        <time>2016-10-16T07:29:56Z</time>
      </trkpt>
      <trkpt lat="47.27637" lon="4.96134">
        <ele>466.38</ele>
        <time>2016-10-16T07:30:08Z</time>
      </trkpt>
      <trkpt lat="47.27619" lon="4.96194">
        <ele>469.26</ele>
        <time>2016-10-16T07:30:21Z</time>
      </trkpt>
      <trkpt lat="47.27604" lon="4.9626">
        <ele>470.22</ele>
        <time>2016-10-16T07:30:33Z</time>
      </trkpt>
      <trkpt lat="47.27586" lon="4.96331">
        <ele>474.07</ele>
        <time>2016-10-16T07:30:46Z</time>
      </trkpt>
      <trkpt lat="47.27572" lon="4.964">
        <ele>475.51</ele>
        <time>2016-10-16T07:30:58Z</time>
      </trkpt>
      <trkpt lat="47.27571" lon="4.96408">
        <ele>475.99</ele>
        <time>2016-10-16T07:30:59Z</time>
      </trkpt>
      <trkpt lat="47.27564" lon="4.96449">
        <ele>473.59</ele>
        <time>2016-10-16T07:31:05Z</time>
      </trkpt>
      <trkpt lat="47.27561" lon="4.96472">
        <ele>473.11</ele>
        <time>2016-10-16T07:31:08Z</time>
      </trkpt>
      <trkpt lat="47.27556" lon="4.96489">
        <ele>472.14</ele>
        <time>2016-10-16T07:31:10Z</time>
      </trkpt>
      <trkpt lat="47.27545" lon="4.96513">
        <ele>470.22</ele>
        <time>2016-10-16T07:31:13Z</time>
      </trkpt>
      <trkpt lat="47.2753" lon="4.96562">
        <ele>467.82</ele>
        <time>2016-10-16T07:31:19Z</time>
      </trkpt>
      <trkpt lat="47.27518" lon="4.96599">
        <ele>465.42</ele>
        <time>2016-10-16T07:31:24Z</time>
      </trkpt>
      <trkpt lat="47.27502" lon="4.96647">
        <ele>461.57</ele>
        <time>2016-10-16T07:31:33Z</time>
      </trkpt>
      <trkpt lat="47.275" lon="4.96656">
        <ele>459.17</ele>
        <time>2016-10-16T07:31:44Z</time>
      </trkpt>
      <trkpt lat="47.27501" lon="4.9666">
        <ele>458.69</ele>
        <time>2016-10-16T07:31:46Z</time>
      </trkpt>
      <trkpt lat="47.27533" lon="4.96685">
        <ele>456.76</ele>
        <time>2016-10-16T07:32:00Z</time>
      </trkpt>
      <trkpt lat="47.27568" lon="4.96707">
        <ele>454.36</ele>
        <time>2016-10-16T07:32:12Z</time>
      </trkpt>
      <trkpt lat="47.27612" lon="4.96731">
        <ele>452.92</ele>
        <time>2016-10-16T07:32:25Z</time>
      </trkpt>
      <trkpt lat="47.27655" lon="4.96754">
        <ele>449.55</ele>
        <time>2016-10-16T07:32:39Z</time>
      </trkpt>
      <trkpt lat="47.27709" lon="4.96785">
        <ele>445.71</ele>
        <time>2016-10-16T07:32:55Z</time>
      </trkpt>
      <trkpt lat="47.2775" lon="4.96807">
        <ele>443.31</ele>
        <time>2016-10-16T07:33:08Z</time>
      </trkpt>
      <trkpt lat="47.27786" lon="4.96828">
        <ele>442.82</ele>
        <time>2016-10-16T07:33:19Z</time>
      </trkpt>
      <trkpt lat="47.27814" lon="4.96844">
        <ele>442.34</ele>
        <time>2016-10-16T07:33:26Z</time>
      </trkpt>
      <trkpt lat="47.27842" lon="4.96858">
        <ele>438.5</ele>
        <time>2016-10-16T07:33:36Z</time>
      </trkpt>
      <trkpt lat="47.27843" lon="4.96859">
        <ele>438.5</ele>
        <time>2016-10-16T07:33:37Z</time>
      </trkpt>
      <trkpt lat="47.2787" lon="4.96872">
        <ele>436.1</ele>
        <time>2016-10-16T07:33:48Z</time>
      </trkpt>
      <trkpt lat="47.27896" lon="4.96888">
        <ele>434.17</ele>
        <time>2016-10-16T07:33:57Z</time>
      </trkpt>
      <trkpt lat="47.27917" lon="4.96901">
        <ele>430.33</ele>
        <time>2016-10-16T07:34:06Z</time>
      </trkpt>
      <trkpt lat="47.27919" lon="4.96902">
        <ele>430.33</ele>
        <time>2016-10-16T07:34:07Z</time>
      </trkpt>
      <trkpt lat="47.27921" lon="4.96913">
        <ele>430.33</ele>
        <time>2016-10-16T07:34:12Z</time>
      </trkpt>
      <trkpt lat="47.27903" lon="4.96967">
        <ele>425.52</ele>
        <time>2016-10-16T07:34:25Z</time>
      </trkpt>
      <trkpt lat="47.27897" lon="4.96982">
        <ele>423.6</ele>
        <time>2016-10-16T07:34:28Z</time>
      </trkpt>
      <trkpt lat="47.27882" lon="4.97029">
        <ele>419.75</ele>
        <time>2016-10-16T07:34:36Z</time>
      </trkpt>
      <trkpt lat="47.27878" lon="4.97041">
        <ele>419.27</ele>
        <time>2016-10-16T07:34:38Z</time>
      </trkpt>
      <trkpt lat="47.27861" lon="4.97108">
        <ele>416.87</ele>
        <time>2016-10-16T07:34:51Z</time>
      </trkpt>
      <trkpt lat="47.27857" lon="4.97119">
        <ele>416.87</ele>
        <time>2016-10-16T07:34:53Z</time>
      </trkpt>
      <trkpt lat="47.27851" lon="4.97137">
        <ele>416.39</ele>
        <time>2016-10-16T07:34:56Z</time>
      </trkpt>
      <trkpt lat="47.27846" lon="4.97158">
        <ele>416.39</ele>
        <time>2016-10-16T07:34:59Z</time>
      </trkpt>
      <trkpt lat="47.27832" lon="4.97214">
        <ele>415.43</ele>
        <time>2016-10-16T07:35:07Z</time>
      </trkpt>
      <trkpt lat="47.27817" lon="4.97265">
        <ele>412.54</ele>
        <time>2016-10-16T07:35:18Z</time>
      </trkpt>
      <trkpt lat="47.27806" lon="4.973">
        <ele>410.14</ele>
        <time>2016-10-16T07:35:27Z</time>
      </trkpt>
      <trkpt lat="47.27784" lon="4.97373">
        <ele>404.37</ele>
        <time>2016-10-16T07:35:39Z</time>
      </trkpt>
      <trkpt lat="47.27771" lon="4.97412">
        <ele>401.49</ele>
        <time>2016-10-16T07:35:46Z</time>
      </trkpt>
      <trkpt lat="47.27757" lon="4.97464">
        <ele>397.16</ele>
        <time>2016-10-16T07:35:55Z</time>
      </trkpt>
      <trkpt lat="47.27733" lon="4.9754">
        <ele>391.39</ele>
        <time>2016-10-16T07:36:06Z</time>
      </trkpt>
      <trkpt lat="47.27716" lon="4.97593">
        <ele>384.66</ele>
        <time>2016-10-16T07:36:15Z</time>
      </trkpt>
      <trkpt lat="47.27704" lon="4.97632">
        <ele>379.86</ele>
        <time>2016-10-16T07:36:22Z</time>
      </trkpt>
      <trkpt lat="47.27692" lon="4.97672">
        <ele>376.01</ele>
        <time>2016-10-16T07:36:31Z</time>
      </trkpt>
      <trkpt lat="47.27686" lon="4.97695">
        <ele>373.61</ele>
        <time>2016-10-16T07:36:35Z</time>
      </trkpt>
      <trkpt lat="47.27671" lon="4.97742">
        <ele>367.36</ele>
        <time>2016-10-16T07:36:42Z</time>
      </trkpt>
      <trkpt lat="47.27665" lon="4.97765">
        <ele>363.52</ele>
        <time>2016-10-16T07:36:46Z</time>
      </trkpt>
      <trkpt lat="47.27643" lon="4.97836">
        <ele>354.86</ele>
        <time>2016-10-16T07:36:58Z</time>
      </trkpt>
      <trkpt lat="47.27639" lon="4.97846">
        <ele>353.9</ele>
        <time>2016-10-16T07:37:00Z</time>
      </trkpt>
      <trkpt lat="47.27619" lon="4.97857">
        <ele>350.06</ele>
        <time>2016-10-16T07:37:07Z</time>
      </trkpt>
      <trkpt lat="47.27602" lon="4.97863">
        <ele>347.65</ele>
        <time>2016-10-16T07:37:10Z</time>
      </trkpt>
      <trkpt lat="47.2759" lon="4.97868">
        <ele>346.69</ele>
        <time>2016-10-16T07:37:12Z</time>
      </trkpt>
      <trkpt lat="47.27562" lon="4.97885">
        <ele>343.81</ele>
        <time>2016-10-16T07:37:21Z</time>
      </trkpt>
      <trkpt lat="47.27557" lon="4.97887">
        <ele>343.33</ele>
        <time>2016-10-16T07:37:33Z</time>
      </trkpt>
      <trkpt lat="47.27559" lon="4.97887">
        <ele>343.33</ele>
        <time>2016-10-16T07:37:52Z</time>
      </trkpt>
      <trkpt lat="47.27557" lon="4.97886">
        <ele>343.33</ele>
        <time>2016-10-16T07:37:55Z</time>
      </trkpt>
      <trkpt lat="47.2753" lon="4.97861">
        <ele>345.73</ele>
        <time>2016-10-16T07:38:08Z</time>
      </trkpt>
      <trkpt lat="47.27502" lon="4.97819">
        <ele>348.62</ele>
        <time>2016-10-16T07:38:20Z</time>
      </trkpt>
      <trkpt lat="47.27501" lon="4.97814">
        <ele>349.1</ele>
        <time>2016-10-16T07:38:21Z</time>
      </trkpt>
      <trkpt lat="47.27481" lon="4.97813">
        <ele>351.5</ele>
        <time>2016-10-16T07:38:26Z</time>
      </trkpt>
      <trkpt lat="47.27443" lon="4.97819">
        <ele>353.42</ele>
        <time>2016-10-16T07:38:35Z</time>
      </trkpt>
      <trkpt lat="47.2744" lon="4.97821">
        <ele>353.42</ele>
        <time>2016-10-16T07:38:36Z</time>
      </trkpt>
      <trkpt lat="47.27434" lon="4.97825">
        <ele>352.94</ele>
        <time>2016-10-16T07:38:38Z</time>
      </trkpt>
      <trkpt lat="47.27387" lon="4.97815">
        <ele>354.86</ele>
        <time>2016-10-16T07:38:50Z</time>
      </trkpt>
      <trkpt lat="47.27376" lon="4.97814">
        <ele>355.34</ele>
        <time>2016-10-16T07:38:53Z</time>
      </trkpt>
      <trkpt lat="47.27335" lon="4.97814">
        <ele>359.67</ele>
        <time>2016-10-16T07:39:03Z</time>
      </trkpt>
      <trkpt lat="47.27328" lon="4.97816">
        <ele>360.63</ele>
        <time>2016-10-16T07:39:05Z</time>
      </trkpt>
      <trkpt lat="47.27314" lon="4.97818">
        <ele>361.11</ele>
        <time>2016-10-16T07:39:09Z</time>
      </trkpt>
      <trkpt lat="47.27278" lon="4.97811">
        <ele>362.07</ele>
        <time>2016-10-16T07:39:19Z</time>
      </trkpt>
      <trkpt lat="47.27249" lon="4.97799">
        <ele>360.63</ele>
        <time>2016-10-16T07:39:26Z</time>
      </trkpt>
      <trkpt lat="47.27196" lon="4.97767">
        <ele>354.38</ele>
        <time>2016-10-16T07:39:37Z</time>
      </trkpt>
      <trkpt lat="47.27191" lon="4.97764">
        <ele>353.42</ele>
        <time>2016-10-16T07:39:38Z</time>
      </trkpt>
      <trkpt lat="47.27132" lon="4.97724">
        <ele>343.33</ele>
        <time>2016-10-16T07:39:50Z</time>
      </trkpt>
      <trkpt lat="47.27111" lon="4.9771">
        <ele>343.81</ele>
        <time>2016-10-16T07:39:56Z</time>
      </trkpt>
      <trkpt lat="47.27061" lon="4.97691">
        <ele>339.48</ele>
        <time>2016-10-16T07:40:09Z</time>
      </trkpt>
      <trkpt lat="47.27055" lon="4.97667">
        <ele>339.48</ele>
        <time>2016-10-16T07:40:17Z</time>
      </trkpt>
      <trkpt lat="47.2705" lon="4.97664">
        <ele>339.96</ele>
        <time>2016-10-16T07:40:19Z</time>
      </trkpt>
      <trkpt lat="47.27" lon="4.97655">
        <ele>337.56</ele>
        <time>2016-10-16T07:40:31Z</time>
      </trkpt>
      <trkpt lat="47.26987" lon="4.97647">
        <ele>335.64</ele>
        <time>2016-10-16T07:40:34Z</time>
      </trkpt>
      <trkpt lat="47.26968" lon="4.97636">
        <ele>334.2</ele>
        <time>2016-10-16T07:40:39Z</time>
      </trkpt>
      <trkpt lat="47.26966" lon="4.97621">
        <ele>333.71</ele>
        <time>2016-10-16T07:40:43Z</time>
      </trkpt>
      <trkpt lat="47.26969" lon="4.97612">
        <ele>334.2</ele>
        <time>2016-10-16T07:40:46Z</time>
      </trkpt>
      <trkpt lat="47.2696" lon="4.97598">
        <ele>334.68</ele>
        <time>2016-10-16T07:40:50Z</time>
      </trkpt>
      <trkpt lat="47.26935" lon="4.97584">
        <ele>334.68</ele>
        <time>2016-10-16T07:40:55Z</time>
      </trkpt>
      <trkpt lat="47.26903" lon="4.97569">
        <ele>332.27</ele>
        <time>2016-10-16T07:41:05Z</time>
      </trkpt>
      <trkpt lat="47.26902" lon="4.9757">
        <ele>332.75</ele>
        <time>2016-10-16T07:41:16Z</time>
      </trkpt>
      <trkpt lat="47.26901" lon="4.97571">
        <ele>333.23</ele>
        <time>2016-10-16T07:41:42Z</time>
      </trkpt>
      <trkpt lat="47.26901" lon="4.97569">
        <ele>332.27</ele>
        <time>2016-10-16T07:42:04Z</time>
      </trkpt>
      <trkpt lat="47.26901" lon="4.97568">
        <ele>332.27</ele>
        <time>2016-10-16T07:42:31Z</time>
      </trkpt>
      <trkpt lat="47.26901" lon="4.97567">
        <ele>332.27</ele>
        <time>2016-10-16T07:42:57Z</time>
      </trkpt>
      <trkpt lat="47.26902" lon="4.97565">
        <ele>332.75</ele>
        <time>2016-10-16T07:43:23Z</time>
      </trkpt>
      <trkpt lat="47.26902" lon="4.97567">
        <ele>332.75</ele>
        <time>2016-10-16T07:43:45Z</time>
      </trkpt>
      <trkpt lat="47.26902" lon="4.97568">
        <ele>333.23</ele>
        <time>2016-10-16T07:44:12Z</time>
      </trkpt>
      <trkpt lat="47.26902" lon="4.9757">
        <ele>332.27</ele>
        <time>2016-10-16T07:44:26Z</time>
      </trkpt>
      <trkpt lat="47.269" lon="4.9757">
        <ele>331.79</ele>
        <time>2016-10-16T07:44:54Z</time>
      </trkpt>
      <trkpt lat="47.269" lon="4.9757">
        <ele>334.2</ele>
        <time>2016-10-16T07:45:33Z</time>
      </trkpt>
      <trkpt lat="47.26897" lon="4.97567">
        <ele>333.71</ele>
        <time>2016-10-16T07:45:52Z</time>
      </trkpt>
      <trkpt lat="47.26857" lon="4.97546">
        <ele>333.23</ele>
        <time>2016-10-16T07:46:04Z</time>
      </trkpt>
      <trkpt lat="47.26842" lon="4.97535">
        <ele>332.27</ele>
        <time>2016-10-16T07:46:08Z</time>
      </trkpt>
      <trkpt lat="47.26822" lon="4.97511">
        <ele>332.27</ele>
        <time>2016-10-16T07:46:17Z</time>
      </trkpt>
      <trkpt lat="47.26816" lon="4.97515">
        <ele>331.79</ele>
        <time>2016-10-16T07:46:21Z</time>
      </trkpt>
      <trkpt lat="47.26793" lon="4.97562">
        <ele>323.14</ele>
        <time>2016-10-16T07:46:31Z</time>
      </trkpt>
      <trkpt lat="47.26787" lon="4.97556">
        <ele>321.7</ele>
        <time>2016-10-16T07:46:35Z</time>
      </trkpt>
      <trkpt lat="47.26779" lon="4.97505">
        <ele>324.58</ele>
        <time>2016-10-16T07:46:50Z</time>
      </trkpt>
      <trkpt lat="47.2678" lon="4.97505">
        <ele>324.1</ele>
        <time>2016-10-16T07:47:11Z</time>
      </trkpt>
      <trkpt lat="47.26781" lon="4.97505">
        <ele>325.54</ele>
        <time>2016-10-16T07:47:31Z</time>
      </trkpt>
      <trkpt lat="47.26782" lon="4.97528">
        <ele>324.58</ele>
        <time>2016-10-16T07:47:42Z</time>
      </trkpt>
      <trkpt lat="47.2679" lon="4.97562">
        <ele>323.62</ele>
        <time>2016-10-16T07:47:54Z</time>
      </trkpt>
      <trkpt lat="47.26789" lon="4.97561">
        <ele>324.1</ele>
        <time>2016-10-16T07:48:25Z</time>
      </trkpt>
      <trkpt lat="47.26789" lon="4.97562">
        <ele>324.58</ele>
        <time>2016-10-16T07:48:46Z</time>
      </trkpt>
      <trkpt lat="47.26789" lon="4.97564">
        <ele>325.06</ele>
        <time>2016-10-16T07:49:16Z</time>
      </trkpt>
      <trkpt lat="47.2679" lon="4.97565">
        <ele>324.1</ele>
        <time>2016-10-16T07:49:39Z</time>
      </trkpt>
      <trkpt lat="47.26789" lon="4.97562">
        <ele>322.18</ele>
        <time>2016-10-16T07:50:11Z</time>
      </trkpt>
      <trkpt lat="47.26789" lon="4.97561">
        <ele>321.7</ele>
        <time>2016-10-16T07:50:18Z</time>
      </trkpt>
      <trkpt lat="47.26785" lon="4.97538">
        <ele>322.66</ele>
        <time>2016-10-16T07:50:28Z</time>
      </trkpt>
      <trkpt lat="47.26781" lon="4.97527">
        <ele>323.14</ele>
        <time>2016-10-16T07:50:33Z</time>
      </trkpt>
      <trkpt lat="47.2678" lon="4.9751">
        <ele>324.1</ele>
        <time>2016-10-16T07:50:40Z</time>
      </trkpt>
      <trkpt lat="47.26776" lon="4.9749">
        <ele>328.43</ele>
        <time>2016-10-16T07:50:54Z</time>
      </trkpt>
      <trkpt lat="47.26774" lon="4.97476">
        <ele>329.39</ele>
        <time>2016-10-16T07:51:05Z</time>
      </trkpt>
      <trkpt lat="47.2677" lon="4.97441">
        <ele>330.35</ele>
        <time>2016-10-16T07:51:15Z</time>
      </trkpt>
      <trkpt lat="47.2676" lon="4.97399">
        <ele>334.68</ele>
        <time>2016-10-16T07:51:26Z</time>
      </trkpt>
      <trkpt lat="47.26764" lon="4.97385">
        <ele>337.08</ele>
        <time>2016-10-16T07:51:30Z</time>
      </trkpt>
      <trkpt lat="47.26765" lon="4.97326">
        <ele>340.44</ele>
        <time>2016-10-16T07:51:43Z</time>
      </trkpt>
      <trkpt lat="47.2677" lon="4.9728">
        <ele>339.48</ele>
        <time>2016-10-16T07:51:56Z</time>
      </trkpt>
      <trkpt lat="47.2677" lon="4.9727">
        <ele>339.96</ele>
        <time>2016-10-16T07:52:01Z</time>
      </trkpt>
      <trkpt lat="47.26758" lon="4.97265">
        <ele>343.33</ele>
        <time>2016-10-16T07:52:12Z</time>
      </trkpt>
      <trkpt lat="47.26743" lon="4.97257">
        <ele>344.77</ele>
        <time>2016-10-16T07:52:26Z</time>
      </trkpt>
      <trkpt lat="47.26725" lon="4.97255">
        <ele>347.17</ele>
        <time>2016-10-16T07:52:38Z</time>
      </trkpt>
      <trkpt lat="47.26711" lon="4.97252">
        <ele>347.65</ele>
        <time>2016-10-16T07:52:50Z</time>
      </trkpt>
      <trkpt lat="47.267" lon="4.97259">
        <ele>349.1</ele>
        <time>2016-10-16T07:53:00Z</time>
      </trkpt>
      <trkpt lat="47.26695" lon="4.97266">
        <ele>349.1</ele>
        <time>2016-10-16T07:53:05Z</time>
      </trkpt>
      <trkpt lat="47.26681" lon="4.9729">
        <ele>350.06</ele>
        <time>2016-10-16T07:53:18Z</time>
      </trkpt>
      <trkpt lat="47.26679" lon="4.97293">
        <ele>350.06</ele>
        <time>2016-10-16T07:53:20Z</time>
      </trkpt>
      <trkpt lat="47.26663" lon="4.97286">
        <ele>347.65</ele>
        <time>2016-10-16T07:53:33Z</time>
      </trkpt>
      <trkpt lat="47.2666" lon="4.97284">
        <ele>347.17</ele>
        <time>2016-10-16T07:53:36Z</time>
      </trkpt>
      <trkpt lat="47.26638" lon="4.97282">
        <ele>351.02</ele>
        <time>2016-10-16T07:53:55Z</time>
      </trkpt>
      <trkpt lat="47.26628" lon="4.97281">
        <ele>352.94</ele>
        <time>2016-10-16T07:54:08Z</time>
      </trkpt>
      <trkpt lat="47.26627" lon="4.97281">
        <ele>353.9</ele>
        <time>2016-10-16T07:54:32Z</time>
      </trkpt>
      <trkpt lat="47.26627" lon="4.97281">
        <ele>353.9</ele>
        <time>2016-10-16T07:54:49Z</time>
      </trkpt>
      <trkpt lat="47.26619" lon="4.97273">
        <ele>355.83</ele>
        <time>2016-10-16T07:55:05Z</time>
      </trkpt>
      <trkpt lat="47.2661" lon="4.97269">
        <ele>359.67</ele>
        <time>2016-10-16T07:55:20Z</time>
      </trkpt>
      <trkpt lat="47.26609" lon="4.97269">
        <ele>359.67</ele>
        <time>2016-10-16T07:55:26Z</time>
      </trkpt>
      <trkpt lat="47.26603" lon="4.97268">
        <ele>360.63</ele>
        <time>2016-10-16T07:55:30Z</time>
      </trkpt>
      <trkpt lat="47.26585" lon="4.97261">
        <ele>361.11</ele>
        <time>2016-10-16T07:55:42Z</time>
      </trkpt>
      <trkpt lat="47.26572" lon="4.97254">
        <ele>362.07</ele>
        <time>2016-10-16T07:55:50Z</time>
      </trkpt>
      <trkpt lat="47.26568" lon="4.97236">
        <ele>363.52</ele>
        <time>2016-10-16T07:55:58Z</time>
      </trkpt>
      <trkpt lat="47.26562" lon="4.97222">
        <ele>364.48</ele>
        <time>2016-10-16T07:56:11Z</time>
      </trkpt>
      <trkpt lat="47.26562" lon="4.97221">
        <ele>364.96</ele>
        <time>2016-10-16T07:56:34Z</time>
      </trkpt>
      <trkpt lat="47.26562" lon="4.97221">
        <ele>365.44</ele>
        <time>2016-10-16T07:56:39Z</time>
      </trkpt>
      <trkpt lat="47.26557" lon="4.97226">
        <ele>364.96</ele>
        <time>2016-10-16T07:56:43Z</time>
      </trkpt>
      <trkpt lat="47.26534" lon="4.97245">
        <ele>364.48</ele>
        <time>2016-10-16T07:56:48Z</time>
      </trkpt>
      <trkpt lat="47.26493" lon="4.97256">
        <ele>360.63</ele>
        <time>2016-10-16T07:56:55Z</time>
      </trkpt>
      <trkpt lat="47.26463" lon="4.97264">
        <ele>357.75</ele>
        <time>2016-10-16T07:56:59Z</time>
      </trkpt>
      <trkpt lat="47.26429" lon="4.97283">
        <ele>352.94</ele>
        <time>2016-10-16T07:57:03Z</time>
      </trkpt>
      <trkpt lat="47.26364" lon="4.97288">
        <ele>342.85</ele>
        <time>2016-10-16T07:57:12Z</time>
      </trkpt>
      <trkpt lat="47.26346" lon="4.97291">
        <ele>339.48</ele>
        <time>2016-10-16T07:57:19Z</time>
      </trkpt>
      <trkpt lat="47.26346" lon="4.97293">
        <ele>341.41</ele>
        <time>2016-10-16T07:57:44Z</time>
      </trkpt>
      <trkpt lat="47.26347" lon="4.97295">
        <ele>340.92</ele>
        <time>2016-10-16T07:58:04Z</time>
      </trkpt>
      <trkpt lat="47.26347" lon="4.97294">
        <ele>341.41</ele>
        <time>2016-10-16T07:58:32Z</time>
      </trkpt>
      <trkpt lat="47.26348" lon="4.97294">
        <ele>342.37</ele>
        <time>2016-10-16T07:59:08Z</time>
      </trkpt>
      <trkpt lat="47.26347" lon="4.97294">
        <ele>341.89</ele>
        <time>2016-10-16T07:59:33Z</time>
      </trkpt>
      <trkpt lat="47.26346" lon="4.97294">
        <ele>342.37</ele>
        <time>2016-10-16T07:59:56Z</time>
      </trkpt>
      <trkpt lat="47.26346" lon="4.97295">
        <ele>341.41</ele>
        <time>2016-10-16T08:00:25Z</time>
      </trkpt>
      <trkpt lat="47.26346" lon="4.97295">
        <ele>339.96</ele>
        <time>2016-10-16T08:00:52Z</time>
      </trkpt>
      <trkpt lat="47.26346" lon="4.97293">
        <ele>339</ele>
        <time>2016-10-16T08:01:22Z</time>
      </trkpt>
      <trkpt lat="47.26345" lon="4.97294">
        <ele>338.52</ele>
        <time>2016-10-16T08:02:00Z</time>
      </trkpt>
      <trkpt lat="47.26345" lon="4.97294">
        <ele>338.52</ele>
        <time>2016-10-16T08:02:22Z</time>
      </trkpt>
      <trkpt lat="47.26346" lon="4.97294">
        <ele>339.48</ele>
        <time>2016-10-16T08:02:51Z</time>
      </trkpt>
      <trkpt lat="47.26346" lon="4.97293">
        <ele>338.52</ele>
        <time>2016-10-16T08:03:25Z</time>
      </trkpt>
      <trkpt lat="47.26346" lon="4.97292">
        <ele>338.52</ele>
        <time>2016-10-16T08:03:56Z</time>
      </trkpt>
      <trkpt lat="47.26347" lon="4.97292">
        <ele>339.48</ele>
        <time>2016-10-16T08:04:26Z</time>
      </trkpt>
      <trkpt lat="47.26347" lon="4.97294">
        <ele>339.96</ele>
        <time>2016-10-16T08:05:05Z</time>
      </trkpt>
      <trkpt lat="47.26346" lon="4.97294">
        <ele>339.48</ele>
        <time>2016-10-16T08:05:35Z</time>
      </trkpt>
      <trkpt lat="47.26347" lon="4.97295">
        <ele>340.92</ele>
        <time>2016-10-16T08:06:10Z</time>
      </trkpt>
      <trkpt lat="47.26344" lon="4.97291">
        <ele>339.96</ele>
        <time>2016-10-16T08:06:27Z</time>
      </trkpt>
      <trkpt lat="47.26344" lon="4.9729">
        <ele>339.96</ele>
        <time>2016-10-16T08:06:41Z</time>
      </trkpt>
      <trkpt lat="47.26343" lon="4.9729">
        <ele>339.96</ele>
        <time>2016-10-16T08:07:02Z</time>
      </trkpt>
      <trkpt lat="47.26332" lon="4.9729">
        <ele>339</ele>
        <time>2016-10-16T08:07:11Z</time>
      </trkpt>
      <trkpt lat="47.26263" lon="4.97292">
        <ele>335.16</ele>
        <time>2016-10-16T08:07:22Z</time>
      </trkpt>
      <trkpt lat="47.2622" lon="4.97306">
        <ele>330.35</ele>
        <time>2016-10-16T08:07:29Z</time>
      </trkpt>
      <trkpt lat="47.26213" lon="4.97308">
        <ele>328.91</ele>
        <time>2016-10-16T08:07:31Z</time>
      </trkpt>
      <trkpt lat="47.26206" lon="4.97295">
        <ele>326.99</ele>
        <time>2016-10-16T08:07:39Z</time>
      </trkpt>
      <trkpt lat="47.26206" lon="4.97271">
        <ele>328.43</ele>
        <time>2016-10-16T08:07:51Z</time>
      </trkpt>
      <trkpt lat="47.26205" lon="4.97227">
        <ele>330.83</ele>
        <time>2016-10-16T08:08:04Z</time>
      </trkpt>
      <trkpt lat="47.26188" lon="4.97173">
        <ele>333.23</ele>
        <time>2016-10-16T08:08:19Z</time>
      </trkpt>
      <trkpt lat="47.26163" lon="4.9719">
        <ele>333.23</ele>
        <time>2016-10-16T08:08:29Z</time>
      </trkpt>
      <trkpt lat="47.26133" lon="4.97199">
        <ele>335.16</ele>
        <time>2016-10-16T08:08:43Z</time>
      </trkpt>
      <trkpt lat="47.26111" lon="4.97203">
        <ele>337.56</ele>
        <time>2016-10-16T08:08:56Z</time>
      </trkpt>
      <trkpt lat="47.26106" lon="4.97201">
        <ele>338.04</ele>
        <time>2016-10-16T08:08:59Z</time>
      </trkpt>
      <trkpt lat="47.26097" lon="4.97191">
        <ele>339.96</ele>
        <time>2016-10-16T08:09:07Z</time>
      </trkpt>
      <trkpt lat="47.26085" lon="4.97165">
        <ele>340.92</ele>
        <time>2016-10-16T08:09:21Z</time>
      </trkpt>
      <trkpt lat="47.26081" lon="4.97153">
        <ele>341.41</ele>
        <time>2016-10-16T08:09:27Z</time>
      </trkpt>
      <trkpt lat="47.26075" lon="4.97126">
        <ele>343.33</ele>
        <time>2016-10-16T08:09:39Z</time>
      </trkpt>
      <trkpt lat="47.26065" lon="4.97097">
        <ele>343.81</ele>
        <time>2016-10-16T08:09:52Z</time>
      </trkpt>
      <trkpt lat="47.26046" lon="4.97071">
        <ele>344.29</ele>
        <time>2016-10-16T08:10:05Z</time>
      </trkpt>
      <trkpt lat="47.26034" lon="4.97066">
        <ele>345.25</ele>
        <time>2016-10-16T08:10:11Z</time>
      </trkpt>
      <trkpt lat="47.26015" lon="4.9709">
        <ele>346.69</ele>
        <time>2016-10-16T08:10:22Z</time>
      </trkpt>
      <trkpt lat="47.25982" lon="4.97118">
        <ele>347.65</ele>
        <time>2016-10-16T08:10:35Z</time>
      </trkpt>
      <trkpt lat="47.25952" lon="4.97129">
        <ele>347.65</ele>
        <time>2016-10-16T08:10:46Z</time>
      </trkpt>
      <trkpt lat="47.2593" lon="4.97139">
        <ele>348.13</ele>
        <time>2016-10-16T08:10:52Z</time>
      </trkpt>
      <trkpt lat="47.2589" lon="4.9714">
        <ele>348.62</ele>
        <time>2016-10-16T08:11:03Z</time>
      </trkpt>
      <trkpt lat="47.25841" lon="4.97132">
        <ele>350.06</ele>
        <time>2016-10-16T08:11:19Z</time>
      </trkpt>
      <trkpt lat="47.2579" lon="4.97123">
        <ele>351.98</ele>
        <time>2016-10-16T08:11:33Z</time>
      </trkpt>
      <trkpt lat="47.25754" lon="4.9712">
        <ele>353.42</ele>
        <time>2016-10-16T08:11:45Z</time>
      </trkpt>
      <trkpt lat="47.25716" lon="4.97114">
        <ele>353.42</ele>
        <time>2016-10-16T08:11:55Z</time>
      </trkpt>
      <trkpt lat="47.25703" lon="4.97143">
        <ele>351.02</ele>
        <time>2016-10-16T08:12:00Z</time>
      </trkpt>
      <trkpt lat="47.25689" lon="4.9723">
        <ele>341.89</ele>
        <time>2016-10-16T08:12:10Z</time>
      </trkpt>
      <trkpt lat="47.25679" lon="4.97232">
        <ele>339.48</ele>
        <time>2016-10-16T08:12:14Z</time>
      </trkpt>
      <trkpt lat="47.25651" lon="4.97207">
        <ele>339</ele>
        <time>2016-10-16T08:12:23Z</time>
      </trkpt>
      <trkpt lat="47.256" lon="4.97146">
        <ele>343.33</ele>
        <time>2016-10-16T08:12:39Z</time>
      </trkpt>
      <trkpt lat="47.25541" lon="4.97118">
        <ele>340.92</ele>
        <time>2016-10-16T08:12:52Z</time>
      </trkpt>
      <trkpt lat="47.25511" lon="4.97086">
        <ele>339.96</ele>
        <time>2016-10-16T08:12:59Z</time>
      </trkpt>
      <trkpt lat="47.25502" lon="4.97065">
        <ele>340.44</ele>
        <time>2016-10-16T08:13:03Z</time>
      </trkpt>
      <trkpt lat="47.25484" lon="4.96988">
        <ele>344.77</ele>
        <time>2016-10-16T08:13:18Z</time>
      </trkpt>
      <trkpt lat="47.25466" lon="4.96946">
        <ele>346.21</ele>
        <time>2016-10-16T08:13:30Z</time>
      </trkpt>
      <trkpt lat="47.25427" lon="4.96882">
        <ele>345.25</ele>
        <time>2016-10-16T08:13:47Z</time>
      </trkpt>
      <trkpt lat="47.25402" lon="4.9682">
        <ele>346.69</ele>
        <time>2016-10-16T08:14:01Z</time>
      </trkpt>
      <trkpt lat="47.2538" lon="4.96745">
        <ele>347.65</ele>
        <time>2016-10-16T08:14:19Z</time>
      </trkpt>
      <trkpt lat="47.25368" lon="4.967">
        <ele>347.65</ele>
        <time>2016-10-16T08:14:29Z</time>
      </trkpt>
      <trkpt lat="47.25359" lon="4.96647">
        <ele>347.65</ele>
        <time>2016-10-16T08:14:40Z</time>
      </trkpt>
      <trkpt lat="47.25359" lon="4.96621">
        <ele>350.06</ele>
        <time>2016-10-16T08:14:47Z</time>
      </trkpt>
      <trkpt lat="47.25356" lon="4.96589">
        <ele>352.46</ele>
        <time>2016-10-16T08:14:56Z</time>
      </trkpt>
      <trkpt lat="47.25355" lon="4.96584">
        <ele>350.54</ele>
        <time>2016-10-16T08:15:09Z</time>
      </trkpt>
      <trkpt lat="47.25354" lon="4.96578">
        <ele>350.06</ele>
        <time>2016-10-16T08:15:13Z</time>
      </trkpt>
      <trkpt lat="47.25356" lon="4.96569">
        <ele>349.1</ele>
        <time>2016-10-16T08:15:24Z</time>
      </trkpt>
      <trkpt lat="47.25356" lon="4.96566">
        <ele>349.1</ele>
        <time>2016-10-16T08:15:28Z</time>
      </trkpt>
      <trkpt lat="47.25353" lon="4.96559">
        <ele>349.58</ele>
        <time>2016-10-16T08:15:38Z</time>
      </trkpt>
      <trkpt lat="47.25353" lon="4.96558">
        <ele>349.1</ele>
        <time>2016-10-16T08:15:44Z</time>
      </trkpt>
      <trkpt lat="47.25352" lon="4.96543">
        <ele>351.5</ele>
        <time>2016-10-16T08:15:49Z</time>
      </trkpt>
      <trkpt lat="47.2534" lon="4.96515">
        <ele>353.9</ele>
        <time>2016-10-16T08:15:57Z</time>
      </trkpt>
      <trkpt lat="47.25315" lon="4.96501">
        <ele>352.46</ele>
        <time>2016-10-16T08:16:04Z</time>
      </trkpt>
      <trkpt lat="47.25311" lon="4.965">
        <ele>352.46</ele>
        <time>2016-10-16T08:16:05Z</time>
      </trkpt>
      <trkpt lat="47.25291" lon="4.96512">
        <ele>351.98</ele>
        <time>2016-10-16T08:16:15Z</time>
      </trkpt>
      <trkpt lat="47.25282" lon="4.9653">
        <ele>353.9</ele>
        <time>2016-10-16T08:16:23Z</time>
      </trkpt>
      <trkpt lat="47.25275" lon="4.96541">
        <ele>353.9</ele>
        <time>2016-10-16T08:16:27Z</time>
      </trkpt>
      <trkpt lat="47.25253" lon="4.96597">
        <ele>354.86</ele>
        <time>2016-10-16T08:16:39Z</time>
      </trkpt>
      <trkpt lat="47.25225" lon="4.96656">
        <ele>353.9</ele>
        <time>2016-10-16T08:16:51Z</time>
      </trkpt>
      <trkpt lat="47.25223" lon="4.9666">
        <ele>353.42</ele>
        <time>2016-10-16T08:16:52Z</time>
      </trkpt>
      <trkpt lat="47.25209" lon="4.9668">
        <ele>352.46</ele>
        <time>2016-10-16T08:16:56Z</time>
      </trkpt>
      <trkpt lat="47.25176" lon="4.9677">
        <ele>353.42</ele>
        <time>2016-10-16T08:17:09Z</time>
      </trkpt>
      <trkpt lat="47.25172" lon="4.96792">
        <ele>352.94</ele>
        <time>2016-10-16T08:17:19Z</time>
      </trkpt>
      <trkpt lat="47.25173" lon="4.96795">
        <ele>351.5</ele>
        <time>2016-10-16T08:17:25Z</time>
      </trkpt>
      <trkpt lat="47.25169" lon="4.96812">
        <ele>354.86</ele>
        <time>2016-10-16T08:17:39Z</time>
      </trkpt>
      <trkpt lat="47.25169" lon="4.96812">
        <ele>353.9</ele>
        <time>2016-10-16T08:18:02Z</time>
      </trkpt>
      <trkpt lat="47.25169" lon="4.96812">
        <ele>349.58</ele>
        <time>2016-10-16T08:18:24Z</time>
      </trkpt>
      <trkpt lat="47.25168" lon="4.96815">
        <ele>348.13</ele>
        <time>2016-10-16T08:18:38Z</time>
      </trkpt>
      <trkpt lat="47.25167" lon="4.96815">
        <ele>344.29</ele>
        <time>2016-10-16T08:19:10Z</time>
      </trkpt>
      <trkpt lat="47.25167" lon="4.96816">
        <ele>344.29</ele>
        <time>2016-10-16T08:19:12Z</time>
      </trkpt>
      <trkpt lat="47.25164" lon="4.96815">
        <ele>343.81</ele>
        <time>2016-10-16T08:19:24Z</time>
      </trkpt>
      <trkpt lat="47.25153" lon="4.96808">
        <ele>344.77</ele>
        <time>2016-10-16T08:19:36Z</time>
      </trkpt>
      <trkpt lat="47.25144" lon="4.96803">
        <ele>346.69</ele>
        <time>2016-10-16T08:19:49Z</time>
      </trkpt>
      <trkpt lat="47.25133" lon="4.96795">
        <ele>346.69</ele>
        <time>2016-10-16T08:20:03Z</time>
      </trkpt>
      <trkpt lat="47.25128" lon="4.96789">
        <ele>346.21</ele>
        <time>2016-10-16T08:20:12Z</time>
      </trkpt>
      <trkpt lat="47.25125" lon="4.96778">
        <ele>347.17</ele>
        <time>2016-10-16T08:20:19Z</time>
      </trkpt>
      <trkpt lat="47.25115" lon="4.96762">
        <ele>352.46</ele>
        <time>2016-10-16T08:20:33Z</time>
      </trkpt>
      <trkpt lat="47.2511" lon="4.9675">
        <ele>354.38</ele>
        <time>2016-10-16T08:20:48Z</time>
      </trkpt>
      <trkpt lat="47.25103" lon="4.96745">
        <ele>354.86</ele>
        <time>2016-10-16T08:20:58Z</time>
      </trkpt>
      <trkpt lat="47.25089" lon="4.96739">
        <ele>354.86</ele>
        <time>2016-10-16T08:21:05Z</time>
      </trkpt>
      <trkpt lat="47.25062" lon="4.96735">
        <ele>354.38</ele>
        <time>2016-10-16T08:21:14Z</time>
      </trkpt>
      <trkpt lat="47.25049" lon="4.96741">
        <ele>353.42</ele>
        <time>2016-10-16T08:21:18Z</time>
      </trkpt>
      <trkpt lat="47.25038" lon="4.96757">
        <ele>352.94</ele>
        <time>2016-10-16T08:21:22Z</time>
      </trkpt>
      <trkpt lat="47.25022" lon="4.9678">
        <ele>351.02</ele>
        <time>2016-10-16T08:21:26Z</time>
      </trkpt>
      <trkpt lat="47.25005" lon="4.96803">
        <ele>345.73</ele>
        <time>2016-10-16T08:21:33Z</time>
      </trkpt>
      <trkpt lat="47.25004" lon="4.96803">
        <ele>340.92</ele>
        <time>2016-10-16T08:22:00Z</time>
      </trkpt>
      <trkpt lat="47.25003" lon="4.96803">
        <ele>340.92</ele>
        <time>2016-10-16T08:22:02Z</time>
      </trkpt>
      <trkpt lat="47.24999" lon="4.96803">
        <ele>339.96</ele>
        <time>2016-10-16T08:22:05Z</time>
      </trkpt>
      <trkpt lat="47.24991" lon="4.96792">
        <ele>339</ele>
        <time>2016-10-16T08:22:11Z</time>
      </trkpt>
      <trkpt lat="47.24973" lon="4.96763">
        <ele>339.96</ele>
        <time>2016-10-16T08:22:28Z</time>
      </trkpt>
      <trkpt lat="47.24967" lon="4.96752">
        <ele>340.92</ele>
        <time>2016-10-16T08:22:34Z</time>
      </trkpt>
      <trkpt lat="47.24957" lon="4.96727">
        <ele>342.85</ele>
        <time>2016-10-16T08:22:45Z</time>
      </trkpt>
      <trkpt lat="47.24953" lon="4.96707">
        <ele>346.69</ele>
        <time>2016-10-16T08:22:57Z</time>
      </trkpt>
      <trkpt lat="47.24948" lon="4.96681">
        <ele>350.54</ele>
        <time>2016-10-16T08:23:10Z</time>
      </trkpt>
      <trkpt lat="47.24946" lon="4.96671">
        <ele>352.46</ele>
        <time>2016-10-16T08:23:15Z</time>
      </trkpt>
      <trkpt lat="47.24942" lon="4.9665">
        <ele>357.27</ele>
        <time>2016-10-16T08:23:25Z</time>
      </trkpt>
      <trkpt lat="47.24925" lon="4.96626">
        <ele>362.55</ele>
        <time>2016-10-16T08:23:39Z</time>
      </trkpt>
      <trkpt lat="47.2491" lon="4.9661">
        <ele>364.96</ele>
        <time>2016-10-16T08:23:50Z</time>
      </trkpt>
      <trkpt lat="47.24909" lon="4.96609">
        <ele>365.44</ele>
        <time>2016-10-16T08:23:51Z</time>
      </trkpt>
      <trkpt lat="47.24904" lon="4.96595">
        <ele>367.84</ele>
        <time>2016-10-16T08:23:59Z</time>
      </trkpt>
      <trkpt lat="47.24902" lon="4.96584">
        <ele>368.32</ele>
        <time>2016-10-16T08:24:04Z</time>
      </trkpt>
      <trkpt lat="47.24901" lon="4.96577">
        <ele>368.32</ele>
        <time>2016-10-16T08:24:07Z</time>
      </trkpt>
      <trkpt lat="47.2489" lon="4.96552">
        <ele>367.36</ele>
        <time>2016-10-16T08:24:21Z</time>
      </trkpt>
      <trkpt lat="47.24881" lon="4.96527">
        <ele>367.36</ele>
        <time>2016-10-16T08:24:34Z</time>
      </trkpt>
      <trkpt lat="47.24873" lon="4.96501">
        <ele>369.28</ele>
        <time>2016-10-16T08:24:48Z</time>
      </trkpt>
      <trkpt lat="47.24871" lon="4.96483">
        <ele>369.76</ele>
        <time>2016-10-16T08:24:57Z</time>
      </trkpt>
      <trkpt lat="47.2487" lon="4.96479">
        <ele>370.24</ele>
        <time>2016-10-16T08:24:59Z</time>
      </trkpt>
      <trkpt lat="47.24865" lon="4.96458">
        <ele>370.24</ele>
        <time>2016-10-16T08:25:09Z</time>
      </trkpt>
      <trkpt lat="47.24866" lon="4.96445">
        <ele>369.76</ele>
        <time>2016-10-16T08:25:15Z</time>
      </trkpt>
      <trkpt lat="47.24868" lon="4.96418">
        <ele>371.21</ele>
        <time>2016-10-16T08:25:29Z</time>
      </trkpt>
      <trkpt lat="47.24875" lon="4.96394">
        <ele>374.09</ele>
        <time>2016-10-16T08:25:43Z</time>
      </trkpt>
      <trkpt lat="47.24876" lon="4.96392">
        <ele>374.09</ele>
        <time>2016-10-16T08:25:44Z</time>
      </trkpt>
      <trkpt lat="47.24877" lon="4.96387">
        <ele>375.05</ele>
        <time>2016-10-16T08:25:47Z</time>
      </trkpt>
      <trkpt lat="47.24882" lon="4.96377">
        <ele>377.45</ele>
        <time>2016-10-16T08:25:53Z</time>
      </trkpt>
      <trkpt lat="47.24886" lon="4.96367">
        <ele>377.45</ele>
        <time>2016-10-16T08:26:06Z</time>
      </trkpt>
      <trkpt lat="47.24885" lon="4.96366">
        <ele>377.45</ele>
        <time>2016-10-16T08:26:24Z</time>
      </trkpt>
      <trkpt lat="47.24885" lon="4.96367">
        <ele>377.94</ele>
        <time>2016-10-16T08:26:40Z</time>
      </trkpt>
      <trkpt lat="47.24883" lon="4.96368">
        <ele>377.94</ele>
        <time>2016-10-16T08:27:03Z</time>
      </trkpt>
      <trkpt lat="47.24863" lon="4.96366">
        <ele>378.42</ele>
        <time>2016-10-16T08:27:11Z</time>
      </trkpt>
      <trkpt lat="47.24848" lon="4.96365">
        <ele>376.97</ele>
        <time>2016-10-16T08:27:14Z</time>
      </trkpt>
      <trkpt lat="47.24838" lon="4.96363">
        <ele>376.01</ele>
        <time>2016-10-16T08:27:16Z</time>
      </trkpt>
      <trkpt lat="47.24793" lon="4.96344">
        <ele>371.69</ele>
        <time>2016-10-16T08:27:24Z</time>
      </trkpt>
      <trkpt lat="47.24758" lon="4.96296">
        <ele>366.88</ele>
        <time>2016-10-16T08:27:31Z</time>
      </trkpt>
      <trkpt lat="47.24741" lon="4.96269">
        <ele>364.96</ele>
        <time>2016-10-16T08:27:38Z</time>
      </trkpt>
      <trkpt lat="47.2474" lon="4.96269">
        <ele>364.96</ele>
        <time>2016-10-16T08:27:39Z</time>
      </trkpt>
      <trkpt lat="47.24724" lon="4.96259">
        <ele>364.96</ele>
        <time>2016-10-16T08:27:49Z</time>
      </trkpt>
      <trkpt lat="47.24721" lon="4.96256">
        <ele>364.48</ele>
        <time>2016-10-16T08:27:51Z</time>
      </trkpt>
      <trkpt lat="47.24705" lon="4.96238">
        <ele>363.04</ele>
        <time>2016-10-16T08:27:59Z</time>
      </trkpt>
      <trkpt lat="47.24688" lon="4.96206">
        <ele>357.75</ele>
        <time>2016-10-16T08:28:09Z</time>
      </trkpt>
      <trkpt lat="47.24683" lon="4.96191">
        <ele>355.83</ele>
        <time>2016-10-16T08:28:13Z</time>
      </trkpt>
      <trkpt lat="47.24667" lon="4.96163">
        <ele>350.54</ele>
        <time>2016-10-16T08:28:19Z</time>
      </trkpt>
      <trkpt lat="47.24634" lon="4.96151">
        <ele>348.13</ele>
        <time>2016-10-16T08:28:29Z</time>
      </trkpt>
      <trkpt lat="47.24626" lon="4.96161">
        <ele>347.65</ele>
        <time>2016-10-16T08:28:36Z</time>
      </trkpt>
      <trkpt lat="47.24622" lon="4.96167">
        <ele>347.65</ele>
        <time>2016-10-16T08:28:40Z</time>
      </trkpt>
      <trkpt lat="47.24619" lon="4.96175">
        <ele>351.5</ele>
        <time>2016-10-16T08:28:57Z</time>
      </trkpt>
      <trkpt lat="47.24619" lon="4.96175">
        <ele>351.98</ele>
        <time>2016-10-16T08:29:12Z</time>
      </trkpt>
      <trkpt lat="47.24619" lon="4.96173">
        <ele>353.42</ele>
        <time>2016-10-16T08:29:36Z</time>
      </trkpt>
      <trkpt lat="47.24616" lon="4.96181">
        <ele>354.38</ele>
        <time>2016-10-16T08:29:55Z</time>
      </trkpt>
      <trkpt lat="47.24613" lon="4.96205">
        <ele>353.9</ele>
        <time>2016-10-16T08:30:02Z</time>
      </trkpt>
      <trkpt lat="47.24611" lon="4.96214">
        <ele>353.42</ele>
        <time>2016-10-16T08:30:04Z</time>
      </trkpt>
      <trkpt lat="47.24595" lon="4.96273">
        <ele>352.46</ele>
        <time>2016-10-16T08:30:17Z</time>
      </trkpt>
      <trkpt lat="47.24589" lon="4.96321">
        <ele>351.98</ele>
        <time>2016-10-16T08:30:28Z</time>
      </trkpt>
      <trkpt lat="47.24588" lon="4.96329">
        <ele>351.98</ele>
        <time>2016-10-16T08:30:31Z</time>
      </trkpt>
      <trkpt lat="47.24584" lon="4.96385">
        <ele>352.46</ele>
        <time>2016-10-16T08:30:43Z</time>
      </trkpt>
      <trkpt lat="47.24577" lon="4.96453">
        <ele>351.02</ele>
        <time>2016-10-16T08:30:54Z</time>
      </trkpt>
      <trkpt lat="47.2457" lon="4.96493">
        <ele>348.62</ele>
        <time>2016-10-16T08:31:01Z</time>
      </trkpt>
      <trkpt lat="47.24553" lon="4.96496">
        <ele>347.17</ele>
        <time>2016-10-16T08:31:09Z</time>
      </trkpt>
      <trkpt lat="47.24551" lon="4.96493">
        <ele>347.65</ele>
        <time>2016-10-16T08:31:11Z</time>
      </trkpt>
      <trkpt lat="47.24524" lon="4.96487">
        <ele>349.58</ele>
        <time>2016-10-16T08:31:23Z</time>
      </trkpt>
      <trkpt lat="47.2449" lon="4.96504">
        <ele>350.06</ele>
        <time>2016-10-16T08:31:38Z</time>
      </trkpt>
      <trkpt lat="47.24469" lon="4.96516">
        <ele>350.06</ele>
        <time>2016-10-16T08:31:52Z</time>
      </trkpt>
      <trkpt lat="47.24453" lon="4.96518">
        <ele>349.58</ele>
        <time>2016-10-16T08:32:01Z</time>
      </trkpt>
      <trkpt lat="47.24435" lon="4.96517">
        <ele>348.13</ele>
        <time>2016-10-16T08:32:11Z</time>
      </trkpt>
      <trkpt lat="47.24422" lon="4.96512">
        <ele>347.65</ele>
        <time>2016-10-16T08:32:18Z</time>
      </trkpt>
      <trkpt lat="47.24407" lon="4.96501">
        <ele>348.62</ele>
        <time>2016-10-16T08:32:27Z</time>
      </trkpt>
      <trkpt lat="47.24384" lon="4.96476">
        <ele>352.94</ele>
        <time>2016-10-16T08:32:43Z</time>
      </trkpt>
      <trkpt lat="47.24362" lon="4.96446">
        <ele>355.34</ele>
        <time>2016-10-16T08:32:57Z</time>
      </trkpt>
      <trkpt lat="47.24343" lon="4.96412">
        <ele>362.07</ele>
        <time>2016-10-16T08:33:12Z</time>
      </trkpt>
      <trkpt lat="47.24321" lon="4.96382">
        <ele>364.48</ele>
        <time>2016-10-16T08:33:26Z</time>
      </trkpt>
      <trkpt lat="47.24301" lon="4.96356">
        <ele>367.84</ele>
        <time>2016-10-16T08:33:39Z</time>
      </trkpt>
      <trkpt lat="47.24299" lon="4.96353">
        <ele>368.32</ele>
        <time>2016-10-16T08:33:41Z</time>
      </trkpt>
      <trkpt lat="47.24295" lon="4.96351">
        <ele>369.28</ele>
        <time>2016-10-16T08:33:45Z</time>
      </trkpt>
      <trkpt lat="47.24293" lon="4.96354">
        <ele>369.76</ele>
        <time>2016-10-16T08:33:48Z</time>
      </trkpt>
      <trkpt lat="47.24289" lon="4.96353">
        <ele>369.76</ele>
        <time>2016-10-16T08:33:52Z</time>
      </trkpt>
      <trkpt lat="47.24286" lon="4.96355">
        <ele>370.24</ele>
        <time>2016-10-16T08:34:07Z</time>
      </trkpt>
      <trkpt lat="47.2426" lon="4.96361">
        <ele>367.84</ele>
        <time>2016-10-16T08:34:15Z</time>
      </trkpt>
      <trkpt lat="47.24231" lon="4.96344">
        <ele>366.4</ele>
        <time>2016-10-16T08:34:21Z</time>
      </trkpt>
      <trkpt lat="47.24212" lon="4.96341">
        <ele>364.48</ele>
        <time>2016-10-16T08:34:29Z</time>
      </trkpt>
      <trkpt lat="47.2419" lon="4.9633">
        <ele>364.96</ele>
        <time>2016-10-16T08:34:35Z</time>
      </trkpt>
      <trkpt lat="47.24159" lon="4.96316">
        <ele>364.96</ele>
        <time>2016-10-16T08:34:46Z</time>
      </trkpt>
      <trkpt lat="47.24156" lon="4.96312">
        <ele>364</ele>
        <time>2016-10-16T08:34:58Z</time>
      </trkpt>
      <trkpt lat="47.24154" lon="4.96307">
        <ele>364.48</ele>
        <time>2016-10-16T08:35:05Z</time>
      </trkpt>
      <trkpt lat="47.24153" lon="4.96303">
        <ele>364.48</ele>
        <time>2016-10-16T08:35:08Z</time>
      </trkpt>
      <trkpt lat="47.24152" lon="4.96291">
        <ele>364.96</ele>
        <time>2016-10-16T08:35:20Z</time>
      </trkpt>
      <trkpt lat="47.24151" lon="4.96291">
        <ele>364</ele>
        <time>2016-10-16T08:35:33Z</time>
      </trkpt>
      <trkpt lat="47.24149" lon="4.96287">
        <ele>364.96</ele>
        <time>2016-10-16T08:35:36Z</time>
      </trkpt>
      <trkpt lat="47.24145" lon="4.96278">
        <ele>367.36</ele>
        <time>2016-10-16T08:35:41Z</time>
      </trkpt>
      <trkpt lat="47.24137" lon="4.96249">
        <ele>370.24</ele>
        <time>2016-10-16T08:35:56Z</time>
      </trkpt>
      <trkpt lat="47.24137" lon="4.96245">
        <ele>370.24</ele>
        <time>2016-10-16T08:36:15Z</time>
      </trkpt>
      <trkpt lat="47.24135" lon="4.96224">
        <ele>374.09</ele>
        <time>2016-10-16T08:36:28Z</time>
      </trkpt>
      <trkpt lat="47.24133" lon="4.96211">
        <ele>374.57</ele>
        <time>2016-10-16T08:36:45Z</time>
      </trkpt>
      <trkpt lat="47.24125" lon="4.96186">
        <ele>375.53</ele>
        <time>2016-10-16T08:36:50Z</time>
      </trkpt>
      <trkpt lat="47.24102" lon="4.96083">
        <ele>376.01</ele>
        <time>2016-10-16T08:37:00Z</time>
      </trkpt>
      <trkpt lat="47.24093" lon="4.95982">
        <ele>375.53</ele>
        <time>2016-10-16T08:37:09Z</time>
      </trkpt>
      <trkpt lat="47.24091" lon="4.9595">
        <ele>375.53</ele>
        <time>2016-10-16T08:37:12Z</time>
      </trkpt>
      <trkpt lat="47.24088" lon="4.9592">
        <ele>375.05</ele>
        <time>2016-10-16T08:37:16Z</time>
      </trkpt>
      <trkpt lat="47.24084" lon="4.95933">
        <ele>374.09</ele>
        <time>2016-10-16T08:37:23Z</time>
      </trkpt>
      <trkpt lat="47.24082" lon="4.95956">
        <ele>375.05</ele>
        <time>2016-10-16T08:37:27Z</time>
      </trkpt>
      <trkpt lat="47.24081" lon="4.95971">
        <ele>375.53</ele>
        <time>2016-10-16T08:37:29Z</time>
      </trkpt>
      <trkpt lat="47.24061" lon="4.96089">
        <ele>381.3</ele>
        <time>2016-10-16T08:37:42Z</time>
      </trkpt>
      <trkpt lat="47.24058" lon="4.96137">
        <ele>384.18</ele>
        <time>2016-10-16T08:37:47Z</time>
      </trkpt>
      <trkpt lat="47.24064" lon="4.9625">
        <ele>387.55</ele>
        <time>2016-10-16T08:37:58Z</time>
      </trkpt>
      <trkpt lat="47.24062" lon="4.96293">
        <ele>385.15</ele>
        <time>2016-10-16T08:38:02Z</time>
      </trkpt>
      <trkpt lat="47.2406" lon="4.96352">
        <ele>380.82</ele>
        <time>2016-10-16T08:38:10Z</time>
      </trkpt>
      <trkpt lat="47.2406" lon="4.9636">
        <ele>378.9</ele>
        <time>2016-10-16T08:38:12Z</time>
      </trkpt>
      <trkpt lat="47.2405" lon="4.96405">
        <ele>370.24</ele>
        <time>2016-10-16T08:38:18Z</time>
      </trkpt>
      <trkpt lat="47.24056" lon="4.96448">
        <ele>355.34</ele>
        <time>2016-10-16T08:38:23Z</time>
      </trkpt>
      <trkpt lat="47.24057" lon="4.96493">
        <ele>344.29</ele>
        <time>2016-10-16T08:38:28Z</time>
      </trkpt>
      <trkpt lat="47.24056" lon="4.96538">
        <ele>335.16</ele>
        <time>2016-10-16T08:38:36Z</time>
      </trkpt>
      <trkpt lat="47.24053" lon="4.96567">
        <ele>333.71</ele>
        <time>2016-10-16T08:38:40Z</time>
      </trkpt>
      <trkpt lat="47.2405" lon="4.96591">
        <ele>332.27</ele>
        <time>2016-10-16T08:38:45Z</time>
      </trkpt>
      <trkpt lat="47.24049" lon="4.96593">
        <ele>327.95</ele>
        <time>2016-10-16T08:38:57Z</time>
      </trkpt>
      <trkpt lat="47.24033" lon="4.96607">
        <ele>324.58</ele>
        <time>2016-10-16T08:39:10Z</time>
      </trkpt>
      <trkpt lat="47.2401" lon="4.96631">
        <ele>322.66</ele>
        <time>2016-10-16T08:39:16Z</time>
      </trkpt>
      <trkpt lat="47.23982" lon="4.96652">
        <ele>319.78</ele>
        <time>2016-10-16T08:39:21Z</time>
      </trkpt>
      <trkpt lat="47.23946" lon="4.96669">
        <ele>315.93</ele>
        <time>2016-10-16T08:39:27Z</time>
      </trkpt>
      <trkpt lat="47.23933" lon="4.96658">
        <ele>314.97</ele>
        <time>2016-10-16T08:39:30Z</time>
      </trkpt>
      <trkpt lat="47.23903" lon="4.96627">
        <ele>315.93</ele>
        <time>2016-10-16T08:39:43Z</time>
      </trkpt>
      <trkpt lat="47.23891" lon="4.96597">
        <ele>319.3</ele>
        <time>2016-10-16T08:39:54Z</time>
      </trkpt>
      <trkpt lat="47.23887" lon="4.96588">
        <ele>320.26</ele>
        <time>2016-10-16T08:39:58Z</time>
      </trkpt>
      <trkpt lat="47.23874" lon="4.96598">
        <ele>319.78</ele>
        <time>2016-10-16T08:40:06Z</time>
      </trkpt>
      <trkpt lat="47.23863" lon="4.96608">
        <ele>317.85</ele>
        <time>2016-10-16T08:40:17Z</time>
      </trkpt>
      <trkpt lat="47.23859" lon="4.96612">
        <ele>316.89</ele>
        <time>2016-10-16T08:40:28Z</time>
      </trkpt>
      <trkpt lat="47.23855" lon="4.96614">
        <ele>314.97</ele>
        <time>2016-10-16T08:40:39Z</time>
      </trkpt>
      <trkpt lat="47.23848" lon="4.96631">
        <ele>313.05</ele>
        <time>2016-10-16T08:40:48Z</time>
      </trkpt>
      <trkpt lat="47.23847" lon="4.96635">
        <ele>313.05</ele>
        <time>2016-10-16T08:40:50Z</time>
      </trkpt>
      <trkpt lat="47.2383" lon="4.96644">
        <ele>314.01</ele>
        <time>2016-10-16T08:40:57Z</time>
      </trkpt>
      <trkpt lat="47.23798" lon="4.96667">
        <ele>314.49</ele>
        <time>2016-10-16T08:41:10Z</time>
      </trkpt>
      <trkpt lat="47.2378" lon="4.96678">
        <ele>314.01</ele>
        <time>2016-10-16T08:41:18Z</time>
      </trkpt>
      <trkpt lat="47.23775" lon="4.96676">
        <ele>314.01</ele>
        <time>2016-10-16T08:41:21Z</time>
      </trkpt>
      <trkpt lat="47.23772" lon="4.96675">
        <ele>314.49</ele>
        <time>2016-10-16T08:41:28Z</time>
      </trkpt>
      <trkpt lat="47.23795" lon="4.96675">
        <ele>313.53</ele>
        <time>2016-10-16T08:41:38Z</time>
      </trkpt>
      <trkpt lat="47.23805" lon="4.96657">
        <ele>313.53</ele>
        <time>2016-10-16T08:41:44Z</time>
      </trkpt>
      <trkpt lat="47.23798" lon="4.96662">
        <ele>313.05</ele>
        <time>2016-10-16T08:41:51Z</time>
      </trkpt>
      <trkpt lat="47.23776" lon="4.96678">
        <ele>313.53</ele>
        <time>2016-10-16T08:41:59Z</time>
      </trkpt>
      <trkpt lat="47.23767" lon="4.96674">
        <ele>314.49</ele>
        <time>2016-10-16T08:42:02Z</time>
      </trkpt>
      <trkpt lat="47.23737" lon="4.9666">
        <ele>317.85</ele>
        <time>2016-10-16T08:42:16Z</time>
      </trkpt>
      <trkpt lat="47.2371" lon="4.96642">
        <ele>319.78</ele>
        <time>2016-10-16T08:42:29Z</time>
      </trkpt>
      <trkpt lat="47.23665" lon="4.96625">
        <ele>320.26</ele>
        <time>2016-10-16T08:42:43Z</time>
      </trkpt>
      <trkpt lat="47.23627" lon="4.96613">
        <ele>321.22</ele>
        <time>2016-10-16T08:42:55Z</time>
      </trkpt>
      <trkpt lat="47.23582" lon="4.96587">
        <ele>322.18</ele>
        <time>2016-10-16T08:43:09Z</time>
      </trkpt>
      <trkpt lat="47.23519" lon="4.96557">
        <ele>323.14</ele>
        <time>2016-10-16T08:43:26Z</time>
      </trkpt>
      <trkpt lat="47.23499" lon="4.96553">
        <ele>323.14</ele>
        <time>2016-10-16T08:43:31Z</time>
      </trkpt>
      <trkpt lat="47.23444" lon="4.96552">
        <ele>319.78</ele>
        <time>2016-10-16T08:43:42Z</time>
      </trkpt>
      <trkpt lat="47.2339" lon="4.9654">
        <ele>318.33</ele>
        <time>2016-10-16T08:43:52Z</time>
      </trkpt>
      <trkpt lat="47.23344" lon="4.96527">
        <ele>316.89</ele>
        <time>2016-10-16T08:44:00Z</time>
      </trkpt>
      <trkpt lat="47.23324" lon="4.96514">
        <ele>316.41</ele>
        <time>2016-10-16T08:44:04Z</time>
      </trkpt>
      <trkpt lat="47.2328" lon="4.96497">
        <ele>316.41</ele>
        <time>2016-10-16T08:44:15Z</time>
      </trkpt>
      <trkpt lat="47.23207" lon="4.96468">
        <ele>314.49</ele>
        <time>2016-10-16T08:44:29Z</time>
      </trkpt>
      <trkpt lat="47.23191" lon="4.96462">
        <ele>313.53</ele>
        <time>2016-10-16T08:44:32Z</time>
      </trkpt>
      <trkpt lat="47.23163" lon="4.96445">
        <ele>313.05</ele>
        <time>2016-10-16T08:44:38Z</time>
      </trkpt>
      <trkpt lat="47.23145" lon="4.96437">
        <ele>312.09</ele>
        <time>2016-10-16T08:44:42Z</time>
      </trkpt>
      <trkpt lat="47.23128" lon="4.96443">
        <ele>311.12</ele>
        <time>2016-10-16T08:44:47Z</time>
      </trkpt>
      <trkpt lat="47.23098" lon="4.96443">
        <ele>308.72</ele>
        <time>2016-10-16T08:44:54Z</time>
      </trkpt>
      <trkpt lat="47.23074" lon="4.96431">
        <ele>308.24</ele>
        <time>2016-10-16T08:44:59Z</time>
      </trkpt>
      <trkpt lat="47.23063" lon="4.96427">
        <ele>307.76</ele>
        <time>2016-10-16T08:45:02Z</time>
      </trkpt>
      <trkpt lat="47.23052" lon="4.96433">
        <ele>307.76</ele>
        <time>2016-10-16T08:45:07Z</time>
      </trkpt>
      <trkpt lat="47.23031" lon="4.9642">
        <ele>307.28</ele>
        <time>2016-10-16T08:45:14Z</time>
      </trkpt>
      <trkpt lat="47.23006" lon="4.9641">
        <ele>306.8</ele>
        <time>2016-10-16T08:45:20Z</time>
      </trkpt>
      <trkpt lat="47.22984" lon="4.96396">
        <ele>306.8</ele>
        <time>2016-10-16T08:45:26Z</time>
      </trkpt>
      <trkpt lat="47.2296" lon="4.96379">
        <ele>305.84</ele>
        <time>2016-10-16T08:45:32Z</time>
      </trkpt>
      <trkpt lat="47.22914" lon="4.96349">
        <ele>304.39</ele>
        <time>2016-10-16T08:45:42Z</time>
      </trkpt>
      <trkpt lat="47.22885" lon="4.96324">
        <ele>303.91</ele>
        <time>2016-10-16T08:45:49Z</time>
      </trkpt>
      <trkpt lat="47.22871" lon="4.9632">
        <ele>303.43</ele>
        <time>2016-10-16T08:45:52Z</time>
      </trkpt>
      <trkpt lat="47.22858" lon="4.96312">
        <ele>302.47</ele>
        <time>2016-10-16T08:45:55Z</time>
      </trkpt>
      <trkpt lat="47.22834" lon="4.963">
        <ele>301.51</ele>
        <time>2016-10-16T08:46:04Z</time>
      </trkpt>
      <trkpt lat="47.22831" lon="4.96307">
        <ele>301.03</ele>
        <time>2016-10-16T08:46:06Z</time>
      </trkpt>
      <trkpt lat="47.22811" lon="4.96345">
        <ele>296.22</ele>
        <time>2016-10-16T08:46:18Z</time>
      </trkpt>
      <trkpt lat="47.228" lon="4.96341">
        <ele>293.82</ele>
        <time>2016-10-16T08:46:23Z</time>
      </trkpt>
      <trkpt lat="47.22755" lon="4.96301">
        <ele>292.86</ele>
        <time>2016-10-16T08:46:36Z</time>
      </trkpt>
      <trkpt lat="47.22736" lon="4.96284">
        <ele>292.38</ele>
        <time>2016-10-16T08:46:41Z</time>
      </trkpt>
      <trkpt lat="47.2271" lon="4.96301">
        <ele>290.94</ele>
        <time>2016-10-16T08:46:47Z</time>
      </trkpt>
      <trkpt lat="47.22699" lon="4.96295">
        <ele>290.46</ele>
        <time>2016-10-16T08:46:49Z</time>
      </trkpt>
      <trkpt lat="47.22682" lon="4.96278">
        <ele>290.46</ele>
        <time>2016-10-16T08:46:52Z</time>
      </trkpt>
      <trkpt lat="47.22642" lon="4.96254">
        <ele>289.49</ele>
        <time>2016-10-16T08:46:59Z</time>
      </trkpt>
      <trkpt lat="47.22627" lon="4.96239">
        <ele>289.97</ele>
        <time>2016-10-16T08:47:06Z</time>
      </trkpt>
      <trkpt lat="47.22619" lon="4.96207">
        <ele>291.9</ele>
        <time>2016-10-16T08:47:12Z</time>
      </trkpt>
      <trkpt lat="47.22565" lon="4.96126">
        <ele>293.34</ele>
        <time>2016-10-16T08:47:28Z</time>
      </trkpt>
      <trkpt lat="47.22552" lon="4.96112">
        <ele>293.34</ele>
        <time>2016-10-16T08:47:31Z</time>
      </trkpt>
      <trkpt lat="47.22503" lon="4.96042">
        <ele>295.74</ele>
        <time>2016-10-16T08:47:48Z</time>
      </trkpt>
      <trkpt lat="47.22468" lon="4.96011">
        <ele>297.67</ele>
        <time>2016-10-16T08:48:00Z</time>
      </trkpt>
      <trkpt lat="47.22421" lon="4.96006">
        <ele>299.59</ele>
        <time>2016-10-16T08:48:15Z</time>
      </trkpt>
      <trkpt lat="47.22382" lon="4.96031">
        <ele>301.51</ele>
        <time>2016-10-16T08:48:30Z</time>
      </trkpt>
      <trkpt lat="47.22364" lon="4.96068">
        <ele>302.47</ele>
        <time>2016-10-16T08:48:44Z</time>
      </trkpt>
      <trkpt lat="47.22365" lon="4.96115">
        <ele>301.99</ele>
        <time>2016-10-16T08:48:57Z</time>
      </trkpt>
      <trkpt lat="47.22364" lon="4.96163">
        <ele>301.03</ele>
        <time>2016-10-16T08:49:11Z</time>
      </trkpt>
      <trkpt lat="47.22361" lon="4.96175">
        <ele>300.07</ele>
        <time>2016-10-16T08:49:20Z</time>
      </trkpt>
      <trkpt lat="47.22361" lon="4.96177">
        <ele>299.59</ele>
        <time>2016-10-16T08:49:42Z</time>
      </trkpt>
      <trkpt lat="47.22361" lon="4.96176">
        <ele>299.59</ele>
        <time>2016-10-16T08:50:08Z</time>
      </trkpt>
      <trkpt lat="47.22361" lon="4.96175">
        <ele>299.59</ele>
        <time>2016-10-16T08:50:38Z</time>
      </trkpt>
      <trkpt lat="47.22361" lon="4.96176">
        <ele>300.07</ele>
        <time>2016-10-16T08:50:58Z</time>
      </trkpt>
      <trkpt lat="47.22363" lon="4.96182">
        <ele>299.59</ele>
        <time>2016-10-16T08:51:17Z</time>
      </trkpt>
      <trkpt lat="47.22364" lon="4.96181">
        <ele>300.07</ele>
        <time>2016-10-16T08:51:37Z</time>
      </trkpt>
      <trkpt lat="47.22364" lon="4.96182">
        <ele>301.03</ele>
        <time>2016-10-16T08:52:06Z</time>
      </trkpt>
      <trkpt lat="47.22365" lon="4.96182">
        <ele>301.51</ele>
        <time>2016-10-16T08:52:38Z</time>
      </trkpt>
      <trkpt lat="47.22364" lon="4.96182">
        <ele>300.55</ele>
        <time>2016-10-16T08:53:07Z</time>
      </trkpt>
      <trkpt lat="47.22361" lon="4.96202">
        <ele>301.03</ele>
        <time>2016-10-16T08:53:23Z</time>
      </trkpt>
      <trkpt lat="47.22356" lon="4.96252">
        <ele>298.63</ele>
        <time>2016-10-16T08:53:33Z</time>
      </trkpt>
      <trkpt lat="47.2232" lon="4.96322">
        <ele>298.15</ele>
        <time>2016-10-16T08:53:45Z</time>
      </trkpt>
      <trkpt lat="47.22276" lon="4.9639">
        <ele>299.59</ele>
        <time>2016-10-16T08:54:00Z</time>
      </trkpt>
      <trkpt lat="47.2222" lon="4.96435">
        <ele>301.51</ele>
        <time>2016-10-16T08:54:17Z</time>
      </trkpt>
      <trkpt lat="47.22171" lon="4.96461">
        <ele>302.95</ele>
        <time>2016-10-16T08:54:33Z</time>
      </trkpt>
      <trkpt lat="47.2216" lon="4.9647">
        <ele>302.95</ele>
        <time>2016-10-16T08:54:36Z</time>
      </trkpt>
      <trkpt lat="47.22143" lon="4.96479">
        <ele>302.47</ele>
        <time>2016-10-16T08:54:40Z</time>
      </trkpt>
      <trkpt lat="47.22089" lon="4.96479">
        <ele>303.43</ele>
        <time>2016-10-16T08:54:54Z</time>
      </trkpt>
      <trkpt lat="47.22034" lon="4.96476">
        <ele>302.95</ele>
        <time>2016-10-16T08:55:09Z</time>
      </trkpt>
      <trkpt lat="47.21993" lon="4.96439">
        <ele>303.43</ele>
        <time>2016-10-16T08:55:22Z</time>
      </trkpt>
      <trkpt lat="47.21967" lon="4.96443">
        <ele>303.43</ele>
        <time>2016-10-16T08:55:29Z</time>
      </trkpt>
      <trkpt lat="47.21941" lon="4.96446">
        <ele>301.99</ele>
        <time>2016-10-16T08:55:34Z</time>
      </trkpt>
      <trkpt lat="47.21925" lon="4.96443">
        <ele>301.51</ele>
        <time>2016-10-16T08:55:37Z</time>
      </trkpt>
      <trkpt lat="47.21895" lon="4.96437">
        <ele>301.51</ele>
        <time>2016-10-16T08:55:43Z</time>
      </trkpt>
      <trkpt lat="47.21885" lon="4.96436">
        <ele>301.51</ele>
        <time>2016-10-16T08:55:45Z</time>
      </trkpt>
      <trkpt lat="47.21813" lon="4.96445">
        <ele>302.95</ele>
        <time>2016-10-16T08:56:00Z</time>
      </trkpt>
      <trkpt lat="47.21775" lon="4.96428">
        <ele>302.95</ele>
        <time>2016-10-16T08:56:13Z</time>
      </trkpt>
      <trkpt lat="47.21758" lon="4.96434">
        <ele>301.51</ele>
        <time>2016-10-16T08:56:18Z</time>
      </trkpt>
      <trkpt lat="47.21714" lon="4.96424">
        <ele>301.03</ele>
        <time>2016-10-16T08:56:28Z</time>
      </trkpt>
      <trkpt lat="47.21705" lon="4.96421">
        <ele>301.99</ele>
        <time>2016-10-16T08:56:40Z</time>
      </trkpt>
      <trkpt lat="47.21703" lon="4.96421">
        <ele>302.47</ele>
        <time>2016-10-16T08:56:56Z</time>
      </trkpt>
      <trkpt lat="47.217" lon="4.96421">
        <ele>302.47</ele>
        <time>2016-10-16T08:57:09Z</time>
      </trkpt>
      <trkpt lat="47.21697" lon="4.9642">
        <ele>302.95</ele>
        <time>2016-10-16T08:57:31Z</time>
      </trkpt>
      <trkpt lat="47.21696" lon="4.9642">
        <ele>303.43</ele>
        <time>2016-10-16T08:57:47Z</time>
      </trkpt>
      <trkpt lat="47.21681" lon="4.96424">
        <ele>303.43</ele>
        <time>2016-10-16T08:58:00Z</time>
      </trkpt>
      <trkpt lat="47.21679" lon="4.96425">
        <ele>303.43</ele>
        <time>2016-10-16T08:58:01Z</time>
      </trkpt>
      <trkpt lat="47.21664" lon="4.96425">
        <ele>302.47</ele>
        <time>2016-10-16T08:58:05Z</time>
      </trkpt>
      <trkpt lat="47.21603" lon="4.96419">
        <ele>301.99</ele>
        <time>2016-10-16T08:58:19Z</time>
      </trkpt>
      <trkpt lat="47.21542" lon="4.96415">
        <ele>301.99</ele>
        <time>2016-10-16T08:58:33Z</time>
      </trkpt>
      <trkpt lat="47.21469" lon="4.96396">
        <ele>299.59</ele>
        <time>2016-10-16T08:58:49Z</time>
      </trkpt>
      <trkpt lat="47.21443" lon="4.96387">
        <ele>298.63</ele>
        <time>2016-10-16T08:58:54Z</time>
      </trkpt>
      <trkpt lat="47.21427" lon="4.96388">
        <ele>298.15</ele>
        <time>2016-10-16T08:58:57Z</time>
      </trkpt>
      <trkpt lat="47.21353" lon="4.96369">
        <ele>298.63</ele>
        <time>2016-10-16T08:59:12Z</time>
      </trkpt>
      <trkpt lat="47.21301" lon="4.96355">
        <ele>297.67</ele>
        <time>2016-10-16T08:59:22Z</time>
      </trkpt>
      <trkpt lat="47.21275" lon="4.96342">
        <ele>297.18</ele>
        <time>2016-10-16T08:59:28Z</time>
      </trkpt>
      <trkpt lat="47.21245" lon="4.96343">
        <ele>296.7</ele>
        <time>2016-10-16T08:59:34Z</time>
      </trkpt>
      <trkpt lat="47.2121" lon="4.96356">
        <ele>295.26</ele>
        <time>2016-10-16T08:59:40Z</time>
      </trkpt>
      <trkpt lat="47.21183" lon="4.96351">
        <ele>294.78</ele>
        <time>2016-10-16T08:59:45Z</time>
      </trkpt>
      <trkpt lat="47.21147" lon="4.96341">
        <ele>294.78</ele>
        <time>2016-10-16T08:59:52Z</time>
      </trkpt>
      <trkpt lat="47.21092" lon="4.96332">
        <ele>294.3</ele>
        <time>2016-10-16T09:00:04Z</time>
      </trkpt>
      <trkpt lat="47.21063" lon="4.9632">
        <ele>293.82</ele>
        <time>2016-10-16T09:00:10Z</time>
      </trkpt>
      <trkpt lat="47.21038" lon="4.9629">
        <ele>295.26</ele>
        <time>2016-10-16T09:00:19Z</time>
      </trkpt>
      <trkpt lat="47.21017" lon="4.9628">
        <ele>295.26</ele>
        <time>2016-10-16T09:00:24Z</time>
      </trkpt>
      <trkpt lat="47.20974" lon="4.96269">
        <ele>294.78</ele>
        <time>2016-10-16T09:00:36Z</time>
      </trkpt>
      <trkpt lat="47.20968" lon="4.9627">
        <ele>294.78</ele>
        <time>2016-10-16T09:00:38Z</time>
      </trkpt>
      <trkpt lat="47.20954" lon="4.9626">
        <ele>294.78</ele>
        <time>2016-10-16T09:00:47Z</time>
      </trkpt>
      <trkpt lat="47.20956" lon="4.96254">
        <ele>295.74</ele>
        <time>2016-10-16T09:00:51Z</time>
      </trkpt>
      <trkpt lat="47.20959" lon="4.96249">
        <ele>296.7</ele>
        <time>2016-10-16T09:01:00Z</time>
      </trkpt>
      <trkpt lat="47.20968" lon="4.96221">
        <ele>299.11</ele>
        <time>2016-10-16T09:01:13Z</time>
      </trkpt>
      <trkpt lat="47.20971" lon="4.96213">
        <ele>301.99</ele>
        <time>2016-10-16T09:01:17Z</time>
      </trkpt>
      <trkpt lat="47.20975" lon="4.96198">
        <ele>304.88</ele>
        <time>2016-10-16T09:01:24Z</time>
      </trkpt>
      <trkpt lat="47.20983" lon="4.96179">
        <ele>312.09</ele>
        <time>2016-10-16T09:01:37Z</time>
      </trkpt>
      <trkpt lat="47.20991" lon="4.96159">
        <ele>316.41</ele>
        <time>2016-10-16T09:01:50Z</time>
      </trkpt>
      <trkpt lat="47.21" lon="4.96138">
        <ele>317.37</ele>
        <time>2016-10-16T09:02:03Z</time>
      </trkpt>
      <trkpt lat="47.21001" lon="4.96133">
        <ele>318.33</ele>
        <time>2016-10-16T09:02:06Z</time>
      </trkpt>
      <trkpt lat="47.2101" lon="4.96113">
        <ele>318.33</ele>
        <time>2016-10-16T09:02:18Z</time>
      </trkpt>
      <trkpt lat="47.21022" lon="4.96084">
        <ele>322.18</ele>
        <time>2016-10-16T09:02:34Z</time>
      </trkpt>
      <trkpt lat="47.21029" lon="4.96066">
        <ele>324.1</ele>
        <time>2016-10-16T09:02:47Z</time>
      </trkpt>
      <trkpt lat="47.2103" lon="4.96065">
        <ele>325.06</ele>
        <time>2016-10-16T09:02:49Z</time>
      </trkpt>
      <trkpt lat="47.21034" lon="4.96052">
        <ele>325.54</ele>
        <time>2016-10-16T09:03:00Z</time>
      </trkpt>
      <trkpt lat="47.21037" lon="4.96048">
        <ele>325.54</ele>
        <time>2016-10-16T09:03:13Z</time>
      </trkpt>
      <trkpt lat="47.21039" lon="4.96046">
        <ele>326.5</ele>
        <time>2016-10-16T09:03:35Z</time>
      </trkpt>
      <trkpt lat="47.21039" lon="4.96045">
        <ele>326.5</ele>
        <time>2016-10-16T09:04:01Z</time>
      </trkpt>
      <trkpt lat="47.2104" lon="4.96042">
        <ele>324.58</ele>
        <time>2016-10-16T09:04:31Z</time>
      </trkpt>
      <trkpt lat="47.2105" lon="4.96016">
        <ele>325.54</ele>
        <time>2016-10-16T09:04:45Z</time>
      </trkpt>
      <trkpt lat="47.21062" lon="4.95989">
        <ele>328.43</ele>
        <time>2016-10-16T09:05:00Z</time>
      </trkpt>
      <trkpt lat="47.21069" lon="4.95971">
        <ele>328.91</ele>
        <time>2016-10-16T09:05:10Z</time>
      </trkpt>
      <trkpt lat="47.21073" lon="4.95963">
        <ele>329.87</ele>
        <time>2016-10-16T09:05:15Z</time>
      </trkpt>
      <trkpt lat="47.21079" lon="4.95946">
        <ele>332.27</ele>
        <time>2016-10-16T09:05:25Z</time>
      </trkpt>
      <trkpt lat="47.21086" lon="4.95922">
        <ele>337.08</ele>
        <time>2016-10-16T09:05:41Z</time>
      </trkpt>
      <trkpt lat="47.21088" lon="4.95916">
        <ele>338.52</ele>
        <time>2016-10-16T09:05:46Z</time>
      </trkpt>
      <trkpt lat="47.21095" lon="4.95896">
        <ele>339.48</ele>
        <time>2016-10-16T09:05:58Z</time>
      </trkpt>
      <trkpt lat="47.21103" lon="4.95872">
        <ele>339.48</ele>
        <time>2016-10-16T09:06:12Z</time>
      </trkpt>
      <trkpt lat="47.21107" lon="4.95861">
        <ele>339.96</ele>
        <time>2016-10-16T09:06:24Z</time>
      </trkpt>
      <trkpt lat="47.21107" lon="4.95859">
        <ele>341.89</ele>
        <time>2016-10-16T09:06:34Z</time>
      </trkpt>
      <trkpt lat="47.21109" lon="4.95853">
        <ele>344.77</ele>
        <time>2016-10-16T09:06:44Z</time>
      </trkpt>
      <trkpt lat="47.21112" lon="4.9584">
        <ele>348.13</ele>
        <time>2016-10-16T09:06:57Z</time>
      </trkpt>
      <trkpt lat="47.21117" lon="4.95824">
        <ele>351.5</ele>
        <time>2016-10-16T09:07:11Z</time>
      </trkpt>
      <trkpt lat="47.21123" lon="4.95808">
        <ele>352.94</ele>
        <time>2016-10-16T09:07:26Z</time>
      </trkpt>
      <trkpt lat="47.21128" lon="4.95798">
        <ele>356.31</ele>
        <time>2016-10-16T09:07:41Z</time>
      </trkpt>
      <trkpt lat="47.21129" lon="4.95793">
        <ele>356.31</ele>
        <time>2016-10-16T09:07:53Z</time>
      </trkpt>
      <trkpt lat="47.21133" lon="4.95787">
        <ele>356.31</ele>
        <time>2016-10-16T09:08:07Z</time>
      </trkpt>
      <trkpt lat="47.21133" lon="4.95787">
        <ele>355.34</ele>
        <time>2016-10-16T09:08:38Z</time>
      </trkpt>
      <trkpt lat="47.21133" lon="4.95787">
        <ele>354.38</ele>
        <time>2016-10-16T09:09:10Z</time>
      </trkpt>
      <trkpt lat="47.21133" lon="4.95787">
        <ele>354.38</ele>
        <time>2016-10-16T09:09:41Z</time>
      </trkpt>
      <trkpt lat="47.21134" lon="4.95787">
        <ele>352.94</ele>
        <time>2016-10-16T09:10:06Z</time>
      </trkpt>
      <trkpt lat="47.21134" lon="4.95787">
        <ele>352.94</ele>
        <time>2016-10-16T09:10:28Z</time>
      </trkpt>
      <trkpt lat="47.21133" lon="4.95788">
        <ele>352.46</ele>
        <time>2016-10-16T09:10:54Z</time>
      </trkpt>
      <trkpt lat="47.21133" lon="4.95787">
        <ele>352.94</ele>
        <time>2016-10-16T09:11:23Z</time>
      </trkpt>
      <trkpt lat="47.21133" lon="4.95786">
        <ele>353.9</ele>
        <time>2016-10-16T09:11:45Z</time>
      </trkpt>
      <trkpt lat="47.21131" lon="4.95785">
        <ele>353.42</ele>
        <time>2016-10-16T09:12:03Z</time>
      </trkpt>
      <trkpt lat="47.21131" lon="4.95786">
        <ele>353.9</ele>
        <time>2016-10-16T09:12:13Z</time>
      </trkpt>
      <trkpt lat="47.21131" lon="4.95785">
        <ele>354.38</ele>
        <time>2016-10-16T09:12:28Z</time>
      </trkpt>
      <trkpt lat="47.21131" lon="4.95784">
        <ele>354.86</ele>
        <time>2016-10-16T09:12:54Z</time>
      </trkpt>
      <trkpt lat="47.21132" lon="4.95784">
        <ele>356.79</ele>
        <time>2016-10-16T09:13:21Z</time>
      </trkpt>
      <trkpt lat="47.2113" lon="4.95786">
        <ele>359.19</ele>
        <time>2016-10-16T09:13:43Z</time>
      </trkpt>
      <trkpt lat="47.21131" lon="4.95786">
        <ele>358.71</ele>
        <time>2016-10-16T09:14:14Z</time>
      </trkpt>
      <trkpt lat="47.2113" lon="4.95787">
        <ele>356.79</ele>
        <time>2016-10-16T09:14:45Z</time>
      </trkpt>
      <trkpt lat="47.21131" lon="4.95786">
        <ele>356.31</ele>
        <time>2016-10-16T09:15:09Z</time>
      </trkpt>
      <trkpt lat="47.21132" lon="4.95785">
        <ele>356.31</ele>
        <time>2016-10-16T09:15:36Z</time>
      </trkpt>
      <trkpt lat="47.21132" lon="4.95786">
        <ele>358.23</ele>
        <time>2016-10-16T09:16:01Z</time>
      </trkpt>
      <trkpt lat="47.21132" lon="4.95784">
        <ele>358.23</ele>
        <time>2016-10-16T09:16:26Z</time>
      </trkpt>
      <trkpt lat="47.21131" lon="4.95785">
        <ele>357.75</ele>
        <time>2016-10-16T09:16:43Z</time>
      </trkpt>
      <trkpt lat="47.21131" lon="4.95786">
        <ele>358.23</ele>
        <time>2016-10-16T09:16:56Z</time>
      </trkpt>
      <trkpt lat="47.21131" lon="4.95787">
        <ele>357.75</ele>
        <time>2016-10-16T09:17:23Z</time>
      </trkpt>
      <trkpt lat="47.21131" lon="4.95788">
        <ele>356.31</ele>
        <time>2016-10-16T09:17:54Z</time>
      </trkpt>
      <trkpt lat="47.21131" lon="4.95789">
        <ele>355.83</ele>
        <time>2016-10-16T09:18:11Z</time>
      </trkpt>
      <trkpt lat="47.2113" lon="4.95788">
        <ele>356.31</ele>
        <time>2016-10-16T09:18:45Z</time>
      </trkpt>
      <trkpt lat="47.2113" lon="4.95788">
        <ele>356.31</ele>
        <time>2016-10-16T09:19:07Z</time>
      </trkpt>
      <trkpt lat="47.2113" lon="4.95787">
        <ele>358.71</ele>
        <time>2016-10-16T09:19:33Z</time>
      </trkpt>
      <trkpt lat="47.2113" lon="4.95787">
        <ele>359.67</ele>
        <time>2016-10-16T09:19:59Z</time>
      </trkpt>
      <trkpt lat="47.21129" lon="4.95788">
        <ele>358.71</ele>
        <time>2016-10-16T09:20:27Z</time>
      </trkpt>
      <trkpt lat="47.21129" lon="4.95789">
        <ele>358.23</ele>
        <time>2016-10-16T09:20:53Z</time>
      </trkpt>
      <trkpt lat="47.2113" lon="4.95788">
        <ele>358.23</ele>
        <time>2016-10-16T09:21:18Z</time>
      </trkpt>
      <trkpt lat="47.21132" lon="4.95788">
        <ele>359.67</ele>
        <time>2016-10-16T09:21:47Z</time>
      </trkpt>
      <trkpt lat="47.21133" lon="4.95788">
        <ele>359.67</ele>
        <time>2016-10-16T09:22:09Z</time>
      </trkpt>
      <trkpt lat="47.21132" lon="4.95789">
        <ele>359.19</ele>
        <time>2016-10-16T09:22:29Z</time>
      </trkpt>
      <trkpt lat="47.21131" lon="4.95787">
        <ele>358.71</ele>
        <time>2016-10-16T09:22:46Z</time>
      </trkpt>
      <trkpt lat="47.21131" lon="4.95786">
        <ele>358.23</ele>
        <time>2016-10-16T09:23:08Z</time>
      </trkpt>
      <trkpt lat="47.2113" lon="4.95787">
        <ele>358.71</ele>
        <time>2016-10-16T09:23:30Z</time>
      </trkpt>
      <trkpt lat="47.2113" lon="4.95787">
        <ele>358.71</ele>
        <time>2016-10-16T09:23:58Z</time>
      </trkpt>
      <trkpt lat="47.21129" lon="4.95789">
        <ele>358.23</ele>
        <time>2016-10-16T09:24:10Z</time>
      </trkpt>
      <trkpt lat="47.21129" lon="4.95788">
        <ele>357.75</ele>
        <time>2016-10-16T09:24:25Z</time>
      </trkpt>
      <trkpt lat="47.21129" lon="4.95788">
        <ele>357.75</ele>
        <time>2016-10-16T09:24:50Z</time>
      </trkpt>
      <trkpt lat="47.21129" lon="4.95788">
        <ele>357.75</ele>
        <time>2016-10-16T09:25:06Z</time>
      </trkpt>
      <trkpt lat="47.21128" lon="4.95787">
        <ele>357.27</ele>
        <time>2016-10-16T09:25:31Z</time>
      </trkpt>
      <trkpt lat="47.21128" lon="4.95787">
        <ele>355.83</ele>
        <time>2016-10-16T09:25:50Z</time>
      </trkpt>
      <trkpt lat="47.21128" lon="4.95787">
        <ele>357.27</ele>
        <time>2016-10-16T09:26:16Z</time>
      </trkpt>
      <trkpt lat="47.2113" lon="4.95786">
        <ele>357.75</ele>
        <time>2016-10-16T09:26:40Z</time>
      </trkpt>
      <trkpt lat="47.2113" lon="4.95787">
        <ele>356.79</ele>
        <time>2016-10-16T09:27:07Z</time>
      </trkpt>
      <trkpt lat="47.2113" lon="4.95787">
        <ele>356.31</ele>
        <time>2016-10-16T09:27:25Z</time>
      </trkpt>
      <trkpt lat="47.2113" lon="4.95787">
        <ele>356.31</ele>
        <time>2016-10-16T09:27:46Z</time>
      </trkpt>
      <trkpt lat="47.2113" lon="4.95786">
        <ele>357.27</ele>
        <time>2016-10-16T09:28:13Z</time>
      </trkpt>
      <trkpt lat="47.21129" lon="4.95785">
        <ele>357.27</ele>
        <time>2016-10-16T09:28:38Z</time>
      </trkpt>
      <trkpt lat="47.21129" lon="4.95785">
        <ele>356.31</ele>
        <time>2016-10-16T09:29:07Z</time>
      </trkpt>
      <trkpt lat="47.21129" lon="4.95786">
        <ele>356.79</ele>
        <time>2016-10-16T09:29:28Z</time>
      </trkpt>
      <trkpt lat="47.21129" lon="4.95788">
        <ele>357.75</ele>
        <time>2016-10-16T09:29:49Z</time>
      </trkpt>
      <trkpt lat="47.2113" lon="4.95788">
        <ele>356.31</ele>
        <time>2016-10-16T09:30:15Z</time>
      </trkpt>
      <trkpt lat="47.21131" lon="4.95789">
        <ele>357.27</ele>
        <time>2016-10-16T09:30:35Z</time>
      </trkpt>
      <trkpt lat="47.21131" lon="4.95788">
        <ele>357.75</ele>
        <time>2016-10-16T09:30:45Z</time>
      </trkpt>
      <trkpt lat="47.21136" lon="4.95795">
        <ele>356.79</ele>
        <time>2016-10-16T09:30:50Z</time>
      </trkpt>
      <trkpt lat="47.21169" lon="4.95844">
        <ele>355.34</ele>
        <time>2016-10-16T09:31:05Z</time>
      </trkpt>
      <trkpt lat="47.21214" lon="4.95909">
        <ele>352.94</ele>
        <time>2016-10-16T09:31:18Z</time>
      </trkpt>
      <trkpt lat="47.21275" lon="4.95999">
        <ele>351.02</ele>
        <time>2016-10-16T09:31:32Z</time>
      </trkpt>
      <trkpt lat="47.2128" lon="4.96005">
        <ele>351.02</ele>
        <time>2016-10-16T09:31:33Z</time>
      </trkpt>
      <trkpt lat="47.21339" lon="4.96075">
        <ele>349.58</ele>
        <time>2016-10-16T09:31:45Z</time>
      </trkpt>
      <trkpt lat="47.2142" lon="4.96138">
        <ele>344.29</ele>
        <time>2016-10-16T09:31:59Z</time>
      </trkpt>
      <trkpt lat="47.21456" lon="4.96165">
        <ele>342.37</ele>
        <time>2016-10-16T09:32:05Z</time>
      </trkpt>
      <trkpt lat="47.21473" lon="4.96176">
        <ele>341.41</ele>
        <time>2016-10-16T09:32:08Z</time>
      </trkpt>
      <trkpt lat="47.21528" lon="4.96205">
        <ele>340.44</ele>
        <time>2016-10-16T09:32:17Z</time>
      </trkpt>
      <trkpt lat="47.21616" lon="4.96234">
        <ele>339.96</ele>
        <time>2016-10-16T09:32:29Z</time>
      </trkpt>
      <trkpt lat="47.21655" lon="4.96251">
        <ele>339.48</ele>
        <time>2016-10-16T09:32:35Z</time>
      </trkpt>
      <trkpt lat="47.21667" lon="4.96257">
        <ele>339</ele>
        <time>2016-10-16T09:32:37Z</time>
      </trkpt>
      <trkpt lat="47.21699" lon="4.9627">
        <ele>339.48</ele>
        <time>2016-10-16T09:32:46Z</time>
      </trkpt>
      <trkpt lat="47.21712" lon="4.96273">
        <ele>340.44</ele>
        <time>2016-10-16T09:32:51Z</time>
      </trkpt>
      <trkpt lat="47.21788" lon="4.96294">
        <ele>332.75</ele>
        <time>2016-10-16T09:33:03Z</time>
      </trkpt>
      <trkpt lat="47.21875" lon="4.96312">
        <ele>326.99</ele>
        <time>2016-10-16T09:33:17Z</time>
      </trkpt>
      <trkpt lat="47.21965" lon="4.96322">
        <ele>323.62</ele>
        <time>2016-10-16T09:33:30Z</time>
      </trkpt>
      <trkpt lat="47.21986" lon="4.96324">
        <ele>322.66</ele>
        <time>2016-10-16T09:33:33Z</time>
      </trkpt>
      <trkpt lat="47.22089" lon="4.96338">
        <ele>318.33</ele>
        <time>2016-10-16T09:33:47Z</time>
      </trkpt>
      <trkpt lat="47.22104" lon="4.96343">
        <ele>317.85</ele>
        <time>2016-10-16T09:33:49Z</time>
      </trkpt>
      <trkpt lat="47.22129" lon="4.96374">
        <ele>315.45</ele>
        <time>2016-10-16T09:33:54Z</time>
      </trkpt>
      <trkpt lat="47.22155" lon="4.96464">
        <ele>305.36</ele>
        <time>2016-10-16T09:34:03Z</time>
      </trkpt>
      <trkpt lat="47.22166" lon="4.96466">
        <ele>304.39</ele>
        <time>2016-10-16T09:34:09Z</time>
      </trkpt>
      <trkpt lat="47.22189" lon="4.96451">
        <ele>305.36</ele>
        <time>2016-10-16T09:34:22Z</time>
      </trkpt>
      <trkpt lat="47.22232" lon="4.96432">
        <ele>303.43</ele>
        <time>2016-10-16T09:34:36Z</time>
      </trkpt>
      <trkpt lat="47.22236" lon="4.9643">
        <ele>302.95</ele>
        <time>2016-10-16T09:34:37Z</time>
      </trkpt>
      <trkpt lat="47.22299" lon="4.96361">
        <ele>300.07</ele>
        <time>2016-10-16T09:34:49Z</time>
      </trkpt>
      <trkpt lat="47.22344" lon="4.96276">
        <ele>298.15</ele>
        <time>2016-10-16T09:34:59Z</time>
      </trkpt>
      <trkpt lat="47.22359" lon="4.96222">
        <ele>300.07</ele>
        <time>2016-10-16T09:35:05Z</time>
      </trkpt>
      <trkpt lat="47.22363" lon="4.9616">
        <ele>302.95</ele>
        <time>2016-10-16T09:35:18Z</time>
      </trkpt>
      <trkpt lat="47.22364" lon="4.96097">
        <ele>303.43</ele>
        <time>2016-10-16T09:35:32Z</time>
      </trkpt>
      <trkpt lat="47.22366" lon="4.96055">
        <ele>303.91</ele>
        <time>2016-10-16T09:35:42Z</time>
      </trkpt>
      <trkpt lat="47.2239" lon="4.9602">
        <ele>303.43</ele>
        <time>2016-10-16T09:35:56Z</time>
      </trkpt>
      <trkpt lat="47.22394" lon="4.96018">
        <ele>302.47</ele>
        <time>2016-10-16T09:36:10Z</time>
      </trkpt>
      <trkpt lat="47.22394" lon="4.96018">
        <ele>303.43</ele>
        <time>2016-10-16T09:36:30Z</time>
      </trkpt>
      <trkpt lat="47.22394" lon="4.96018">
        <ele>304.39</ele>
        <time>2016-10-16T09:36:56Z</time>
      </trkpt>
      <trkpt lat="47.22399" lon="4.96015">
        <ele>303.91</ele>
        <time>2016-10-16T09:37:23Z</time>
      </trkpt>
      <trkpt lat="47.22448" lon="4.96004">
        <ele>302.47</ele>
        <time>2016-10-16T09:37:34Z</time>
      </trkpt>
      <trkpt lat="47.22453" lon="4.96005">
        <ele>301.99</ele>
        <time>2016-10-16T09:37:35Z</time>
      </trkpt>
      <trkpt lat="47.22464" lon="4.96008">
        <ele>301.51</ele>
        <time>2016-10-16T09:37:37Z</time>
      </trkpt>
      <trkpt lat="47.2252" lon="4.9607">
        <ele>298.63</ele>
        <time>2016-10-16T09:37:50Z</time>
      </trkpt>
      <trkpt lat="47.22569" lon="4.96132">
        <ele>295.26</ele>
        <time>2016-10-16T09:38:02Z</time>
      </trkpt>
      <trkpt lat="47.22604" lon="4.96186">
        <ele>294.3</ele>
        <time>2016-10-16T09:38:12Z</time>
      </trkpt>
      <trkpt lat="47.22613" lon="4.96205">
        <ele>293.82</ele>
        <time>2016-10-16T09:38:15Z</time>
      </trkpt>
      <trkpt lat="47.22625" lon="4.96242">
        <ele>292.86</ele>
        <time>2016-10-16T09:38:20Z</time>
      </trkpt>
      <trkpt lat="47.2267" lon="4.96271">
        <ele>295.26</ele>
        <time>2016-10-16T09:38:30Z</time>
      </trkpt>
      <trkpt lat="47.22691" lon="4.96288">
        <ele>296.22</ele>
        <time>2016-10-16T09:38:35Z</time>
      </trkpt>
      <trkpt lat="47.22702" lon="4.96299">
        <ele>296.7</ele>
        <time>2016-10-16T09:38:38Z</time>
      </trkpt>
      <trkpt lat="47.2272" lon="4.96296">
        <ele>297.67</ele>
        <time>2016-10-16T09:38:43Z</time>
      </trkpt>
      <trkpt lat="47.22729" lon="4.96285">
        <ele>298.15</ele>
        <time>2016-10-16T09:38:46Z</time>
      </trkpt>
      <trkpt lat="47.22746" lon="4.96295">
        <ele>299.11</ele>
        <time>2016-10-16T09:38:51Z</time>
      </trkpt>
      <trkpt lat="47.22796" lon="4.96342">
        <ele>299.59</ele>
        <time>2016-10-16T09:39:04Z</time>
      </trkpt>
      <trkpt lat="47.22825" lon="4.9637">
        <ele>300.55</ele>
        <time>2016-10-16T09:39:11Z</time>
      </trkpt>
      <trkpt lat="47.22869" lon="4.96415">
        <ele>304.39</ele>
        <time>2016-10-16T09:39:25Z</time>
      </trkpt>
      <trkpt lat="47.22887" lon="4.96438">
        <ele>305.36</ele>
        <time>2016-10-16T09:39:31Z</time>
      </trkpt>
      <trkpt lat="47.22915" lon="4.96473">
        <ele>304.88</ele>
        <time>2016-10-16T09:39:38Z</time>
      </trkpt>
      <trkpt lat="47.22932" lon="4.96483">
        <ele>304.88</ele>
        <time>2016-10-16T09:39:42Z</time>
      </trkpt>
      <trkpt lat="47.2296" lon="4.96477">
        <ele>305.84</ele>
        <time>2016-10-16T09:39:48Z</time>
      </trkpt>
      <trkpt lat="47.23008" lon="4.96493">
        <ele>309.2</ele>
        <time>2016-10-16T09:40:02Z</time>
      </trkpt>
      <trkpt lat="47.23056" lon="4.96523">
        <ele>310.64</ele>
        <time>2016-10-16T09:40:16Z</time>
      </trkpt>
      <trkpt lat="47.23088" lon="4.96513">
        <ele>313.53</ele>
        <time>2016-10-16T09:40:26Z</time>
      </trkpt>
      <trkpt lat="47.23115" lon="4.96482">
        <ele>314.01</ele>
        <time>2016-10-16T09:40:38Z</time>
      </trkpt>
      <trkpt lat="47.23136" lon="4.96438">
        <ele>315.45</ele>
        <time>2016-10-16T09:40:51Z</time>
      </trkpt>
      <trkpt lat="47.23186" lon="4.9646">
        <ele>316.89</ele>
        <time>2016-10-16T09:41:07Z</time>
      </trkpt>
      <trkpt lat="47.23233" lon="4.96477">
        <ele>317.85</ele>
        <time>2016-10-16T09:41:20Z</time>
      </trkpt>
      <trkpt lat="47.23284" lon="4.965">
        <ele>318.81</ele>
        <time>2016-10-16T09:41:36Z</time>
      </trkpt>
      <trkpt lat="47.23323" lon="4.96516">
        <ele>318.33</ele>
        <time>2016-10-16T09:41:47Z</time>
      </trkpt>
      <trkpt lat="47.23335" lon="4.96524">
        <ele>318.33</ele>
        <time>2016-10-16T09:41:50Z</time>
      </trkpt>
      <trkpt lat="47.23389" lon="4.96539">
        <ele>320.26</ele>
        <time>2016-10-16T09:42:04Z</time>
      </trkpt>
      <trkpt lat="47.23438" lon="4.96554">
        <ele>322.18</ele>
        <time>2016-10-16T09:42:18Z</time>
      </trkpt>
      <trkpt lat="47.2349" lon="4.96551">
        <ele>324.1</ele>
        <time>2016-10-16T09:42:33Z</time>
      </trkpt>
      <trkpt lat="47.2353" lon="4.96561">
        <ele>325.06</ele>
        <time>2016-10-16T09:42:44Z</time>
      </trkpt>
      <trkpt lat="47.23585" lon="4.96591">
        <ele>323.62</ele>
        <time>2016-10-16T09:42:56Z</time>
      </trkpt>
      <trkpt lat="47.23617" lon="4.96612">
        <ele>322.18</ele>
        <time>2016-10-16T09:43:02Z</time>
      </trkpt>
      <trkpt lat="47.23635" lon="4.96619">
        <ele>321.7</ele>
        <time>2016-10-16T09:43:05Z</time>
      </trkpt>
      <trkpt lat="47.237" lon="4.96642">
        <ele>320.74</ele>
        <time>2016-10-16T09:43:17Z</time>
      </trkpt>
      <trkpt lat="47.2371" lon="4.96644">
        <ele>320.74</ele>
        <time>2016-10-16T09:43:19Z</time>
      </trkpt>
      <trkpt lat="47.23734" lon="4.96659">
        <ele>318.33</ele>
        <time>2016-10-16T09:43:28Z</time>
      </trkpt>
      <trkpt lat="47.23736" lon="4.96665">
        <ele>317.85</ele>
        <time>2016-10-16T09:43:46Z</time>
      </trkpt>
      <trkpt lat="47.2373" lon="4.96709">
        <ele>314.97</ele>
        <time>2016-10-16T09:43:55Z</time>
      </trkpt>
      <trkpt lat="47.23737" lon="4.96717">
        <ele>314.01</ele>
        <time>2016-10-16T09:44:00Z</time>
      </trkpt>
      <trkpt lat="47.23761" lon="4.9673">
        <ele>312.09</ele>
        <time>2016-10-16T09:44:10Z</time>
      </trkpt>
      <trkpt lat="47.23768" lon="4.96735">
        <ele>311.6</ele>
        <time>2016-10-16T09:44:13Z</time>
      </trkpt>
      <trkpt lat="47.23771" lon="4.96748">
        <ele>311.12</ele>
        <time>2016-10-16T09:44:17Z</time>
      </trkpt>
      <trkpt lat="47.23771" lon="4.96769">
        <ele>310.16</ele>
        <time>2016-10-16T09:44:23Z</time>
      </trkpt>
      <trkpt lat="47.23785" lon="4.96774">
        <ele>309.68</ele>
        <time>2016-10-16T09:44:29Z</time>
      </trkpt>
      <trkpt lat="47.23836" lon="4.96787">
        <ele>307.28</ele>
        <time>2016-10-16T09:44:42Z</time>
      </trkpt>
      <trkpt lat="47.23847" lon="4.96794">
        <ele>305.36</ele>
        <time>2016-10-16T09:44:47Z</time>
      </trkpt>
      <trkpt lat="47.2386" lon="4.96793">
        <ele>304.88</ele>
        <time>2016-10-16T09:44:51Z</time>
      </trkpt>
      <trkpt lat="47.23892" lon="4.96778">
        <ele>307.28</ele>
        <time>2016-10-16T09:44:59Z</time>
      </trkpt>
      <trkpt lat="47.23911" lon="4.96779">
        <ele>310.64</ele>
        <time>2016-10-16T09:45:04Z</time>
      </trkpt>
      <trkpt lat="47.23929" lon="4.96769">
        <ele>313.53</ele>
        <time>2016-10-16T09:45:12Z</time>
      </trkpt>
      <trkpt lat="47.23957" lon="4.96773">
        <ele>315.45</ele>
        <time>2016-10-16T09:45:23Z</time>
      </trkpt>
      <trkpt lat="47.23997" lon="4.96781">
        <ele>315.93</ele>
        <time>2016-10-16T09:45:36Z</time>
      </trkpt>
      <trkpt lat="47.2403" lon="4.96789">
        <ele>314.49</ele>
        <time>2016-10-16T09:45:48Z</time>
      </trkpt>
      <trkpt lat="47.2406" lon="4.96811">
        <ele>311.6</ele>
        <time>2016-10-16T09:45:57Z</time>
      </trkpt>
      <trkpt lat="47.24063" lon="4.96819">
        <ele>311.12</ele>
        <time>2016-10-16T09:45:59Z</time>
      </trkpt>
      <trkpt lat="47.2409" lon="4.96833">
        <ele>309.2</ele>
        <time>2016-10-16T09:46:08Z</time>
      </trkpt>
      <trkpt lat="47.2409" lon="4.96854">
        <ele>308.72</ele>
        <time>2016-10-16T09:46:13Z</time>
      </trkpt>
      <trkpt lat="47.2408" lon="4.96922">
        <ele>306.32</ele>
        <time>2016-10-16T09:46:24Z</time>
      </trkpt>
      <trkpt lat="47.2409" lon="4.96928">
        <ele>304.88</ele>
        <time>2016-10-16T09:46:28Z</time>
      </trkpt>
      <trkpt lat="47.24098" lon="4.96928">
        <ele>304.88</ele>
        <time>2016-10-16T09:46:30Z</time>
      </trkpt>
      <trkpt lat="47.24151" lon="4.96941">
        <ele>303.43</ele>
        <time>2016-10-16T09:46:42Z</time>
      </trkpt>
      <trkpt lat="47.24157" lon="4.96981">
        <ele>302.47</ele>
        <time>2016-10-16T09:46:49Z</time>
      </trkpt>
      <trkpt lat="47.24146" lon="4.97071">
        <ele>299.59</ele>
        <time>2016-10-16T09:46:59Z</time>
      </trkpt>
      <trkpt lat="47.24158" lon="4.9707">
        <ele>300.07</ele>
        <time>2016-10-16T09:47:04Z</time>
      </trkpt>
      <trkpt lat="47.2417" lon="4.97063">
        <ele>300.07</ele>
        <time>2016-10-16T09:47:07Z</time>
      </trkpt>
      <trkpt lat="47.24178" lon="4.9706">
        <ele>300.55</ele>
        <time>2016-10-16T09:47:09Z</time>
      </trkpt>
      <trkpt lat="47.24186" lon="4.97058">
        <ele>300.55</ele>
        <time>2016-10-16T09:47:11Z</time>
      </trkpt>
      <trkpt lat="47.24251" lon="4.97061">
        <ele>304.39</ele>
        <time>2016-10-16T09:47:27Z</time>
      </trkpt>
      <trkpt lat="47.24308" lon="4.97038">
        <ele>306.32</ele>
        <time>2016-10-16T09:47:42Z</time>
      </trkpt>
      <trkpt lat="47.24335" lon="4.96997">
        <ele>307.76</ele>
        <time>2016-10-16T09:47:54Z</time>
      </trkpt>
      <trkpt lat="47.24379" lon="4.96966">
        <ele>306.8</ele>
        <time>2016-10-16T09:48:09Z</time>
      </trkpt>
      <trkpt lat="47.24419" lon="4.96941">
        <ele>306.8</ele>
        <time>2016-10-16T09:48:22Z</time>
      </trkpt>
      <trkpt lat="47.24442" lon="4.96943">
        <ele>306.32</ele>
        <time>2016-10-16T09:48:36Z</time>
      </trkpt>
      <trkpt lat="47.24447" lon="4.96946">
        <ele>306.8</ele>
        <time>2016-10-16T09:48:47Z</time>
      </trkpt>
      <trkpt lat="47.2445" lon="4.96948">
        <ele>306.32</ele>
        <time>2016-10-16T09:48:52Z</time>
      </trkpt>
      <trkpt lat="47.24451" lon="4.96957">
        <ele>306.32</ele>
        <time>2016-10-16T09:48:56Z</time>
      </trkpt>
      <trkpt lat="47.24451" lon="4.96964">
        <ele>305.84</ele>
        <time>2016-10-16T09:48:58Z</time>
      </trkpt>
      <trkpt lat="47.24464" lon="4.96971">
        <ele>306.8</ele>
        <time>2016-10-16T09:49:04Z</time>
      </trkpt>
      <trkpt lat="47.24503" lon="4.96974">
        <ele>310.16</ele>
        <time>2016-10-16T09:49:17Z</time>
      </trkpt>
      <trkpt lat="47.24539" lon="4.96992">
        <ele>311.6</ele>
        <time>2016-10-16T09:49:29Z</time>
      </trkpt>
      <trkpt lat="47.24542" lon="4.96992">
        <ele>311.6</ele>
        <time>2016-10-16T09:49:30Z</time>
      </trkpt>
      <trkpt lat="47.24565" lon="4.97007">
        <ele>311.12</ele>
        <time>2016-10-16T09:49:37Z</time>
      </trkpt>
      <trkpt lat="47.24583" lon="4.96986">
        <ele>312.09</ele>
        <time>2016-10-16T09:49:45Z</time>
      </trkpt>
      <trkpt lat="47.24603" lon="4.96934">
        <ele>316.41</ele>
        <time>2016-10-16T09:49:59Z</time>
      </trkpt>
      <trkpt lat="47.24616" lon="4.96894">
        <ele>319.3</ele>
        <time>2016-10-16T09:50:09Z</time>
      </trkpt>
      <trkpt lat="47.24625" lon="4.96888">
        <ele>319.78</ele>
        <time>2016-10-16T09:50:13Z</time>
      </trkpt>
      <trkpt lat="47.24653" lon="4.96871">
        <ele>322.18</ele>
        <time>2016-10-16T09:50:24Z</time>
      </trkpt>
      <trkpt lat="47.247" lon="4.96882">
        <ele>317.37</ele>
        <time>2016-10-16T09:50:32Z</time>
      </trkpt>
      <trkpt lat="47.24723" lon="4.96908">
        <ele>315.45</ele>
        <time>2016-10-16T09:50:36Z</time>
      </trkpt>
      <trkpt lat="47.24789" lon="4.96947">
        <ele>316.41</ele>
        <time>2016-10-16T09:50:47Z</time>
      </trkpt>
      <trkpt lat="47.24799" lon="4.96952">
        <ele>316.89</ele>
        <time>2016-10-16T09:50:49Z</time>
      </trkpt>
      <trkpt lat="47.24809" lon="4.96956">
        <ele>316.89</ele>
        <time>2016-10-16T09:50:51Z</time>
      </trkpt>
      <trkpt lat="47.24877" lon="4.96999">
        <ele>318.81</ele>
        <time>2016-10-16T09:51:07Z</time>
      </trkpt>
      <trkpt lat="47.24927" lon="4.97023">
        <ele>320.26</ele>
        <time>2016-10-16T09:51:22Z</time>
      </trkpt>
      <trkpt lat="47.24988" lon="4.97034">
        <ele>321.7</ele>
        <time>2016-10-16T09:51:39Z</time>
      </trkpt>
      <trkpt lat="47.25002" lon="4.97038">
        <ele>321.7</ele>
        <time>2016-10-16T09:51:44Z</time>
      </trkpt>
      <trkpt lat="47.25008" lon="4.97105">
        <ele>318.81</ele>
        <time>2016-10-16T09:51:54Z</time>
      </trkpt>
      <trkpt lat="47.25031" lon="4.97119">
        <ele>318.33</ele>
        <time>2016-10-16T09:52:01Z</time>
      </trkpt>
      <trkpt lat="47.25057" lon="4.97114">
        <ele>319.3</ele>
        <time>2016-10-16T09:52:07Z</time>
      </trkpt>
      <trkpt lat="47.25131" lon="4.97066">
        <ele>319.78</ele>
        <time>2016-10-16T09:52:23Z</time>
      </trkpt>
      <trkpt lat="47.25183" lon="4.97032">
        <ele>318.33</ele>
        <time>2016-10-16T09:52:33Z</time>
      </trkpt>
      <trkpt lat="47.25209" lon="4.97026">
        <ele>317.37</ele>
        <time>2016-10-16T09:52:38Z</time>
      </trkpt>
      <trkpt lat="47.25241" lon="4.97033">
        <ele>317.85</ele>
        <time>2016-10-16T09:52:45Z</time>
      </trkpt>
      <trkpt lat="47.25286" lon="4.9703">
        <ele>319.3</ele>
        <time>2016-10-16T09:52:54Z</time>
      </trkpt>
      <trkpt lat="47.253" lon="4.97028">
        <ele>320.26</ele>
        <time>2016-10-16T09:52:57Z</time>
      </trkpt>
      <trkpt lat="47.25341" lon="4.97037">
        <ele>324.1</ele>
        <time>2016-10-16T09:53:09Z</time>
      </trkpt>
      <trkpt lat="47.25361" lon="4.97085">
        <ele>324.1</ele>
        <time>2016-10-16T09:53:19Z</time>
      </trkpt>
      <trkpt lat="47.25383" lon="4.97153">
        <ele>322.18</ele>
        <time>2016-10-16T09:53:28Z</time>
      </trkpt>
      <trkpt lat="47.25396" lon="4.97172">
        <ele>321.7</ele>
        <time>2016-10-16T09:53:32Z</time>
      </trkpt>
      <trkpt lat="47.25404" lon="4.97186">
        <ele>321.22</ele>
        <time>2016-10-16T09:53:35Z</time>
      </trkpt>
      <trkpt lat="47.25418" lon="4.97202">
        <ele>321.22</ele>
        <time>2016-10-16T09:53:39Z</time>
      </trkpt>
      <trkpt lat="47.25426" lon="4.97229">
        <ele>319.78</ele>
        <time>2016-10-16T09:53:44Z</time>
      </trkpt>
      <trkpt lat="47.25422" lon="4.97245">
        <ele>318.81</ele>
        <time>2016-10-16T09:53:46Z</time>
      </trkpt>
      <trkpt lat="47.25415" lon="4.97271">
        <ele>316.89</ele>
        <time>2016-10-16T09:53:49Z</time>
      </trkpt>
      <trkpt lat="47.25413" lon="4.97319">
        <ele>314.49</ele>
        <time>2016-10-16T09:53:54Z</time>
      </trkpt>
      <trkpt lat="47.25423" lon="4.97342">
        <ele>313.05</ele>
        <time>2016-10-16T09:53:58Z</time>
      </trkpt>
      <trkpt lat="47.25439" lon="4.97363">
        <ele>313.05</ele>
        <time>2016-10-16T09:54:03Z</time>
      </trkpt>
      <trkpt lat="47.25457" lon="4.97383">
        <ele>313.53</ele>
        <time>2016-10-16T09:54:08Z</time>
      </trkpt>
      <trkpt lat="47.25511" lon="4.97423">
        <ele>314.01</ele>
        <time>2016-10-16T09:54:19Z</time>
      </trkpt>
      <trkpt lat="47.25539" lon="4.97468">
        <ele>312.57</ele>
        <time>2016-10-16T09:54:26Z</time>
      </trkpt>
      <trkpt lat="47.25591" lon="4.97507">
        <ele>312.57</ele>
        <time>2016-10-16T09:54:35Z</time>
      </trkpt>
      <trkpt lat="47.25616" lon="4.97516">
        <ele>313.05</ele>
        <time>2016-10-16T09:54:39Z</time>
      </trkpt>
      <trkpt lat="47.25693" lon="4.97528">
        <ele>314.01</ele>
        <time>2016-10-16T09:54:52Z</time>
      </trkpt>
      <trkpt lat="47.25789" lon="4.97562">
        <ele>311.12</ele>
        <time>2016-10-16T09:55:07Z</time>
      </trkpt>
      <trkpt lat="47.25876" lon="4.97598">
        <ele>309.68</ele>
        <time>2016-10-16T09:55:21Z</time>
      </trkpt>
      <trkpt lat="47.25905" lon="4.97608">
        <ele>309.68</ele>
        <time>2016-10-16T09:55:26Z</time>
      </trkpt>
      <trkpt lat="47.2593" lon="4.97603">
        <ele>309.2</ele>
        <time>2016-10-16T09:55:30Z</time>
      </trkpt>
      <trkpt lat="47.26003" lon="4.97608">
        <ele>309.68</ele>
        <time>2016-10-16T09:55:41Z</time>
      </trkpt>
      <trkpt lat="47.26065" lon="4.97623">
        <ele>309.68</ele>
        <time>2016-10-16T09:55:53Z</time>
      </trkpt>
      <trkpt lat="47.2609" lon="4.97635">
        <ele>309.68</ele>
        <time>2016-10-16T09:55:58Z</time>
      </trkpt>
      <trkpt lat="47.26124" lon="4.97651">
        <ele>311.12</ele>
        <time>2016-10-16T09:56:05Z</time>
      </trkpt>
      <trkpt lat="47.26139" lon="4.97656">
        <ele>311.6</ele>
        <time>2016-10-16T09:56:08Z</time>
      </trkpt>
      <trkpt lat="47.26154" lon="4.97664">
        <ele>312.09</ele>
        <time>2016-10-16T09:56:12Z</time>
      </trkpt>
      <trkpt lat="47.26162" lon="4.97666">
        <ele>312.09</ele>
        <time>2016-10-16T09:56:14Z</time>
      </trkpt>
      <trkpt lat="47.26171" lon="4.97667">
        <ele>312.09</ele>
        <time>2016-10-16T09:56:16Z</time>
      </trkpt>
      <trkpt lat="47.26191" lon="4.97669">
        <ele>312.57</ele>
        <time>2016-10-16T09:56:20Z</time>
      </trkpt>
      <trkpt lat="47.26257" lon="4.97683">
        <ele>312.57</ele>
        <time>2016-10-16T09:56:32Z</time>
      </trkpt>
      <trkpt lat="47.26334" lon="4.97691">
        <ele>311.12</ele>
        <time>2016-10-16T09:56:46Z</time>
      </trkpt>
      <trkpt lat="47.26408" lon="4.97718">
        <ele>306.8</ele>
        <time>2016-10-16T09:56:58Z</time>
      </trkpt>
      <trkpt lat="47.26422" lon="4.97753">
        <ele>304.88</ele>
        <time>2016-10-16T09:57:03Z</time>
      </trkpt>
      <trkpt lat="47.26409" lon="4.97821">
        <ele>301.99</ele>
        <time>2016-10-16T09:57:10Z</time>
      </trkpt>
      <trkpt lat="47.26416" lon="4.97844">
        <ele>301.03</ele>
        <time>2016-10-16T09:57:15Z</time>
      </trkpt>
      <trkpt lat="47.26479" lon="4.97863">
        <ele>301.51</ele>
        <time>2016-10-16T09:57:29Z</time>
      </trkpt>
      <trkpt lat="47.265" lon="4.97875">
        <ele>301.99</ele>
        <time>2016-10-16T09:57:34Z</time>
      </trkpt>
      <trkpt lat="47.26567" lon="4.97895">
        <ele>302.47</ele>
        <time>2016-10-16T09:57:47Z</time>
      </trkpt>
      <trkpt lat="47.26629" lon="4.97914">
        <ele>304.88</ele>
        <time>2016-10-16T09:58:00Z</time>
      </trkpt>
      <trkpt lat="47.26693" lon="4.97947">
        <ele>304.88</ele>
        <time>2016-10-16T09:58:16Z</time>
      </trkpt>
      <trkpt lat="47.26748" lon="4.97978">
        <ele>303.43</ele>
        <time>2016-10-16T09:58:27Z</time>
      </trkpt>
      <trkpt lat="47.26752" lon="4.98019">
        <ele>301.03</ele>
        <time>2016-10-16T09:58:33Z</time>
      </trkpt>
      <trkpt lat="47.26754" lon="4.98044">
        <ele>299.11</ele>
        <time>2016-10-16T09:58:39Z</time>
      </trkpt>
      <trkpt lat="47.26757" lon="4.98045">
        <ele>299.11</ele>
        <time>2016-10-16T09:58:40Z</time>
      </trkpt>
      <trkpt lat="47.26799" lon="4.98064">
        <ele>299.11</ele>
        <time>2016-10-16T09:58:49Z</time>
      </trkpt>
      <trkpt lat="47.26866" lon="4.98095">
        <ele>299.59</ele>
        <time>2016-10-16T09:59:03Z</time>
      </trkpt>
      <trkpt lat="47.26871" lon="4.98082">
        <ele>300.55</ele>
        <time>2016-10-16T09:59:07Z</time>
      </trkpt>
      <trkpt lat="47.26874" lon="4.98066">
        <ele>300.55</ele>
        <time>2016-10-16T09:59:11Z</time>
      </trkpt>
      <trkpt lat="47.26889" lon="4.98003">
        <ele>303.43</ele>
        <time>2016-10-16T09:59:25Z</time>
      </trkpt>
      <trkpt lat="47.26897" lon="4.97946">
        <ele>306.32</ele>
        <time>2016-10-16T09:59:40Z</time>
      </trkpt>
      <trkpt lat="47.26902" lon="4.97881">
        <ele>310.16</ele>
        <time>2016-10-16T09:59:57Z</time>
      </trkpt>
      <trkpt lat="47.26901" lon="4.97862">
        <ele>310.64</ele>
        <time>2016-10-16T10:00:02Z</time>
      </trkpt>
      <trkpt lat="47.26907" lon="4.97856">
        <ele>311.12</ele>
        <time>2016-10-16T10:00:06Z</time>
      </trkpt>
      <trkpt lat="47.26954" lon="4.97875">
        <ele>312.09</ele>
        <time>2016-10-16T10:00:21Z</time>
      </trkpt>
      <trkpt lat="47.26992" lon="4.9789">
        <ele>312.57</ele>
        <time>2016-10-16T10:00:32Z</time>
      </trkpt>
      <trkpt lat="47.27004" lon="4.97901">
        <ele>312.57</ele>
        <time>2016-10-16T10:00:36Z</time>
      </trkpt>
      <trkpt lat="47.27022" lon="4.97933">
        <ele>310.64</ele>
        <time>2016-10-16T10:00:42Z</time>
      </trkpt>
      <trkpt lat="47.27037" lon="4.97944">
        <ele>310.16</ele>
        <time>2016-10-16T10:00:45Z</time>
      </trkpt>
      <trkpt lat="47.2705" lon="4.9796">
        <ele>309.2</ele>
        <time>2016-10-16T10:00:48Z</time>
      </trkpt>
      <trkpt lat="47.2709" lon="4.97972">
        <ele>309.2</ele>
        <time>2016-10-16T10:00:57Z</time>
      </trkpt>
      <trkpt lat="47.27114" lon="4.97965">
        <ele>309.68</ele>
        <time>2016-10-16T10:01:03Z</time>
      </trkpt>
      <trkpt lat="47.27126" lon="4.97967">
        <ele>310.16</ele>
        <time>2016-10-16T10:01:06Z</time>
      </trkpt>
      <trkpt lat="47.27152" lon="4.97978">
        <ele>310.16</ele>
        <time>2016-10-16T10:01:12Z</time>
      </trkpt>
      <trkpt lat="47.2717" lon="4.9799">
        <ele>310.16</ele>
        <time>2016-10-16T10:01:17Z</time>
      </trkpt>
      <trkpt lat="47.27196" lon="4.97998">
        <ele>310.16</ele>
        <time>2016-10-16T10:01:23Z</time>
      </trkpt>
      <trkpt lat="47.27215" lon="4.98">
        <ele>309.68</ele>
        <time>2016-10-16T10:01:27Z</time>
      </trkpt>
      <trkpt lat="47.27259" lon="4.98023">
        <ele>312.09</ele>
        <time>2016-10-16T10:01:39Z</time>
      </trkpt>
      <trkpt lat="47.27263" lon="4.98026">
        <ele>312.09</ele>
        <time>2016-10-16T10:01:40Z</time>
      </trkpt>
      <trkpt lat="47.27291" lon="4.98035">
        <ele>310.64</ele>
        <time>2016-10-16T10:01:46Z</time>
      </trkpt>
      <trkpt lat="47.27307" lon="4.98043">
        <ele>310.64</ele>
        <time>2016-10-16T10:01:49Z</time>
      </trkpt>
      <trkpt lat="47.27317" lon="4.9805">
        <ele>310.64</ele>
        <time>2016-10-16T10:01:51Z</time>
      </trkpt>
      <trkpt lat="47.2737" lon="4.98086">
        <ele>310.64</ele>
        <time>2016-10-16T10:02:03Z</time>
      </trkpt>
      <trkpt lat="47.27377" lon="4.98123">
        <ele>308.24</ele>
        <time>2016-10-16T10:02:09Z</time>
      </trkpt>
      <trkpt lat="47.27365" lon="4.98152">
        <ele>305.36</ele>
        <time>2016-10-16T10:02:13Z</time>
      </trkpt>
      <trkpt lat="47.27384" lon="4.98166">
        <ele>304.39</ele>
        <time>2016-10-16T10:02:20Z</time>
      </trkpt>
      <trkpt lat="47.27394" lon="4.98168">
        <ele>304.39</ele>
        <time>2016-10-16T10:02:23Z</time>
      </trkpt>
      <trkpt lat="47.27441" lon="4.98182">
        <ele>304.88</ele>
        <time>2016-10-16T10:02:38Z</time>
      </trkpt>
      <trkpt lat="47.27459" lon="4.98203">
        <ele>303.91</ele>
        <time>2016-10-16T10:02:44Z</time>
      </trkpt>
      <trkpt lat="47.27476" lon="4.98212">
        <ele>301.99</ele>
        <time>2016-10-16T10:02:48Z</time>
      </trkpt>
      <trkpt lat="47.27499" lon="4.98214">
        <ele>301.03</ele>
        <time>2016-10-16T10:02:52Z</time>
      </trkpt>
      <trkpt lat="47.27533" lon="4.98209">
        <ele>300.55</ele>
        <time>2016-10-16T10:02:58Z</time>
      </trkpt>
      <trkpt lat="47.27556" lon="4.98218">
        <ele>300.07</ele>
        <time>2016-10-16T10:03:02Z</time>
      </trkpt>
      <trkpt lat="47.27598" lon="4.98237">
        <ele>298.63</ele>
        <time>2016-10-16T10:03:09Z</time>
      </trkpt>
      <trkpt lat="47.27612" lon="4.98244">
        <ele>298.15</ele>
        <time>2016-10-16T10:03:12Z</time>
      </trkpt>
      <trkpt lat="47.27662" lon="4.98274">
        <ele>300.07</ele>
        <time>2016-10-16T10:03:27Z</time>
      </trkpt>
      <trkpt lat="47.27682" lon="4.98289">
        <ele>298.63</ele>
        <time>2016-10-16T10:03:38Z</time>
      </trkpt>
      <trkpt lat="47.27683" lon="4.98289">
        <ele>300.07</ele>
        <time>2016-10-16T10:03:57Z</time>
      </trkpt>
      <trkpt lat="47.27684" lon="4.98289">
        <ele>300.07</ele>
        <time>2016-10-16T10:04:15Z</time>
      </trkpt>
      <trkpt lat="47.27683" lon="4.98289">
        <ele>300.07</ele>
        <time>2016-10-16T10:04:34Z</time>
      </trkpt>
      <trkpt lat="47.27683" lon="4.98288">
        <ele>298.63</ele>
        <time>2016-10-16T10:05:01Z</time>
      </trkpt>
      <trkpt lat="47.27683" lon="4.98289">
        <ele>299.11</ele>
        <time>2016-10-16T10:05:25Z</time>
      </trkpt>
      <trkpt lat="47.27683" lon="4.98289">
        <ele>299.11</ele>
        <time>2016-10-16T10:05:37Z</time>
      </trkpt>
      <trkpt lat="47.27687" lon="4.983">
        <ele>298.15</ele>
        <time>2016-10-16T10:05:41Z</time>
      </trkpt>
      <trkpt lat="47.27696" lon="4.98328">
        <ele>296.22</ele>
        <time>2016-10-16T10:05:46Z</time>
      </trkpt>
      <trkpt lat="47.2772" lon="4.98381">
        <ele>292.86</ele>
        <time>2016-10-16T10:05:58Z</time>
      </trkpt>
      <trkpt lat="47.27747" lon="4.98419">
        <ele>293.82</ele>
        <time>2016-10-16T10:06:13Z</time>
      </trkpt>
      <trkpt lat="47.27792" lon="4.98479">
        <ele>292.38</ele>
        <time>2016-10-16T10:06:31Z</time>
      </trkpt>
      <trkpt lat="47.27786" lon="4.98493">
        <ele>291.42</ele>
        <time>2016-10-16T10:06:36Z</time>
      </trkpt>
      <trkpt lat="47.27778" lon="4.98504">
        <ele>290.46</ele>
        <time>2016-10-16T10:06:39Z</time>
      </trkpt>
      <trkpt lat="47.27787" lon="4.98522">
        <ele>289.97</ele>
        <time>2016-10-16T10:06:44Z</time>
      </trkpt>
      <trkpt lat="47.27805" lon="4.98532">
        <ele>290.94</ele>
        <time>2016-10-16T10:06:49Z</time>
      </trkpt>
      <trkpt lat="47.27862" lon="4.98546">
        <ele>292.86</ele>
        <time>2016-10-16T10:07:01Z</time>
      </trkpt>
      <trkpt lat="47.27943" lon="4.98578">
        <ele>295.26</ele>
        <time>2016-10-16T10:07:19Z</time>
      </trkpt>
      <trkpt lat="47.2796" lon="4.98592">
        <ele>294.78</ele>
        <time>2016-10-16T10:07:23Z</time>
      </trkpt>
      <trkpt lat="47.27992" lon="4.98662">
        <ele>293.34</ele>
        <time>2016-10-16T10:07:33Z</time>
      </trkpt>
      <trkpt lat="47.27996" lon="4.98768">
        <ele>292.38</ele>
        <time>2016-10-16T10:07:45Z</time>
      </trkpt>
      <trkpt lat="47.28008" lon="4.98812">
        <ele>291.9</ele>
        <time>2016-10-16T10:07:54Z</time>
      </trkpt>
      <trkpt lat="47.28047" lon="4.98891">
        <ele>289.49</ele>
        <time>2016-10-16T10:08:07Z</time>
      </trkpt>
      <trkpt lat="47.28079" lon="4.98938">
        <ele>289.49</ele>
        <time>2016-10-16T10:08:15Z</time>
      </trkpt>
      <trkpt lat="47.28106" lon="4.9898">
        <ele>289.97</ele>
        <time>2016-10-16T10:08:23Z</time>
      </trkpt>
      <trkpt lat="47.28153" lon="4.99063">
        <ele>290.46</ele>
        <time>2016-10-16T10:08:37Z</time>
      </trkpt>
      <trkpt lat="47.2819" lon="4.99128">
        <ele>290.94</ele>
        <time>2016-10-16T10:08:50Z</time>
      </trkpt>
      <trkpt lat="47.2823" lon="4.99202">
        <ele>289.97</ele>
        <time>2016-10-16T10:09:01Z</time>
      </trkpt>
      <trkpt lat="47.28263" lon="4.99264">
        <ele>289.49</ele>
        <time>2016-10-16T10:09:10Z</time>
      </trkpt>
      <trkpt lat="47.2833" lon="4.99353">
        <ele>290.46</ele>
        <time>2016-10-16T10:09:25Z</time>
      </trkpt>
      <trkpt lat="47.28353" lon="4.99385">
        <ele>290.46</ele>
        <time>2016-10-16T10:09:30Z</time>
      </trkpt>
      <trkpt lat="47.28362" lon="4.99398">
        <ele>290.46</ele>
        <time>2016-10-16T10:09:32Z</time>
      </trkpt>
      <trkpt lat="47.28377" lon="4.99413">
        <ele>290.46</ele>
        <time>2016-10-16T10:09:35Z</time>
      </trkpt>
      <trkpt lat="47.28442" lon="4.99493">
        <ele>290.46</ele>
        <time>2016-10-16T10:09:49Z</time>
      </trkpt>
      <trkpt lat="47.28475" lon="4.99547">
        <ele>289.49</ele>
        <time>2016-10-16T10:09:57Z</time>
      </trkpt>
      <trkpt lat="47.28486" lon="4.99573">
        <ele>289.01</ele>
        <time>2016-10-16T10:10:00Z</time>
      </trkpt>
      <trkpt lat="47.28504" lon="4.996">
        <ele>288.53</ele>
        <time>2016-10-16T10:10:04Z</time>
      </trkpt>
      <trkpt lat="47.28525" lon="4.99618">
        <ele>288.53</ele>
        <time>2016-10-16T10:10:08Z</time>
      </trkpt>
      <trkpt lat="47.28536" lon="4.99625">
        <ele>288.05</ele>
        <time>2016-10-16T10:10:10Z</time>
      </trkpt>
      <trkpt lat="47.28554" lon="4.9967">
        <ele>286.61</ele>
        <time>2016-10-16T10:10:17Z</time>
      </trkpt>
      <trkpt lat="47.28576" lon="4.99692">
        <ele>285.17</ele>
        <time>2016-10-16T10:10:21Z</time>
      </trkpt>
      <trkpt lat="47.28648" lon="4.9973">
        <ele>283.25</ele>
        <time>2016-10-16T10:10:31Z</time>
      </trkpt>
      <trkpt lat="47.28676" lon="4.99746">
        <ele>282.77</ele>
        <time>2016-10-16T10:10:35Z</time>
      </trkpt>
      <trkpt lat="47.28716" lon="4.99778">
        <ele>282.77</ele>
        <time>2016-10-16T10:10:41Z</time>
      </trkpt>
      <trkpt lat="47.28782" lon="4.99823">
        <ele>282.28</ele>
        <time>2016-10-16T10:10:51Z</time>
      </trkpt>
      <trkpt lat="47.28843" lon="4.99848">
        <ele>280.84</ele>
        <time>2016-10-16T10:10:59Z</time>
      </trkpt>
      <trkpt lat="47.28945" lon="4.99891">
        <ele>278.92</ele>
        <time>2016-10-16T10:11:13Z</time>
      </trkpt>
      <trkpt lat="47.29034" lon="4.99948">
        <ele>277.48</ele>
        <time>2016-10-16T10:11:26Z</time>
      </trkpt>
      <trkpt lat="47.29089" lon="4.99989">
        <ele>277.96</ele>
        <time>2016-10-16T10:11:38Z</time>
      </trkpt>
      <trkpt lat="47.29095" lon="4.99994">
        <ele>277.96</ele>
        <time>2016-10-16T10:11:42Z</time>
      </trkpt>
      <trkpt lat="47.29106" lon="4.99998">
        <ele>279.88</ele>
        <time>2016-10-16T10:11:48Z</time>
      </trkpt>
      <trkpt lat="47.29129" lon="5.00007">
        <ele>281.32</ele>
        <time>2016-10-16T10:11:54Z</time>
      </trkpt>
      <trkpt lat="47.29176" lon="5.00025">
        <ele>281.8</ele>
        <time>2016-10-16T10:12:06Z</time>
      </trkpt>
      <trkpt lat="47.29211" lon="5.0004">
        <ele>279.88</ele>
        <time>2016-10-16T10:12:17Z</time>
      </trkpt>
      <trkpt lat="47.29217" lon="5.00024">
        <ele>278.92</ele>
        <time>2016-10-16T10:12:22Z</time>
      </trkpt>
      <trkpt lat="47.29233" lon="4.99968">
        <ele>280.84</ele>
        <time>2016-10-16T10:12:34Z</time>
      </trkpt>
      <trkpt lat="47.29236" lon="4.99945">
        <ele>281.8</ele>
        <time>2016-10-16T10:12:41Z</time>
      </trkpt>
      <trkpt lat="47.29238" lon="4.99934">
        <ele>282.77</ele>
        <time>2016-10-16T10:12:47Z</time>
      </trkpt>
      <trkpt lat="47.29265" lon="4.99948">
        <ele>285.65</ele>
        <time>2016-10-16T10:12:59Z</time>
      </trkpt>
      <trkpt lat="47.29315" lon="4.99961">
        <ele>288.53</ele>
        <time>2016-10-16T10:13:11Z</time>
      </trkpt>
      <trkpt lat="47.29316" lon="4.99961">
        <ele>288.05</ele>
        <time>2016-10-16T10:13:12Z</time>
      </trkpt>
      <trkpt lat="47.29315" lon="4.9998">
        <ele>287.09</ele>
        <time>2016-10-16T10:13:17Z</time>
      </trkpt>
      <trkpt lat="47.2931" lon="5.00011">
        <ele>287.57</ele>
        <time>2016-10-16T10:13:22Z</time>
      </trkpt>
      <trkpt lat="47.29327" lon="5.00021">
        <ele>287.57</ele>
        <time>2016-10-16T10:13:27Z</time>
      </trkpt>
      <trkpt lat="47.29399" lon="5.00029">
        <ele>284.21</ele>
        <time>2016-10-16T10:13:39Z</time>
      </trkpt>
      <trkpt lat="47.29442" lon="5.00034">
        <ele>282.28</ele>
        <time>2016-10-16T10:13:45Z</time>
      </trkpt>
      <trkpt lat="47.29461" lon="5.0003">
        <ele>281.32</ele>
        <time>2016-10-16T10:13:48Z</time>
      </trkpt>
      <trkpt lat="47.29514" lon="5.00046">
        <ele>280.36</ele>
        <time>2016-10-16T10:13:58Z</time>
      </trkpt>
      <trkpt lat="47.29542" lon="5.00054">
        <ele>280.36</ele>
        <time>2016-10-16T10:14:03Z</time>
      </trkpt>
      <trkpt lat="47.29564" lon="5.00054">
        <ele>280.84</ele>
        <time>2016-10-16T10:14:07Z</time>
      </trkpt>
      <trkpt lat="47.29616" lon="5.00057">
        <ele>281.8</ele>
        <time>2016-10-16T10:14:20Z</time>
      </trkpt>
      <trkpt lat="47.29687" lon="5.00078">
        <ele>280.84</ele>
        <time>2016-10-16T10:14:35Z</time>
      </trkpt>
      <trkpt lat="47.2975" lon="5.00094">
        <ele>282.77</ele>
        <time>2016-10-16T10:14:48Z</time>
      </trkpt>
      <trkpt lat="47.29754" lon="5.00095">
        <ele>282.77</ele>
        <time>2016-10-16T10:14:49Z</time>
      </trkpt>
      <trkpt lat="47.29813" lon="5.00113">
        <ele>286.13</ele>
        <time>2016-10-16T10:15:03Z</time>
      </trkpt>
      <trkpt lat="47.29821" lon="5.00114">
        <ele>286.13</ele>
        <time>2016-10-16T10:15:05Z</time>
      </trkpt>
      <trkpt lat="47.29844" lon="5.00122">
        <ele>287.09</ele>
        <time>2016-10-16T10:15:10Z</time>
      </trkpt>
      <trkpt lat="47.29893" lon="5.00129">
        <ele>290.94</ele>
        <time>2016-10-16T10:15:23Z</time>
      </trkpt>
      <trkpt lat="47.29915" lon="5.00125">
        <ele>293.82</ele>
        <time>2016-10-16T10:15:36Z</time>
      </trkpt>
      <trkpt lat="47.2992" lon="5.00124">
        <ele>293.34</ele>
        <time>2016-10-16T10:15:49Z</time>
      </trkpt>
      <trkpt lat="47.2992" lon="5.00124">
        <ele>293.34</ele>
        <time>2016-10-16T10:16:13Z</time>
      </trkpt>
      <trkpt lat="47.29921" lon="5.00124">
        <ele>292.38</ele>
        <time>2016-10-16T10:16:40Z</time>
      </trkpt>
      <trkpt lat="47.2993" lon="5.00122">
        <ele>292.38</ele>
        <time>2016-10-16T10:16:57Z</time>
      </trkpt>
      <trkpt lat="47.29932" lon="5.00122">
        <ele>292.38</ele>
        <time>2016-10-16T10:16:58Z</time>
      </trkpt>
      <trkpt lat="47.29966" lon="5.00121">
        <ele>292.86</ele>
        <time>2016-10-16T10:17:10Z</time>
      </trkpt>
      <trkpt lat="47.30005" lon="5.00125">
        <ele>292.86</ele>
        <time>2016-10-16T10:17:25Z</time>
      </trkpt>
      <trkpt lat="47.3002" lon="5.00128">
        <ele>294.3</ele>
        <time>2016-10-16T10:17:37Z</time>
      </trkpt>
      <trkpt lat="47.30023" lon="5.00129">
        <ele>294.78</ele>
        <time>2016-10-16T10:17:54Z</time>
      </trkpt>
      <trkpt lat="47.3003" lon="5.00133">
        <ele>297.18</ele>
        <time>2016-10-16T10:18:09Z</time>
      </trkpt>
      <trkpt lat="47.30032" lon="5.00135">
        <ele>297.67</ele>
        <time>2016-10-16T10:18:20Z</time>
      </trkpt>
      <trkpt lat="47.30038" lon="5.00143">
        <ele>298.15</ele>
        <time>2016-10-16T10:18:25Z</time>
      </trkpt>
      <trkpt lat="47.30049" lon="5.0015">
        <ele>298.63</ele>
        <time>2016-10-16T10:18:33Z</time>
      </trkpt>
      <trkpt lat="47.30056" lon="5.00157">
        <ele>299.59</ele>
        <time>2016-10-16T10:18:40Z</time>
      </trkpt>
      <trkpt lat="47.30064" lon="5.00168">
        <ele>301.51</ele>
        <time>2016-10-16T10:18:48Z</time>
      </trkpt>
      <trkpt lat="47.30067" lon="5.00169">
        <ele>301.99</ele>
        <time>2016-10-16T10:18:50Z</time>
      </trkpt>
      <trkpt lat="47.30089" lon="5.00196">
        <ele>301.99</ele>
        <time>2016-10-16T10:19:03Z</time>
      </trkpt>
      <trkpt lat="47.3011" lon="5.00217">
        <ele>302.47</ele>
        <time>2016-10-16T10:19:15Z</time>
      </trkpt>
      <trkpt lat="47.30114" lon="5.00221">
        <ele>302.47</ele>
        <time>2016-10-16T10:19:19Z</time>
      </trkpt>
      <trkpt lat="47.30127" lon="5.00233">
        <ele>302.47</ele>
        <time>2016-10-16T10:19:29Z</time>
      </trkpt>
      <trkpt lat="47.30138" lon="5.0024">
        <ele>303.43</ele>
        <time>2016-10-16T10:19:38Z</time>
      </trkpt>
      <trkpt lat="47.30153" lon="5.00245">
        <ele>305.84</ele>
        <time>2016-10-16T10:19:49Z</time>
      </trkpt>
      <trkpt lat="47.30168" lon="5.00265">
        <ele>303.91</ele>
        <time>2016-10-16T10:19:59Z</time>
      </trkpt>
      <trkpt lat="47.30193" lon="5.00268">
        <ele>303.43</ele>
        <time>2016-10-16T10:20:09Z</time>
      </trkpt>
      <trkpt lat="47.302" lon="5.00267">
        <ele>304.39</ele>
        <time>2016-10-16T10:20:12Z</time>
      </trkpt>
      <trkpt lat="47.30212" lon="5.00266">
        <ele>305.36</ele>
        <time>2016-10-16T10:20:18Z</time>
      </trkpt>
      <trkpt lat="47.30248" lon="5.00274">
        <ele>306.32</ele>
        <time>2016-10-16T10:20:34Z</time>
      </trkpt>
      <trkpt lat="47.3028" lon="5.00274">
        <ele>307.28</ele>
        <time>2016-10-16T10:20:48Z</time>
      </trkpt>
      <trkpt lat="47.30302" lon="5.00278">
        <ele>306.32</ele>
        <time>2016-10-16T10:20:59Z</time>
      </trkpt>
      <trkpt lat="47.30306" lon="5.00277">
        <ele>306.8</ele>
        <time>2016-10-16T10:21:01Z</time>
      </trkpt>
      <trkpt lat="47.30317" lon="5.00277">
        <ele>307.76</ele>
        <time>2016-10-16T10:21:06Z</time>
      </trkpt>
      <trkpt lat="47.30336" lon="5.00278">
        <ele>309.68</ele>
        <time>2016-10-16T10:21:16Z</time>
      </trkpt>
      <trkpt lat="47.30366" lon="5.00259">
        <ele>312.57</ele>
        <time>2016-10-16T10:21:28Z</time>
      </trkpt>
      <trkpt lat="47.30401" lon="5.00246">
        <ele>312.57</ele>
        <time>2016-10-16T10:21:43Z</time>
      </trkpt>
      <trkpt lat="47.30427" lon="5.00238">
        <ele>313.53</ele>
        <time>2016-10-16T10:21:56Z</time>
      </trkpt>
      <trkpt lat="47.30435" lon="5.00234">
        <ele>314.49</ele>
        <time>2016-10-16T10:22:00Z</time>
      </trkpt>
      <trkpt lat="47.30448" lon="5.00227">
        <ele>314.97</ele>
        <time>2016-10-16T10:22:08Z</time>
      </trkpt>
      <trkpt lat="47.30451" lon="5.00223">
        <ele>314.97</ele>
        <time>2016-10-16T10:22:11Z</time>
      </trkpt>
      <trkpt lat="47.30454" lon="5.0022">
        <ele>314.49</ele>
        <time>2016-10-16T10:22:14Z</time>
      </trkpt>
      <trkpt lat="47.30458" lon="5.00211">
        <ele>314.49</ele>
        <time>2016-10-16T10:22:27Z</time>
      </trkpt>
      <trkpt lat="47.30459" lon="5.0021">
        <ele>314.01</ele>
        <time>2016-10-16T10:22:44Z</time>
      </trkpt>
      <trkpt lat="47.30452" lon="5.00205">
        <ele>314.01</ele>
        <time>2016-10-16T10:22:49Z</time>
      </trkpt>
      <trkpt lat="47.30422" lon="5.00186">
        <ele>318.81</ele>
        <time>2016-10-16T10:23:03Z</time>
      </trkpt>
      <trkpt lat="47.30393" lon="5.00175">
        <ele>320.74</ele>
        <time>2016-10-16T10:23:15Z</time>
      </trkpt>
      <trkpt lat="47.30367" lon="5.00159">
        <ele>326.5</ele>
        <time>2016-10-16T10:23:27Z</time>
      </trkpt>
      <trkpt lat="47.30339" lon="5.00142">
        <ele>328.91</ele>
        <time>2016-10-16T10:23:41Z</time>
      </trkpt>
      <trkpt lat="47.30316" lon="5.00127">
        <ele>327.95</ele>
        <time>2016-10-16T10:23:53Z</time>
      </trkpt>
      <trkpt lat="47.30292" lon="5.00112">
        <ele>330.83</ele>
        <time>2016-10-16T10:24:07Z</time>
      </trkpt>
      <trkpt lat="47.30268" lon="5.00099">
        <ele>331.31</ele>
        <time>2016-10-16T10:24:18Z</time>
      </trkpt>
      <trkpt lat="47.30267" lon="5.00084">
        <ele>330.83</ele>
        <time>2016-10-16T10:24:23Z</time>
      </trkpt>
      <trkpt lat="47.3027" lon="5.00064">
        <ele>330.83</ele>
        <time>2016-10-16T10:24:34Z</time>
      </trkpt>
      <trkpt lat="47.3027" lon="5.00064">
        <ele>328.43</ele>
        <time>2016-10-16T10:24:50Z</time>
      </trkpt>
      <trkpt lat="47.30269" lon="5.00064">
        <ele>325.54</ele>
        <time>2016-10-16T10:25:21Z</time>
      </trkpt>
      <trkpt lat="47.30269" lon="5.00064">
        <ele>325.54</ele>
        <time>2016-10-16T10:25:23Z</time>
      </trkpt>
    </trkseg>
  </trk>
</gpx>